Provisional Data: Meshoppen Creek near Kaiserville, PA


Please select a monitoring station.
Please select start date.
Please select start date.

Toggle Unit: C/F Toggle Unit: C/F
Sample Time Temperature (C) Temperature (F) Specific Conductivity (mS/cm) pH   Turbidity (NTU+) DO (mg/L)
12/11/2021 12:00:00 AM 2.56 36.608 0.121 7.35 8.29 13.54
12/11/2021 12:15:00 AM 2.55 36.59 0.121 7.35 8.43 13.53
12/11/2021 12:30:00 AM 2.54 36.572 0.121 7.35 8.15 13.53
12/11/2021 12:45:00 AM 2.55 36.59 0.121 7.34 7.7 13.52
12/11/2021 1:00:00 AM 2.56 36.608 0.121 7.34 8.59 13.52
12/11/2021 1:15:00 AM 2.58 36.644 0.121 7.34 7.89 13.51
12/11/2021 1:30:00 AM 2.6 36.68 0.121 7.34 7.85 13.5
12/11/2021 1:45:00 AM 2.62 36.716 0.121 7.34 8.16 13.49
12/11/2021 2:00:00 AM 2.65 36.77 0.121 7.34 7.66 13.48
12/11/2021 2:15:00 AM 2.68 36.824 0.121 7.34 8.18 13.46
12/11/2021 2:30:00 AM 2.71 36.878 0.121 7.34 7.99 13.45
12/11/2021 2:45:00 AM 2.74 36.932 0.12 7.34 7.54 13.43
12/11/2021 3:00:00 AM 2.77 36.986 0.121 7.34 8.19 13.42
12/11/2021 3:15:00 AM 2.81 37.058 0.121 7.34 8.1 13.41
12/11/2021 3:30:00 AM 2.83 37.094 0.121 7.34 8.14 13.4
12/11/2021 3:45:00 AM 2.86 37.148 0.121 7.34 7.98 13.38
12/11/2021 4:00:00 AM 2.89 37.202 0.121 7.34 8.42 13.37
12/11/2021 4:15:00 AM 2.91 37.238 0.121 7.35 8.48 13.36
12/11/2021 4:30:00 AM 2.94 37.292 0.121 7.35 8.3 13.34
12/11/2021 4:45:00 AM 2.97 37.346 0.121 7.35 7.85 13.32
12/11/2021 5:00:00 AM 3 37.4 0.121 7.34 8.41 13.31
12/11/2021 5:15:00 AM 3.02 37.436 0.121 7.35 7.41 13.3
12/11/2021 5:30:00 AM 3.05 37.49 0.121 7.35 7.82 13.3
12/11/2021 5:45:00 AM 3.08 37.544 0.122 7.35 7.23 13.28
12/11/2021 6:00:00 AM 3.1 37.58 0.121 7.35 8.28 13.26
12/11/2021 6:15:00 AM 3.13 37.634 0.121 7.35 8.42 13.25
12/11/2021 6:30:00 AM 3.16 37.688 0.122 7.35 8.48 13.23
12/11/2021 6:45:00 AM 3.19 37.742 0.12 7.35 7.99 13.22
12/11/2021 7:00:00 AM 3.23 37.814 0.121 7.35 8.26 13.2
12/11/2021 7:15:00 AM 3.27 37.886 0.12 7.35 7.94 13.19
12/11/2021 7:30:00 AM 3.33 37.994 0.12 7.35 8.59 13.17
12/11/2021 7:45:00 AM 3.36 38.048 0.121 7.35 7.84 13.16
12/11/2021 8:00:00 AM 3.39 38.102 0.121 7.35 8.01 13.15
12/11/2021 8:15:00 AM 3.43 38.174 0.121 7.35 8.05 13.15
12/11/2021 8:30:00 AM 3.46 38.228 0.12 7.36 8.42 13.15
12/11/2021 8:45:00 AM 3.49 38.282 0.12 7.37 8.39 13.17
12/11/2021 9:00:00 AM 3.51 38.318 0.12 7.38 8.33 13.19
12/11/2021 9:15:00 AM 3.54 38.372 0.121 7.39 8.1 13.21
12/11/2021 9:30:00 AM 3.58 38.444 0.121 7.4 8.77 13.25
12/11/2021 9:45:00 AM 3.63 38.534 0.121 7.42 8.2 13.29
12/11/2021 10:00:00 AM 3.69 38.642 0.12 7.44 8.16 13.35
12/11/2021 10:15:00 AM 3.74 38.732 0.121 7.47 8.34 13.39
12/11/2021 10:30:00 AM 3.79 38.822 0.12 7.5 8.08 13.46
12/11/2021 10:45:00 AM 3.85 38.93 0.121 7.53 8.42 13.5
12/11/2021 11:00:00 AM 3.92 39.056 0.12 7.56 9.01 13.52
12/11/2021 11:15:00 AM 3.98 39.164 0.121 7.6 8.05 13.58
12/11/2021 11:30:00 AM 4.04 39.272 0.121 7.63 8.46 13.58
12/11/2021 11:45:00 AM 4.09 39.362 0.121 7.66 8.14 13.59
12/11/2021 12:00:00 PM 4.16 39.488 0.121 7.7 8.3 13.64
12/11/2021 12:15:00 PM 4.22 39.596 0.122 7.71 8.65 13.58
12/11/2021 12:30:00 PM 4.26 39.668 0.122 7.71 8.39 13.53
12/11/2021 12:45:00 PM 4.33 39.794 0.122 7.74 8.2 13.56
12/11/2021 1:00:00 PM 4.39 39.902 0.123 7.74 8.79 13.51
12/11/2021 1:15:00 PM 4.45 40.01 0.123 7.74 8.83 13.45
12/11/2021 1:30:00 PM 4.5 40.1 0.123 7.72 8.81 13.38
12/11/2021 1:45:00 PM 4.53 40.154 0.124 7.7 8.73 13.32
12/11/2021 2:00:00 PM 4.58 40.244 0.124 7.69 9.23 13.28
12/11/2021 2:15:00 PM 4.62 40.316 0.124 7.68 9.13 13.22
12/11/2021 2:30:00 PM 4.65 40.37 0.123 7.65 8.74 13.14
12/11/2021 2:45:00 PM 4.7 40.46 0.123 7.64 8.44 13.1
12/11/2021 3:00:00 PM 4.74 40.532 0.124 7.62 8.81 13.04
12/11/2021 3:15:00 PM 4.78 40.604 0.124 7.6 8.66 13
12/11/2021 3:30:00 PM 4.84 40.712 0.124 7.6 8.58 12.98
12/11/2021 3:45:00 PM 4.9 40.82 0.124 7.59 8.32 12.95
12/11/2021 4:00:00 PM 4.95 40.91 0.123 7.58 8.49 12.9
12/11/2021 4:15:00 PM 4.98 40.964 0.123 7.57 8.6 12.84
12/11/2021 4:30:00 PM 5.01 41.018 0.123 7.55 8.51 12.77
12/11/2021 4:45:00 PM 5.03 41.054 0.123 7.53 8.39 12.71
12/11/2021 5:00:00 PM 5.05 41.09 0.124 7.51 8.91 12.66
12/11/2021 5:15:00 PM 5.06 41.108 0.124 7.49 8.74 12.61
12/11/2021 5:30:00 PM 5.07 41.126 0.124 7.48 8.38 12.58
12/11/2021 5:45:00 PM 5.1 41.18 0.126 7.46 8.48 12.55
12/11/2021 6:00:00 PM 5.17 41.306 0.125 7.46 9.22 12.52
12/11/2021 6:15:00 PM 5.24 41.432 0.125 7.45 9.51 12.49
12/11/2021 6:30:00 PM 5.3 41.54 0.124 7.45 9.18 12.47
12/11/2021 6:45:00 PM 5.36 41.648 0.125 7.45 9.33 12.44
12/11/2021 7:00:00 PM 5.42 41.756 0.125 7.44 9.75 12.41
12/11/2021 7:15:00 PM 5.49 41.882 0.124 7.44 9.26 12.39
12/11/2021 7:30:00 PM 5.58 42.044 0.123 7.44 9.99 12.37
12/11/2021 7:45:00 PM 5.62 42.116 0.124 7.43 9.05 12.35
12/11/2021 8:00:00 PM 5.64 42.152 0.123 7.43 9.89 12.33
12/11/2021 8:15:00 PM 5.66 42.188 0.123 7.43 9.83 12.33
12/11/2021 8:30:00 PM 5.68 42.224 0.123 7.43 9.42 12.32
12/11/2021 8:45:00 PM 5.68 42.224 0.122 7.42 9.78 12.3
12/11/2021 9:00:00 PM 5.68 42.224 0.122 7.42 9.15 12.31
12/11/2021 9:15:00 PM 5.67 42.206 0.122 7.42 9.24 12.32
12/11/2021 9:30:00 PM 5.64 42.152 0.122 7.42 9.45 12.34
12/11/2021 9:45:00 PM 5.62 42.116 0.121 7.41 9.48 12.33
12/11/2021 10:00:00 PM 5.58 42.044 0.122 7.41 10.06 12.35
12/11/2021 10:15:00 PM 5.55 41.99 0.122 7.41 9.72 12.36
12/11/2021 10:30:00 PM 5.49 41.882 0.122 7.41 7.49 12.38
12/11/2021 10:45:00 PM 5.45 41.81 0.123 7.41 9.28 12.38
12/11/2021 11:00:00 PM 5.41 41.738 0.123 7.41 9.26 12.4
12/11/2021 11:15:00 PM 5.39 41.702 0.124 7.4 10.18 12.42
12/11/2021 11:30:00 PM 5.36 41.648 0.124 7.4 10.77 12.42
12/11/2021 11:45:00 PM 5.34 41.612 0.125 7.4 10.1 12.43
12/12/2021 12:00:00 AM 5.31 41.558 0.124 7.4 3.48 12.45
12/12/2021 12:15:00 AM 5.28 41.504 0.125 7.4 9.9 12.46
12/12/2021 12:30:00 AM 5.25 41.45 0.125 7.39 4.46 12.47
12/12/2021 12:45:00 AM 5.21 41.378 0.125 7.39 10.51 12.48
12/12/2021 1:00:00 AM 5.19 41.342 0.124 7.39 8.08 12.5
12/12/2021 1:15:00 AM 5.16 41.288 0.125 7.39 10.04 12.52
12/12/2021 1:30:00 AM 5.13 41.234 0.125 7.39 8.68 12.53
12/12/2021 1:45:00 AM 5.1 41.18 0.124 7.39 4.86 12.55
12/12/2021 2:00:00 AM 5.06 41.108 0.125 7.39 10.88 12.56
12/12/2021 2:15:00 AM 5.03 41.054 0.124 7.39 4.11 12.57
12/12/2021 2:30:00 AM 4.99 40.982 0.124 7.38 8.98 12.59
12/12/2021 2:45:00 AM 4.95 40.91 0.124 7.38 4.78 12.61
12/12/2021 3:00:00 AM 4.9 40.82 0.123 7.38 4.1 12.63
12/12/2021 3:15:00 AM 4.85 40.73 0.123 7.38 4.19 12.66
12/12/2021 3:30:00 AM 4.79 40.622 0.122 7.38 10.81 12.67
12/12/2021 3:45:00 AM 4.75 40.55 0.122 7.37 8.1 12.7
12/12/2021 4:00:00 AM 4.69 40.442 0.121 7.37 4.47 12.72
12/12/2021 4:15:00 AM 4.63 40.334 0.12 7.37 10.79 12.74
12/12/2021 4:30:00 AM 4.58 40.244 0.12 7.37 4.39 12.76
12/12/2021 4:45:00 AM 4.52 40.136 0.119 7.36 5.1 12.79
12/12/2021 5:00:00 AM 4.45 40.01 0.12 7.36 4.1 12.82
12/12/2021 5:15:00 AM 4.38 39.884 0.12 7.36 4.1 12.84
12/12/2021 5:30:00 AM 4.3 39.74 0.119 7.35 3.88 12.87
12/12/2021 5:45:00 AM 4.23 39.614 0.119 7.35 4.73 12.89
12/12/2021 6:00:00 AM 4.16 39.488 0.119 7.35 4.13 12.92
12/12/2021 6:15:00 AM 4.1 39.38 0.119 7.34 8.27 12.95
12/12/2021 6:30:00 AM 4.04 39.272 0.118 7.34 10.69 12.97
12/12/2021 6:45:00 AM 3.97 39.146 0.119 7.34 10.91 13
12/12/2021 7:00:00 AM 3.91 39.038 0.12 7.33 5.19 13.03
12/12/2021 7:15:00 AM 3.84 38.912 0.12 7.33 4.99 13.06
12/12/2021 7:30:00 AM 3.78 38.804 0.119 7.32 4.39 13.09
12/12/2021 7:45:00 AM 3.74 38.732 0.12 7.32 5.33 13.13
12/12/2021 8:00:00 AM 3.68 38.624 0.12 7.33 4.8 13.19
12/12/2021 8:15:00 AM 3.63 38.534 0.121 7.33 5.72 13.24
12/12/2021 8:30:00 AM 3.58 38.444 0.121 7.34 4.85 13.31
12/12/2021 8:45:00 AM 3.54 38.372 0.122 7.35 6.39 13.37
12/12/2021 9:00:00 AM 3.5 38.3 0.122 7.37 5.77 13.44
12/12/2021 9:15:00 AM 3.49 38.282 0.123 7.39 6.47 13.51
12/12/2021 9:30:00 AM 3.48 38.264 0.123 7.41 5.87 13.58
12/12/2021 9:45:00 AM 3.49 38.282 0.122 7.44 5.79 13.65
12/12/2021 10:00:00 AM 3.5 38.3 0.122 7.48 5.4 13.71
12/12/2021 10:15:00 AM 3.52 38.336 0.122 7.51 4.64 13.77
12/12/2021 10:30:00 AM 3.56 38.408 0.122 7.54 4.63 13.82
12/12/2021 10:45:00 AM 3.59 38.462 0.122 7.58 4.62 13.87
12/12/2021 11:00:00 AM 3.66 38.588 0.122 7.62 4.01 13.92
12/12/2021 11:15:00 AM 3.71 38.678 0.122 7.66 9.1 13.95
12/12/2021 11:30:00 AM 3.77 38.786 0.122 7.69 4.69 13.95
12/12/2021 11:45:00 AM 3.81 38.858 0.121 7.72 10.97 13.96
12/12/2021 12:00:00 PM 3.85 38.93 0.122 7.75 4.51 13.97
12/12/2021 12:15:00 PM 3.89 39.002 0.122 7.78 4.77 13.97
12/12/2021 12:30:00 PM 3.93 39.074 0.122 7.8 4.61 13.97
12/12/2021 12:45:00 PM 3.97 39.146 0.122 7.82 10.01 13.96
12/12/2021 1:00:00 PM 3.99 39.182 0.122 7.84 4.18 13.95
12/12/2021 1:15:00 PM 4.01 39.218 0.122 7.85 10.99 13.94
12/12/2021 1:30:00 PM 4.02 39.236 0.122 7.85 8.53 13.93
12/12/2021 1:45:00 PM 4.04 39.272 0.123 7.86 4.04 13.91
12/12/2021 2:00:00 PM 4.04 39.272 0.122 7.86 4.6 13.9
12/12/2021 2:15:00 PM 4.03 39.254 0.122 7.85 4.88 13.88
12/12/2021 2:30:00 PM 4.01 39.218 0.123 7.84 10.59 13.86
12/12/2021 2:45:00 PM 3.99 39.182 0.122 7.82 10.13 13.83
12/12/2021 3:00:00 PM 3.96 39.128 0.122 7.8 4.01 13.81
12/12/2021 3:15:00 PM 3.92 39.056 0.123 7.77 10.59 13.78
12/12/2021 3:30:00 PM 3.89 39.002 0.123 7.74 10.68 13.74
12/12/2021 3:45:00 PM 3.86 38.948 0.123 7.71 8.37 13.7
12/12/2021 4:00:00 PM 3.83 38.894 0.123 7.67 4.25 13.66
12/12/2021 4:15:00 PM 3.8 38.84 0.123 7.63 10.19 13.6
12/12/2021 4:30:00 PM 3.78 38.804 0.122 7.59 3.98 13.54
12/12/2021 4:45:00 PM 3.76 38.768 0.123 7.56 8.35 13.49
12/12/2021 5:00:00 PM 3.75 38.75 0.122 7.52 3.9 13.43
12/12/2021 5:15:00 PM 3.74 38.732 0.123 7.49 10.74 13.39
12/12/2021 5:30:00 PM 3.72 38.696 0.123 7.47 10.87 13.35
12/12/2021 5:45:00 PM 3.71 38.678 0.122 7.45 4.69 13.32
12/12/2021 6:00:00 PM 3.7 38.66 0.122 7.43 4.11 13.3
12/12/2021 6:15:00 PM 3.68 38.624 0.121 7.42 4.2 13.29
12/12/2021 6:30:00 PM 3.66 38.588 0.121 7.41 4.18 13.28
12/12/2021 6:45:00 PM 3.63 38.534 0.121 7.39 10.58 13.27
12/12/2021 7:00:00 PM 3.61 38.498 0.121 7.39 8.28 13.27
12/12/2021 7:15:00 PM 3.57 38.426 0.12 7.38 4.28 13.27
12/12/2021 7:30:00 PM 3.54 38.372 0.12 7.37 3.58 13.28
12/12/2021 7:45:00 PM 3.5 38.3 0.121 7.37 10.45 13.29
12/12/2021 8:00:00 PM 3.46 38.228 0.12 7.36 10.78 13.29
12/12/2021 8:15:00 PM 3.42 38.156 0.121 7.36 10.35 13.31
12/12/2021 8:30:00 PM 3.37 38.066 0.121 7.35 10.45 13.32
12/12/2021 8:45:00 PM 3.33 37.994 0.121 7.34 10.23 13.33
12/12/2021 9:00:00 PM 3.28 37.904 0.12 7.34 10.67 13.34
12/12/2021 9:15:00 PM 3.23 37.814 0.12 7.34 3.68 13.36
12/12/2021 9:30:00 PM 3.18 37.724 0.12 7.33 3.67 13.37
12/12/2021 9:45:00 PM 3.14 37.652 0.12 7.32 10.24 13.39
12/12/2021 10:00:00 PM 3.09 37.562 0.12 7.32 10.28 13.41
12/12/2021 10:15:00 PM 3.04 37.472 0.12 7.32 3.64 13.41
12/12/2021 10:30:00 PM 2.99 37.382 0.12 7.31 3.86 13.43
12/12/2021 10:45:00 PM 2.94 37.292 0.121 7.31 7.75 13.45
12/12/2021 11:00:00 PM 2.89 37.202 0.12 7.3 3.34 13.46
12/12/2021 11:15:00 PM 2.84 37.112 0.121 7.3 3.32 13.48
12/12/2021 11:30:00 PM 2.78 37.004 0.12 7.3 10.06 13.49
12/12/2021 11:45:00 PM 2.73 36.914 0.121 7.29 10.55 13.51
12/13/2021 12:00:00 AM 2.68 36.824 0.121 7.28 3.63 13.52
12/13/2021 12:15:00 AM 2.63 36.734 0.121 7.28 10.19 13.54
12/13/2021 12:30:00 AM 2.57 36.626 0.121 7.28 3.75 13.56
12/13/2021 12:45:00 AM 2.52 36.536 0.122 7.28 10.59 13.57
12/13/2021 1:00:00 AM 2.47 36.446 0.123 7.27 3.76 13.59
12/13/2021 1:15:00 AM 2.43 36.374 0.122 7.27 3.55 13.61
12/13/2021 1:30:00 AM 2.39 36.302 0.122 7.27 3.46 13.63
12/13/2021 1:45:00 AM 2.37 36.266 0.122 7.27 3.99 13.64
12/13/2021 2:00:00 AM 2.34 36.212 0.123 7.27 3.82 13.65
12/13/2021 2:15:00 AM 2.32 36.176 0.122 7.27 3.88 13.67
12/13/2021 2:30:00 AM 2.3 36.14 0.123 7.27 3.7 13.68
12/13/2021 2:45:00 AM 2.28 36.104 0.123 7.27 3.7 13.69
12/13/2021 3:00:00 AM 2.26 36.068 0.122 7.27 3.9 13.71
12/13/2021 3:15:00 AM 2.23 36.014 0.123 7.27 11.33 13.72
12/13/2021 3:30:00 AM 2.21 35.978 0.123 7.28 10.68 13.73
12/13/2021 3:45:00 AM 2.18 35.924 0.124 7.28 3.74 13.73
12/13/2021 4:00:00 AM 2.16 35.888 0.124 7.28 3.94 13.74
12/13/2021 4:15:00 AM 2.16 35.888 0.124 7.28 3.94 13.75
12/13/2021 4:30:00 AM 2.15 35.87 0.124 7.28 10.91 13.75
12/13/2021 4:45:00 AM 2.14 35.852 0.124 7.28 10.84 13.76
12/13/2021 5:00:00 AM 2.13 35.834 0.124 7.28 10.85 13.76
12/13/2021 5:15:00 AM 2.12 35.816 0.124 7.28 8.17 13.76
12/13/2021 5:30:00 AM 2.12 35.816 0.124 7.28 4.18 13.77
12/13/2021 5:45:00 AM 2.11 35.798 0.124 7.28 3.91 13.78
12/13/2021 6:00:00 AM 2.09 35.762 0.125 7.28 4.28 13.78
12/13/2021 6:15:00 AM 2.08 35.744 0.125 7.28 4.25 13.79
12/13/2021 6:30:00 AM 2.07 35.726 0.124 7.28 4.38 13.79
12/13/2021 6:45:00 AM 2.06 35.708 0.125 7.28 5.34 13.8
12/13/2021 7:00:00 AM 2.05 35.69 0.125 7.29 4.62 13.81
12/13/2021 7:15:00 AM 2.04 35.672 0.125 7.29 4.81 13.81
12/13/2021 7:30:00 AM 2.04 35.672 0.125 7.29 4.52 13.83
12/13/2021 7:45:00 AM 2.04 35.672 0.124 7.3 4.69 13.85
12/13/2021 8:00:00 AM 2.04 35.672 0.125 7.31 5.11 13.9
12/13/2021 8:15:00 AM 2.06 35.708 0.125 7.32 4.79 13.95
12/13/2021 8:30:00 AM 2.07 35.726 0.125 7.35 11.19 14.06
12/13/2021 8:45:00 AM 2.08 35.744 0.125 7.38 4.68 14.15
12/13/2021 9:00:00 AM 2.13 35.834 0.125 7.42 5.56 14.27
12/13/2021 9:15:00 AM 2.16 35.888 0.126 7.46 5.21 14.35
12/13/2021 9:30:00 AM 2.19 35.942 0.125 7.5 6.2 14.4
12/13/2021 9:45:00 AM 2.21 35.978 0.125 7.53 5.32 14.42
12/13/2021 10:00:00 AM 2.25 36.05 0.125 7.56 5.29 14.46
12/13/2021 10:15:00 AM 2.3 36.14 0.125 7.6 6.29 14.48
12/13/2021 10:30:00 AM 2.36 36.248 0.125 7.64 5.39 14.51
12/13/2021 10:45:00 AM 2.43 36.374 0.124 7.67 5.45 14.51
12/13/2021 11:00:00 AM 2.49 36.482 0.125 7.69 6.64 14.52
12/13/2021 11:15:00 AM 2.56 36.608 0.125 7.72 5.72 14.51
12/13/2021 11:30:00 AM 2.63 36.734 0.125 7.74 5.71 14.5
12/13/2021 11:45:00 AM 2.71 36.878 0.124 7.77 6.64 14.48
12/13/2021 12:00:00 PM 2.79 37.022 0.124 7.79 5.71 14.47
12/13/2021 12:15:00 PM 2.88 37.184 0.124 7.82 6.37 14.45
12/13/2021 12:30:00 PM 2.96 37.328 0.123 7.84 5.89 14.42
12/13/2021 12:45:00 PM 3.05 37.49 0.124 7.87 6.13 14.4
12/13/2021 1:00:00 PM 3.13 37.634 0.123 7.89 6.42 14.37
12/13/2021 1:15:00 PM 3.21 37.778 0.123 7.91 5.96 14.34
12/13/2021 1:30:00 PM 3.27 37.886 0.123 7.92 6.06 14.31
12/13/2021 1:45:00 PM 3.32 37.976 0.123 7.93 5.91 14.27
12/13/2021 2:00:00 PM 3.36 38.048 0.123 7.92 5.06 14.24
12/13/2021 2:15:00 PM 3.38 38.084 0.124 7.92 6.21 14.19
12/13/2021 2:30:00 PM 3.39 38.102 0.123 7.9 5.84 14.16
12/13/2021 2:45:00 PM 3.39 38.102 0.123 7.88 6.2 14.13
12/13/2021 3:00:00 PM 3.37 38.066 0.124 7.85 5.56 14.09
12/13/2021 3:15:00 PM 3.35 38.03 0.124 7.82 5.54 14.05
12/13/2021 3:30:00 PM 3.31 37.958 0.124 7.78 5.44 14.02
12/13/2021 3:45:00 PM 3.28 37.904 0.124 7.74 5.51 13.97
12/13/2021 4:00:00 PM 3.24 37.832 0.123 7.7 6.13 13.93
12/13/2021 4:15:00 PM 3.2 37.76 0.124 7.65 5.94 13.87
12/13/2021 4:30:00 PM 3.17 37.706 0.124 7.61 6.65 13.8
12/13/2021 4:45:00 PM 3.14 37.652 0.124 7.58 6.83 13.74
12/13/2021 5:00:00 PM 3.11 37.598 0.124 7.53 5.94 13.68
12/13/2021 5:15:00 PM 3.08 37.544 0.124 7.5 5.98 13.64
12/13/2021 5:30:00 PM 3.05 37.49 0.125 7.47 6.99 13.6
12/13/2021 5:45:00 PM 3.03 37.454 0.124 7.45 5.86 13.57
12/13/2021 6:00:00 PM 3.01 37.418 0.124 7.44 5.67 13.55
12/13/2021 6:15:00 PM 3 37.4 0.124 7.42 5.94 13.54
12/13/2021 6:30:00 PM 2.98 37.364 0.124 7.41 6.47 13.52
12/13/2021 6:45:00 PM 2.98 37.364 0.124 7.39 5.34 13.51
12/13/2021 7:00:00 PM 2.97 37.346 0.124 7.39 6.3 13.5
12/13/2021 7:15:00 PM 2.96 37.328 0.125 7.38 5.62 13.5
12/13/2021 7:30:00 PM 2.95 37.31 0.123 7.37 6.13 13.49
12/13/2021 7:45:00 PM 2.93 37.274 0.124 7.37 5.75 13.48
12/13/2021 8:00:00 PM 2.91 37.238 0.123 7.36 6.06 13.49
12/13/2021 8:15:00 PM 2.88 37.184 0.124 7.36 5.6 13.49
12/13/2021 8:30:00 PM 2.86 37.148 0.124 7.35 5.59 13.49
12/13/2021 8:45:00 PM 2.83 37.094 0.124 7.34 5.44 13.5
12/13/2021 9:00:00 PM 2.8 37.04 0.124 7.34 5.32 13.51
12/13/2021 9:15:00 PM 2.77 36.986 0.123 7.33 5.61 13.52
12/13/2021 9:30:00 PM 2.73 36.914 0.123 7.33 5.81 13.53
12/13/2021 9:45:00 PM 2.7 36.86 0.123 7.33 6.16 13.54
12/13/2021 10:00:00 PM 2.66 36.788 0.124 7.32 5.27 13.55
12/13/2021 10:15:00 PM 2.63 36.734 0.123 7.32 5.64 13.57
12/13/2021 10:30:00 PM 2.6 36.68 0.124 7.32 5.37 13.58
12/13/2021 10:45:00 PM 2.56 36.608 0.124 7.31 5.25 13.59
12/13/2021 11:00:00 PM 2.52 36.536 0.123 7.31 5.44 13.61
12/13/2021 11:15:00 PM 2.49 36.482 0.123 7.3 5.29 13.62
12/13/2021 11:30:00 PM 2.45 36.41 0.123 7.3 4.71 13.64
12/13/2021 11:45:00 PM 2.41 36.338 0.124 7.3 4.92 13.65
12/14/2021 12:00:00 AM 2.38 36.284 0.124 7.3 5.74 13.66
12/14/2021 12:15:00 AM 2.34 36.212 0.124 7.3 5.22 13.68
12/14/2021 12:30:00 AM 2.3 36.14 0.123 7.29 5.33 13.7
12/14/2021 12:45:00 AM 2.25 36.05 0.123 7.29 5.28 13.72
12/14/2021 1:00:00 AM 2.21 35.978 0.124 7.29 4.54 13.73
12/14/2021 1:15:00 AM 2.17 35.906 0.124 7.29 4.59 13.75
12/14/2021 1:30:00 AM 2.12 35.816 0.124 7.28 5.21 13.77
12/14/2021 1:45:00 AM 2.08 35.744 0.124 7.28 5.57 13.79
12/14/2021 2:00:00 AM 2.03 35.654 0.124 7.28 5.81 13.81
12/14/2021 2:15:00 AM 1.99 35.582 0.124 7.28 4.67 13.83
12/14/2021 2:30:00 AM 1.94 35.492 0.124 7.27 5.16 13.85
12/14/2021 2:45:00 AM 1.89 35.402 0.124 7.27 4.78 13.86
12/14/2021 3:00:00 AM 1.85 35.33 0.125 7.26 4.86 13.89
12/14/2021 3:15:00 AM 1.8 35.24 0.123 7.26 4.65 13.9
12/14/2021 3:30:00 AM 1.76 35.168 0.124 7.26 4.77 13.92
12/14/2021 3:45:00 AM 1.72 35.096 0.124 7.26 4.09 13.94
12/14/2021 4:00:00 AM 1.67 35.006 0.125 7.26 4.35 13.96
12/14/2021 4:15:00 AM 1.63 34.934 0.124 7.26 4.55 13.98
12/14/2021 4:30:00 AM 1.59 34.862 0.124 7.25 4.67 14
12/14/2021 4:45:00 AM 1.55 34.79 0.124 7.25 5.18 14.02
12/14/2021 5:00:00 AM 1.51 34.718 0.124 7.25 4.02 14.03
12/14/2021 5:15:00 AM 1.48 34.664 0.124 7.25 4.27 14.06
12/14/2021 5:30:00 AM 1.44 34.592 0.124 7.25 4.01 14.07
12/14/2021 5:45:00 AM 1.4 34.52 0.124 7.25 3.82 14.08
12/14/2021 6:00:00 AM 1.37 34.466 0.124 7.25 4.45 14.11
12/14/2021 6:15:00 AM 1.33 34.394 0.124 7.25 4.17 14.13
12/14/2021 6:30:00 AM 1.29 34.322 0.125 7.25 4.4 14.15
12/14/2021 6:45:00 AM 1.26 34.268 0.124 7.25 4.32 14.16
12/14/2021 7:00:00 AM 1.22 34.196 0.124 7.25 3.84 14.18
12/14/2021 7:15:00 AM 1.18 34.124 0.124 7.25 3.95 14.2
12/14/2021 7:30:00 AM 1.16 34.088 0.125 7.25 4.38 14.23
12/14/2021 7:45:00 AM 1.15 34.07 0.125 7.26 4.32 14.28
12/14/2021 8:00:00 AM 1.15 34.07 0.125 7.28 4.37 14.37
12/14/2021 8:15:00 AM 1.15 34.07 0.124 7.3 4.66 14.46
12/14/2021 8:30:00 AM 1.16 34.088 0.124 7.33 4.75 14.56
12/14/2021 8:45:00 AM 1.18 34.124 0.123 7.36 3.81 14.65
12/14/2021 9:00:00 AM 1.2 34.16 0.124 7.39 3.79 14.74
12/14/2021 9:15:00 AM 1.24 34.232 0.124 7.43 3.76 14.81
12/14/2021 9:30:00 AM 1.28 34.304 0.124 7.48 3.71 14.91
12/14/2021 9:45:00 AM 1.31 34.358 0.123 7.52 3.97 14.96
12/14/2021 10:00:00 AM 1.38 34.484 0.123 7.56 3.96 15
12/14/2021 10:15:00 AM 1.46 34.628 0.124 7.61 3.83 15.07
12/14/2021 10:30:00 AM 1.56 34.808 0.122 7.67 10.66 15.11
12/14/2021 10:45:00 AM 1.65 34.97 0.122 7.71 3.71 15.08
12/14/2021 11:00:00 AM 1.72 35.096 0.122 7.75 4.14 15.08
12/14/2021 11:15:00 AM 1.8 35.24 0.122 7.78 10.62 15.07
12/14/2021 11:30:00 AM 1.88 35.384 0.122 7.81 3.88 15.05
12/14/2021 11:45:00 AM 1.95 35.51 0.122 7.84 7.61 15.05
12/14/2021 12:00:00 PM 2.03 35.654 0.121 7.87 8.33 15.02
12/14/2021 12:15:00 PM 2.12 35.816 0.121 7.9 4.1 15
12/14/2021 12:30:00 PM 2.2 35.96 0.121 7.92 3.85 14.95
12/14/2021 12:45:00 PM 2.29 36.122 0.121 7.94 10.28 14.91
12/14/2021 1:00:00 PM 2.37 36.266 0.122 7.96 8.18 14.87
12/14/2021 1:15:00 PM 2.45 36.41 0.121 7.97 10.12 14.84
12/14/2021 1:30:00 PM 2.52 36.536 0.121 7.98 3.38 14.8
12/14/2021 1:45:00 PM 2.57 36.626 0.12 7.99 9.7 14.76
12/14/2021 2:00:00 PM 2.61 36.698 0.121 7.99 10.14 14.72
12/14/2021 2:15:00 PM 2.65 36.77 0.12 7.98 10.05 14.69
12/14/2021 2:30:00 PM 2.66 36.788 0.121 7.96 3.67 14.65
12/14/2021 2:45:00 PM 2.66 36.788 0.12 7.94 7.59 14.61
12/14/2021 3:00:00 PM 2.64 36.752 0.121 7.92 10.45 14.57
12/14/2021 3:15:00 PM 2.62 36.716 0.121 7.88 9.84 14.54
12/14/2021 3:30:00 PM 2.59 36.662 0.122 7.84 10.84 14.5
12/14/2021 3:45:00 PM 2.55 36.59 0.121 7.8 10.05 14.46
12/14/2021 4:00:00 PM 2.5 36.5 0.121 7.75 7.92 14.41
12/14/2021 4:15:00 PM 2.45 36.41 0.121 7.7 9.69 14.35
12/14/2021 4:30:00 PM 2.4 36.32 0.121 7.65 10.53 14.3
12/14/2021 4:45:00 PM 2.35 36.23 0.122 7.6 10.1 14.23
12/14/2021 5:00:00 PM 2.3 36.14 0.122 7.55 10.74 14.18
12/14/2021 5:15:00 PM 2.25 36.05 0.121 7.52 10.12 14.14
12/14/2021 5:30:00 PM 2.21 35.978 0.121 7.48 10.2 14.11
12/14/2021 5:45:00 PM 2.18 35.924 0.122 7.46 9.91 14.08
12/14/2021 6:00:00 PM 2.15 35.87 0.122 7.44 7.7 14.06
12/14/2021 6:15:00 PM 2.12 35.816 0.122 7.43 9.94 14.05
12/14/2021 6:30:00 PM 2.09 35.762 0.122 7.41 9.54 14.04
12/14/2021 6:45:00 PM 2.07 35.726 0.122 7.4 10.54 14.04
12/14/2021 7:00:00 PM 2.05 35.69 0.121 7.39 7.48 14.03
12/14/2021 7:15:00 PM 2.03 35.654 0.121 7.38 9.83 14.03
12/14/2021 7:30:00 PM 2.01 35.618 0.122 7.38 10 14.03
12/14/2021 7:45:00 PM 1.99 35.582 0.121 7.37 7.87 14.03
12/14/2021 8:00:00 PM 1.98 35.564 0.121 7.36 3.07 14.02
12/14/2021 8:15:00 PM 1.96 35.528 0.121 7.36 10.2 14.02
12/14/2021 8:30:00 PM 1.95 35.51 0.121 7.35 10.16 14.03
12/14/2021 8:45:00 PM 1.94 35.492 0.121 7.35 10.18 14.03
12/14/2021 9:00:00 PM 1.92 35.456 0.121 7.34 10.44 14.03
12/14/2021 9:15:00 PM 1.91 35.438 0.121 7.34 10.37 14.03
12/14/2021 9:30:00 PM 1.89 35.402 0.121 7.33 7.43 14.03
12/14/2021 9:45:00 PM 1.86 35.348 0.121 7.33 7.46 14.03
12/14/2021 10:00:00 PM 1.84 35.312 0.12 7.32 7.66 14.05
12/14/2021 10:15:00 PM 1.81 35.258 0.121 7.32 3.34 14.06
12/14/2021 10:30:00 PM 1.78 35.204 0.121 7.32 10.14 14.06
12/14/2021 10:45:00 PM 1.75 35.15 0.121 7.32 10.52 14.08
12/14/2021 11:00:00 PM 1.72 35.096 0.122 7.31 10.27 14.08
12/14/2021 11:15:00 PM 1.69 35.042 0.121 7.31 3.13 14.1
12/14/2021 11:30:00 PM 1.66 34.988 0.121 7.31 10.42 14.1
12/14/2021 11:45:00 PM 1.64 34.952 0.121 7.3 7.7 14.11
12/15/2021 12:00:00 AM 1.61 34.898 0.121 7.3 10.27 14.12
12/15/2021 12:15:00 AM 1.58 34.844 0.121 7.3 10.45 14.13
12/15/2021 12:30:00 AM 1.55 34.79 0.121 7.3 10.2 14.14
12/15/2021 12:45:00 AM 1.52 34.736 0.121 7.3 10.03 14.15
12/15/2021 1:00:00 AM 1.49 34.682 0.121 7.3 10.35 14.16
12/15/2021 1:15:00 AM 1.45 34.61 0.122 7.3 2.71 14.18
12/15/2021 1:30:00 AM 1.42 34.556 0.122 7.29 10.08 14.19
12/15/2021 1:45:00 AM 1.39 34.502 0.121 7.29 10.35 14.21
12/15/2021 2:00:00 AM 1.35 34.43 0.121 7.29 9.65 14.22
12/15/2021 2:15:00 AM 1.31 34.358 0.122 7.29 10.02 14.24
12/15/2021 2:30:00 AM 1.28 34.304 0.122 7.28 2.9 14.25
12/15/2021 2:45:00 AM 1.24 34.232 0.122 7.28 10.17 14.26
12/15/2021 3:00:00 AM 1.2 34.16 0.122 7.28 10.23 14.28
12/15/2021 3:15:00 AM 1.16 34.088 0.122 7.28 9.98 14.3
12/15/2021 3:30:00 AM 1.12 34.016 0.123 7.28 9.88 14.31
12/15/2021 3:45:00 AM 1.09 33.962 0.122 7.28 7.59 14.33
12/15/2021 4:00:00 AM 1.05 33.89 0.122 7.27 10.03 14.34
12/15/2021 4:15:00 AM 1.01 33.818 0.122 7.28 10.62 14.36
12/15/2021 4:30:00 AM 0.97 33.746 0.122 7.28 3.34 14.37
12/15/2021 4:45:00 AM 0.94 33.692 0.122 7.27 9.8 14.39
12/15/2021 5:00:00 AM 0.91 33.638 0.122 7.27 9.67 14.4
12/15/2021 5:15:00 AM 0.87 33.566 0.122 7.27 7.28 14.41
12/15/2021 5:30:00 AM 0.85 33.53 0.122 7.27 9.99 14.42
12/15/2021 5:45:00 AM 0.82 33.476 0.123 7.27 8.04 14.44
12/15/2021 6:00:00 AM 0.81 33.458 0.123 7.27 10.26 14.44
12/15/2021 6:15:00 AM 0.79 33.422 0.122 7.27 10.37 14.45
12/15/2021 6:30:00 AM 0.78 33.404 0.123 7.27 10.2 14.46
12/15/2021 6:45:00 AM 0.77 33.386 0.123 7.27 2.78 14.47
12/15/2021 7:00:00 AM 0.76 33.368 0.123 7.27 10.11 14.47
12/15/2021 7:15:00 AM 0.75 33.35 0.123 7.28 9.81 14.48
12/15/2021 7:30:00 AM 0.74 33.332 0.123 7.28 9.2 14.5
12/15/2021 7:45:00 AM 0.74 33.332 0.123 7.29 9.73 14.54
12/15/2021 8:00:00 AM 0.74 33.332 0.123 7.3 7.52 14.6
12/15/2021 8:15:00 AM 0.75 33.35 0.123 7.33 9.21 14.69
12/15/2021 8:30:00 AM 0.76 33.368 0.123 7.35 9.99 14.79
12/15/2021 8:45:00 AM 0.78 33.404 0.122 7.39 2.48 14.89
12/15/2021 9:00:00 AM 0.82 33.476 0.123 7.43 10.23 14.98
12/15/2021 9:15:00 AM 0.87 33.566 0.123 7.47 9.46 15.07
12/15/2021 9:30:00 AM 0.94 33.692 0.122 7.52 9.66 15.15
12/15/2021 9:45:00 AM 1.01 33.818 0.123 7.57 10.31 15.2
12/15/2021 10:00:00 AM 1.09 33.962 0.122 7.62 10.19 15.24
12/15/2021 10:15:00 AM 1.16 34.088 0.123 7.67 9.61 15.27
12/15/2021 10:30:00 AM 1.24 34.232 0.121 7.72 9.91 15.29
12/15/2021 10:45:00 AM 1.33 34.394 0.121 7.77 9.62 15.31
12/15/2021 11:00:00 AM 1.42 34.556 0.122 7.82 9.84 15.32
12/15/2021 11:15:00 AM 1.55 34.79 0.121 7.89 9.88 15.32
12/15/2021 11:30:00 AM 1.67 35.006 0.12 7.94 10.05 15.31
12/15/2021 11:45:00 AM 1.78 35.204 0.121 7.99 9.79 15.28
12/15/2021 12:00:00 PM 1.88 35.384 0.12 8.03 9.48 15.25
12/15/2021 12:15:00 PM 1.95 35.51 0.12 8.06 10.01 15.19
12/15/2021 12:30:00 PM 2.01 35.618 0.12 8.08 9.61 15.15
12/15/2021 12:45:00 PM 2.04 35.672 0.121 8.06 9.24 15.05
12/15/2021 1:00:00 PM 2.06 35.708 0.12 8.03 9.57 14.99
12/15/2021 1:15:00 PM 2.09 35.762 0.121 8.01 9.3 14.94
12/15/2021 1:30:00 PM 2.13 35.834 0.12 8 9.62 14.9
12/15/2021 1:45:00 PM 2.18 35.924 0.121 7.97 9.62 14.83
12/15/2021 2:00:00 PM 2.22 35.996 0.12 7.94 9.76 14.76
12/15/2021 2:15:00 PM 2.26 36.068 0.12 7.89 6.96 14.68
12/15/2021 2:30:00 PM 2.29 36.122 0.12 7.86 9.6 14.63
12/15/2021 2:45:00 PM 2.33 36.194 0.121 7.83 9.67 14.58
12/15/2021 3:00:00 PM 2.36 36.248 0.121 7.8 9.21 14.54
12/15/2021 3:15:00 PM 2.39 36.302 0.12 7.78 8.85 14.49
12/15/2021 3:30:00 PM 2.41 36.338 0.12 7.74 9.67 14.42
12/15/2021 3:45:00 PM 2.42 36.356 0.121 7.7 9.72 14.34
12/15/2021 4:00:00 PM 2.44 36.392 0.121 7.66 9.14 14.27
12/15/2021 4:15:00 PM 2.45 36.41 0.12 7.62 9.32 14.2
12/15/2021 4:30:00 PM 2.47 36.446 0.121 7.59 9.26 14.12
12/15/2021 4:45:00 PM 2.48 36.464 0.121 7.56 9.33 14.05
12/15/2021 5:00:00 PM 2.51 36.518 0.121 7.53 9.51 13.99
12/15/2021 5:15:00 PM 2.52 36.536 0.121 7.5 6.83 13.94
12/15/2021 5:30:00 PM 2.53 36.554 0.122 7.49 10.01 13.9
12/15/2021 5:45:00 PM 2.55 36.59 0.121 7.47 9.38 13.86
12/15/2021 6:00:00 PM 2.56 36.608 0.122 7.45 9.18 13.84
12/15/2021 6:15:00 PM 2.57 36.626 0.122 7.44 8.95 13.81
12/15/2021 6:30:00 PM 2.58 36.644 0.121 7.43 7.17 13.79
12/15/2021 6:45:00 PM 2.59 36.662 0.122 7.42 9.58 13.78
12/15/2021 7:00:00 PM 2.61 36.698 0.122 7.41 2.85 13.75
12/15/2021 7:15:00 PM 2.63 36.734 0.122 7.41 9.35 13.74
12/15/2021 7:30:00 PM 2.65 36.77 0.121 7.4 9.59 13.72
12/15/2021 7:45:00 PM 2.66 36.788 0.122 7.4 9.83 13.71
12/15/2021 8:00:00 PM 2.68 36.824 0.121 7.39 9.65 13.68
12/15/2021 8:15:00 PM 2.71 36.878 0.121 7.39 9.54 13.67
12/15/2021 8:30:00 PM 2.73 36.914 0.121 7.38 9.78 13.65
12/15/2021 8:45:00 PM 2.77 36.986 0.121 7.38 10.05 13.63
12/15/2021 9:00:00 PM 2.8 37.04 0.121 7.38 7.4 13.61
12/15/2021 9:15:00 PM 2.83 37.094 0.121 7.38 9.55 13.59
12/15/2021 9:30:00 PM 2.87 37.166 0.121 7.37 9.25 13.58
12/15/2021 9:45:00 PM 2.92 37.256 0.12 7.37 9.27 13.56
12/15/2021 10:00:00 PM 2.96 37.328 0.121 7.37 9.76 13.54
12/15/2021 10:15:00 PM 3 37.4 0.121 7.37 9.1 13.51
12/15/2021 10:30:00 PM 3.03 37.454 0.12 7.37 9.33 13.5
12/15/2021 10:45:00 PM 3.08 37.544 0.121 7.37 9.25 13.47
12/15/2021 11:00:00 PM 3.11 37.598 0.121 7.37 9.61 13.45
12/15/2021 11:15:00 PM 3.15 37.67 0.121 7.37 9.14 13.43
12/15/2021 11:30:00 PM 3.18 37.724 0.12 7.36 9.86 13.42
12/15/2021 11:45:00 PM 3.2 37.76 0.12 7.36 8.73 13.4
12/16/2021 12:00:00 AM 3.21 37.778 0.12 7.36 9.16 13.39
12/16/2021 12:15:00 AM 3.21 37.778 0.12 7.36 9.1 13.38
12/16/2021 12:30:00 AM 3.22 37.796 0.12 7.35 9.85 13.37
12/16/2021 12:45:00 AM 3.22 37.796 0.12 7.35 9.9 13.36
12/16/2021 1:00:00 AM 3.22 37.796 0.12 7.35 9.26 13.36
12/16/2021 1:15:00 AM 3.22 37.796 0.12 7.35 9.38 13.35
12/16/2021 1:30:00 AM 3.23 37.814 0.12 7.35 9.65 13.35
12/16/2021 1:45:00 AM 3.23 37.814 0.12 7.34 9.6 13.35
12/16/2021 2:00:00 AM 3.25 37.85 0.121 7.34 9.1 13.34
12/16/2021 2:15:00 AM 3.26 37.868 0.12 7.34 9.92 13.33
12/16/2021 2:30:00 AM 3.27 37.886 0.121 7.33 9.31 13.32
12/16/2021 2:45:00 AM 3.28 37.904 0.121 7.34 9.17 13.32
12/16/2021 3:00:00 AM 3.29 37.922 0.121 7.33 9.55 13.31
12/16/2021 3:15:00 AM 3.31 37.958 0.121 7.33 9.8 13.3
12/16/2021 3:30:00 AM 3.33 37.994 0.122 7.33 9.77 13.29
12/16/2021 3:45:00 AM 3.34 38.012 0.121 7.33 9.25 13.29
12/16/2021 4:00:00 AM 3.36 38.048 0.122 7.33 8.65 13.28
12/16/2021 4:15:00 AM 3.37 38.066 0.121 7.33 8.92 13.28
12/16/2021 4:30:00 AM 3.39 38.102 0.122 7.33 9.4 13.28
12/16/2021 4:45:00 AM 3.4 38.12 0.121 7.32 7.26 13.26
12/16/2021 5:00:00 AM 3.41 38.138 0.122 7.32 8.75 13.27
12/16/2021 5:15:00 AM 3.42 38.156 0.122 7.32 9.22 13.25
12/16/2021 5:30:00 AM 3.44 38.192 0.121 7.32 9.57 13.25
12/16/2021 5:45:00 AM 3.45 38.21 0.121 7.32 10.03 13.24
12/16/2021 6:00:00 AM 3.47 38.246 0.121 7.33 9.33 13.24
12/16/2021 6:15:00 AM 3.49 38.282 0.122 7.33 9.33 13.23
12/16/2021 6:30:00 AM 3.51 38.318 0.122 7.33 9.84 13.22
12/16/2021 6:45:00 AM 3.53 38.354 0.122 7.33 7.23 13.21
12/16/2021 7:00:00 AM 3.53 38.354 0.122 7.33 7.38 13.21
12/16/2021 7:15:00 AM 3.54 38.372 0.122 7.33 9.05 13.2
12/16/2021 7:30:00 AM 3.56 38.408 0.122 7.33 9.61 13.2
12/16/2021 7:45:00 AM 3.57 38.426 0.123 7.33 9.49 13.22
12/16/2021 8:00:00 AM 3.6 38.48 0.122 7.35 9.67 13.28
12/16/2021 8:15:00 AM 3.63 38.534 0.122 7.37 9.25 13.34
12/16/2021 8:30:00 AM 3.65 38.57 0.121 7.4 9.63 13.43
12/16/2021 8:45:00 AM 3.68 38.624 0.121 7.44 7.31 13.53
12/16/2021 9:00:00 AM 3.72 38.696 0.122 7.48 7.16 13.63
12/16/2021 9:15:00 AM 3.77 38.786 0.121 7.53 7.45 13.72
12/16/2021 9:30:00 AM 3.81 38.858 0.121 7.58 6.62 13.8
12/16/2021 9:45:00 AM 3.85 38.93 0.121 7.62 9.38 13.85
12/16/2021 10:00:00 AM 3.91 39.038 0.121 7.68 8.99 13.9
12/16/2021 10:15:00 AM 3.96 39.128 0.121 7.73 9.2 13.93
12/16/2021 10:30:00 AM 4.02 39.236 0.12 7.79 9.3 13.95
12/16/2021 10:45:00 AM 4.1 39.38 0.121 7.85 8.74 13.98
12/16/2021 11:00:00 AM 4.19 39.542 0.121 7.89 9.43 13.97
12/16/2021 11:15:00 AM 4.28 39.704 0.12 7.95 9.27 13.97
12/16/2021 11:30:00 AM 4.39 39.902 0.12 8 9.16 13.97
12/16/2021 11:45:00 AM 4.48 40.064 0.12 8.04 8.76 13.94
12/16/2021 12:00:00 PM 4.58 40.244 0.12 8.07 9.39 13.9
12/16/2021 12:15:00 PM 4.68 40.424 0.12 8.11 7 13.88
12/16/2021 12:30:00 PM 4.77 40.586 0.12 8.15 9.37 13.86
12/16/2021 12:45:00 PM 4.86 40.748 0.121 8.19 8.61 13.84
12/16/2021 1:00:00 PM 4.94 40.892 0.121 8.22 9.44 13.81
12/16/2021 1:15:00 PM 5.03 41.054 0.12 8.25 9.23 13.78
12/16/2021 1:30:00 PM 5.13 41.234 0.121 8.3 9.53 13.78
12/16/2021 1:45:00 PM 5.2 41.36 0.12 8.32 9.45 13.74
12/16/2021 2:00:00 PM 5.25 41.45 0.12 8.32 9.18 13.68
12/16/2021 2:15:00 PM 5.31 41.558 0.12 8.33 2.56 13.65
12/16/2021 2:30:00 PM 5.36 41.648 0.121 8.34 9.4 13.62
12/16/2021 2:45:00 PM 5.38 41.684 0.121 8.32 2.69 13.55
12/16/2021 3:00:00 PM 5.36 41.648 0.121 8.28 7.15 13.51
12/16/2021 3:15:00 PM 5.34 41.612 0.122 8.25 9.37 13.46
12/16/2021 3:30:00 PM 5.33 41.594 0.122 8.21 9.88 13.42
12/16/2021 3:45:00 PM 5.32 41.576 0.122 8.15 9.47 13.37
12/16/2021 4:00:00 PM 5.29 41.522 0.123 8.07 9.1 13.3
12/16/2021 4:15:00 PM 5.26 41.468 0.122 7.98 9.15 13.22
12/16/2021 4:30:00 PM 5.23 41.414 0.124 7.88 9.68 13.11
12/16/2021 4:45:00 PM 5.2 41.36 0.124 7.78 9.52 13.01
12/16/2021 5:00:00 PM 5.18 41.324 0.125 7.71 9.58 12.93
12/16/2021 5:15:00 PM 5.16 41.288 0.125 7.64 6.62 12.85
12/16/2021 5:30:00 PM 5.14 41.252 0.125 7.59 9.72 12.8
12/16/2021 5:45:00 PM 5.14 41.252 0.125 7.55 9.01 12.75
12/16/2021 6:00:00 PM 5.15 41.27 0.125 7.53 9.86 12.72
12/16/2021 6:15:00 PM 5.17 41.306 0.126 7.51 9.18 12.69
12/16/2021 6:30:00 PM 5.22 41.396 0.126 7.49 9.76 12.65
12/16/2021 6:45:00 PM 5.26 41.468 0.125 7.48 2.69 12.63
12/16/2021 7:00:00 PM 5.31 41.558 0.125 7.47 7.53 12.6
12/16/2021 7:15:00 PM 5.37 41.666 0.126 7.46 7.44 12.57
12/16/2021 7:30:00 PM 5.42 41.756 0.125 7.45 10.13 12.53
12/16/2021 7:45:00 PM 5.48 41.864 0.126 7.44 7.3 12.52
12/16/2021 8:00:00 PM 5.53 41.954 0.126 7.43 10.16 12.49
12/16/2021 8:15:00 PM 5.55 41.99 0.127 7.43 9.4 12.47
12/16/2021 8:30:00 PM 5.58 42.044 0.126 7.42 9.73 12.45
12/16/2021 8:45:00 PM 5.62 42.116 0.126 7.41 2.58 12.44
12/16/2021 9:00:00 PM 5.63 42.134 0.126 7.41 8.82 12.43
12/16/2021 9:15:00 PM 5.64 42.152 0.126 7.4 9.91 12.42
12/16/2021 9:30:00 PM 5.63 42.134 0.126 7.4 2.6 12.41
12/16/2021 9:45:00 PM 5.64 42.152 0.126 7.39 9.6 12.39
12/16/2021 10:00:00 PM 5.65 42.17 0.126 7.38 2.7 12.39
12/16/2021 10:15:00 PM 5.68 42.224 0.126 7.38 2.79 12.38
12/16/2021 10:30:00 PM 5.7 42.26 0.126 7.38 7.46 12.36
12/16/2021 10:45:00 PM 5.72 42.296 0.126 7.37 2.68 12.35
12/16/2021 11:00:00 PM 5.74 42.332 0.126 7.37 7.53 12.35
12/16/2021 11:15:00 PM 5.77 42.386 0.126 7.37 10.05 12.33
12/16/2021 11:30:00 PM 5.79 42.422 0.126 7.37 2.51 12.33
12/16/2021 11:45:00 PM 5.82 42.476 0.125 7.36 3.01 12.32
12/17/2021 12:00:00 AM 5.84 42.512 0.126 7.36 10.07 12.32
12/17/2021 12:15:00 AM 5.86 42.548 0.126 7.36 2.68 12.3
12/17/2021 12:30:00 AM 5.88 42.584 0.126 7.36 7.31 12.3
12/17/2021 12:45:00 AM 5.89 42.602 0.126 7.35 9.37 12.28
12/17/2021 1:00:00 AM 5.9 42.62 0.127 7.36 2.54 12.28
12/17/2021 1:15:00 AM 5.9 42.62 0.126 7.36 2.7 12.29
12/17/2021 1:30:00 AM 5.9 42.62 0.126 7.35 10.24 12.28
12/17/2021 1:45:00 AM 5.91 42.638 0.127 7.35 10.15 12.29
12/17/2021 2:00:00 AM 5.89 42.602 0.127 7.35 2.73 12.28
12/17/2021 2:15:00 AM 5.86 42.548 0.127 7.36 2.56 12.3
12/17/2021 2:30:00 AM 5.82 42.476 0.127 7.35 9.97 12.3
12/17/2021 2:45:00 AM 5.79 42.422 0.127 7.35 10.19 12.32
12/17/2021 3:00:00 AM 5.76 42.368 0.127 7.35 10.03 12.33
12/17/2021 3:15:00 AM 5.73 42.314 0.128 7.35 9.43 12.34
12/17/2021 3:30:00 AM 5.7 42.26 0.127 7.35 10.13 12.35
12/17/2021 3:45:00 AM 5.68 42.224 0.128 7.35 2.52 12.37
12/17/2021 4:00:00 AM 5.66 42.188 0.128 7.34 9.63 12.37
12/17/2021 4:15:00 AM 5.63 42.134 0.127 7.35 7.48 12.37
12/17/2021 4:30:00 AM 5.6 42.08 0.128 7.34 9.89 12.39
12/17/2021 4:45:00 AM 5.57 42.026 0.128 7.34 7.09 12.4
12/17/2021 5:00:00 AM 5.54 41.972 0.128 7.34 9.98 12.41
12/17/2021 5:15:00 AM 5.5 41.9 0.128 7.34 9.77 12.42
12/17/2021 5:30:00 AM 5.46 41.828 0.128 7.34 7.34 12.44
12/17/2021 5:45:00 AM 5.41 41.738 0.128 7.34 2.35 12.45
12/17/2021 6:00:00 AM 5.37 41.666 0.129 7.34 8.9 12.48
12/17/2021 6:15:00 AM 5.32 41.576 0.129 7.34 2.66 12.49
12/17/2021 6:30:00 AM 5.27 41.486 0.129 7.34 2.54 12.51
12/17/2021 6:45:00 AM 5.21 41.378 0.129 7.34 7.41 12.53
12/17/2021 7:00:00 AM 5.15 41.27 0.129 7.34 2.65 12.55
12/17/2021 7:15:00 AM 5.09 41.162 0.129 7.33 9.99 12.57
12/17/2021 7:30:00 AM 5.03 41.054 0.129 7.33 9.99 12.62
12/17/2021 7:45:00 AM 4.95 40.91 0.129 7.34 10.16 12.66
12/17/2021 8:00:00 AM 4.89 40.802 0.13 7.34 9.9 12.73
12/17/2021 8:15:00 AM 4.83 40.694 0.129 7.36 2.32 12.81
12/17/2021 8:30:00 AM 4.77 40.586 0.129 7.37 9.89 12.89
12/17/2021 8:45:00 AM 4.72 40.496 0.129 7.39 8.89 12.98
12/17/2021 9:00:00 AM 4.68 40.424 0.129 7.41 10.24 13.06
12/17/2021 9:15:00 AM 4.66 40.388 0.128 7.44 9.96 13.16
12/17/2021 9:30:00 AM 4.64 40.352 0.129 7.48 10.14 13.25
12/17/2021 9:45:00 AM 4.64 40.352 0.129 7.52 9.92 13.33
12/17/2021 10:00:00 AM 4.66 40.388 0.128 7.58 9.9 13.43
12/17/2021 10:15:00 AM 4.69 40.442 0.128 7.63 9.6 13.5
12/17/2021 10:30:00 AM 4.72 40.496 0.128 7.68 10.3 13.56
12/17/2021 10:45:00 AM 4.76 40.568 0.128 7.73 9.91 13.59
12/17/2021 11:00:00 AM 4.8 40.64 0.128 7.77 9.94 13.62
12/17/2021 11:15:00 AM 4.84 40.712 0.127 7.82 9.59 13.64
12/17/2021 11:30:00 AM 4.89 40.802 0.128 7.86 2.58 13.66
12/17/2021 11:45:00 AM 4.94 40.892 0.128 7.9 7.33 13.67
12/17/2021 12:00:00 PM 4.99 40.982 0.127 7.94 9.98 13.67
12/17/2021 12:15:00 PM 5.04 41.072 0.127 7.98 6.98 13.67
12/17/2021 12:30:00 PM 5.09 41.162 0.127 8.02 9.43 13.68
12/17/2021 12:45:00 PM 5.13 41.234 0.127 8.06 7.12 13.68
12/17/2021 1:00:00 PM 5.15 41.27 0.127 8.08 9.84 13.67
12/17/2021 1:15:00 PM 5.16 41.288 0.127 8.12 9.99 13.68
12/17/2021 1:30:00 PM 5.17 41.306 0.126 8.15 10.27 13.68
12/17/2021 1:45:00 PM 5.19 41.342 0.127 8.18 9.48 13.69
12/17/2021 2:00:00 PM 5.19 41.342 0.127 8.21 7.59 13.69
12/17/2021 2:15:00 PM 5.19 41.342 0.126 8.24 9.33 13.71
12/17/2021 2:30:00 PM 5.2 41.36 0.127 8.26 10.07 13.72
12/17/2021 2:45:00 PM 5.21 41.378 0.126 8.28 10.01 13.71
12/17/2021 3:00:00 PM 5.21 41.378 0.127 8.29 9.88 13.69
12/17/2021 3:15:00 PM 5.2 41.36 0.127 8.29 9 13.66
12/17/2021 3:30:00 PM 5.17 41.306 0.126 8.26 10.28 13.62
12/17/2021 3:45:00 PM 5.14 41.252 0.127 8.21 9.96 13.56
12/17/2021 4:00:00 PM 5.09 41.162 0.127 8.12 10 13.47
12/17/2021 4:15:00 PM 5.05 41.09 0.126 8.02 8.97 13.38
12/17/2021 4:30:00 PM 5 41 0.126 7.89 9.19 13.28
12/17/2021 4:45:00 PM 4.94 40.892 0.127 7.78 2.49 13.18
12/17/2021 5:00:00 PM 4.89 40.802 0.127 7.69 10.09 13.1
12/17/2021 5:15:00 PM 4.85 40.73 0.127 7.62 2.46 13.04
12/17/2021 5:30:00 PM 4.8 40.64 0.127 7.57 2.41 13
12/17/2021 5:45:00 PM 4.75 40.55 0.127 7.53 9.95 12.97
12/17/2021 6:00:00 PM 4.71 40.478 0.127 7.5 9.77 12.95
12/17/2021 6:15:00 PM 4.67 40.406 0.127 7.48 9.82 12.94
12/17/2021 6:30:00 PM 4.62 40.316 0.127 7.45 9.78 12.92
12/17/2021 6:45:00 PM 4.58 40.244 0.127 7.44 10.12 12.92
12/17/2021 7:00:00 PM 4.54 40.172 0.127 7.42 9.9 12.92
12/17/2021 7:15:00 PM 4.5 40.1 0.127 7.41 7.17 12.92
12/17/2021 7:30:00 PM 4.45 40.01 0.127 7.4 10.28 12.92
12/17/2021 7:45:00 PM 4.41 39.938 0.127 7.39 9.99 12.93
12/17/2021 8:00:00 PM 4.36 39.848 0.127 7.38 9.91 12.94
12/17/2021 8:15:00 PM 4.31 39.758 0.127 7.37 10.34 12.94
12/17/2021 8:30:00 PM 4.26 39.668 0.127 7.36 10.3 12.96
12/17/2021 8:45:00 PM 4.22 39.596 0.126 7.36 9.73 12.97
12/17/2021 9:00:00 PM 4.18 39.524 0.127 7.35 9.12 12.98
12/17/2021 9:15:00 PM 4.14 39.452 0.126 7.34 9.7 12.99
12/17/2021 9:30:00 PM 4.1 39.38 0.126 7.34 10.16 13.01
12/17/2021 9:45:00 PM 4.05 39.29 0.126 7.33 2.42 13.02
12/17/2021 10:00:00 PM 4.01 39.218 0.126 7.32 9.75 13.04
12/17/2021 10:15:00 PM 3.96 39.128 0.126 7.32 9.78 13.05
12/17/2021 10:30:00 PM 3.92 39.056 0.126 7.31 9.75 13.06
12/17/2021 10:45:00 PM 3.89 39.002 0.126 7.31 9.9 13.08
12/17/2021 11:00:00 PM 3.86 38.948 0.126 7.31 9.88 13.09
12/17/2021 11:15:00 PM 3.83 38.894 0.126 7.3 9.82 13.1
12/17/2021 11:30:00 PM 3.81 38.858 0.126 7.3 9.3 13.11
12/17/2021 11:45:00 PM 3.78 38.804 0.126 7.3 10.06 13.13
12/18/2021 12:00:00 AM 3.77 38.786 0.126 7.3 10.25 13.13
12/18/2021 12:15:00 AM 3.75 38.75 0.126 7.29 9.93 13.13
12/18/2021 12:30:00 AM 3.74 38.732 0.126 7.29 9.98 13.14
12/18/2021 12:45:00 AM 3.72 38.696 0.126 7.29 10.12 13.15
12/18/2021 1:00:00 AM 3.7 38.66 0.126 7.29 9.46 13.16
12/18/2021 1:15:00 AM 3.69 38.642 0.126 7.29 7.37 13.16
12/18/2021 1:30:00 AM 3.68 38.624 0.125 7.29 9.69 13.17
12/18/2021 1:45:00 AM 3.66 38.588 0.126 7.29 10.07 13.17
12/18/2021 2:00:00 AM 3.65 38.57 0.127 7.29 9.35 13.18
12/18/2021 2:15:00 AM 3.64 38.552 0.127 7.29 10.13 13.18
12/18/2021 2:30:00 AM 3.63 38.534 0.126 7.29 2.51 13.18
12/18/2021 2:45:00 AM 3.62 38.516 0.126 7.29 9.91 13.19
12/18/2021 3:00:00 AM 3.62 38.516 0.126 7.29 9.6 13.19
12/18/2021 3:15:00 AM 3.61 38.498 0.126 7.29 9.71 13.18
12/18/2021 3:30:00 AM 3.61 38.498 0.126 7.29 9.96 13.19
12/18/2021 3:45:00 AM 3.6 38.48 0.126 7.29 7.36 13.19
12/18/2021 4:00:00 AM 3.6 38.48 0.126 7.3 9.6 13.19
12/18/2021 4:15:00 AM 3.6 38.48 0.126 7.3 9.89 13.19
12/18/2021 4:30:00 AM 3.6 38.48 0.126 7.3 9.55 13.19
12/18/2021 4:45:00 AM 3.59 38.462 0.126 7.3 9.49 13.2
12/18/2021 5:00:00 AM 3.59 38.462 0.126 7.3 9.84 13.19
12/18/2021 5:15:00 AM 3.59 38.462 0.126 7.3 9.75 13.19
12/18/2021 5:30:00 AM 3.59 38.462 0.127 7.3 9.85 13.19
12/18/2021 5:45:00 AM 3.59 38.462 0.126 7.3 7.55 13.19
12/18/2021 6:00:00 AM 3.59 38.462 0.127 7.31 10 13.19
12/18/2021 6:15:00 AM 3.59 38.462 0.126 7.31 2.37 13.19
12/18/2021 6:30:00 AM 3.59 38.462 0.126 7.31 9.94 13.2
12/18/2021 6:45:00 AM 3.59 38.462 0.127 7.31 10.01 13.19
12/18/2021 7:00:00 AM 3.59 38.462 0.127 7.31 7.66 13.19
12/18/2021 7:15:00 AM 3.59 38.462 0.127 7.32 9.71 13.19
12/18/2021 7:30:00 AM 3.6 38.48 0.127 7.32 9.78 13.19
12/18/2021 7:45:00 AM 3.6 38.48 0.127 7.32 9.85 13.2
12/18/2021 8:00:00 AM 3.6 38.48 0.127 7.33 9.96 13.23
12/18/2021 8:15:00 AM 3.6 38.48 0.127 7.34 9.82 13.26
12/18/2021 8:30:00 AM 3.61 38.498 0.127 7.36 7.35 13.32
12/18/2021 8:45:00 AM 3.61 38.498 0.127 7.38 9.65 13.38
12/18/2021 9:00:00 AM 3.63 38.534 0.126 7.4 2.21 13.45
12/18/2021 9:15:00 AM 3.64 38.552 0.127 7.42 9.7 13.49
12/18/2021 9:30:00 AM 3.65 38.57 0.127 7.45 9.46 13.55
12/18/2021 9:45:00 AM 3.66 38.588 0.127 7.48 7.02 13.62
12/18/2021 10:00:00 AM 3.67 38.606 0.127 7.5 9.49 13.66
12/18/2021 10:15:00 AM 3.68 38.624 0.126 7.52 9.29 13.68
12/18/2021 10:30:00 AM 3.68 38.624 0.127 7.54 6.92 13.68
12/18/2021 10:45:00 AM 3.69 38.642 0.126 7.54 2.38 13.67
12/18/2021 11:00:00 AM 3.69 38.642 0.126 7.54 2.38 13.65
12/18/2021 11:15:00 AM 3.7 38.66 0.126 7.55 2.24 13.65
12/18/2021 11:30:00 AM 3.71 38.678 0.127 7.56 9.32 13.68
12/18/2021 11:45:00 AM 3.72 38.696 0.126 7.57 9.74 13.68
12/18/2021 12:00:00 PM 3.73 38.714 0.126 7.59 7.17 13.7
12/18/2021 12:15:00 PM 3.74 38.732 0.126 7.6 10.2 13.7
12/18/2021 12:30:00 PM 3.75 38.75 0.126 7.61 2.54 13.69
12/18/2021 12:45:00 PM 3.75 38.75 0.126 7.61 9.24 13.67
12/18/2021 1:00:00 PM 3.76 38.768 0.125 7.62 10.21 13.68
12/18/2021 1:15:00 PM 3.77 38.786 0.125 7.62 2.27 13.66
12/18/2021 1:30:00 PM 3.78 38.804 0.124 7.61 7.5 13.64
12/18/2021 1:45:00 PM 3.78 38.804 0.125 7.6 10.07 13.57
12/18/2021 2:00:00 PM 3.78 38.804 0.124 7.58 2.5 13.53
12/18/2021 2:15:00 PM 3.78 38.804 0.125 7.56 10.27 13.46
12/18/2021 2:30:00 PM 3.78 38.804 0.125 7.54 10.15 13.41
12/18/2021 2:45:00 PM 3.79 38.822 0.125 7.52 10.05 13.37
12/18/2021 3:00:00 PM 3.79 38.822 0.125 7.5 10.04 13.34
12/18/2021 3:15:00 PM 3.8 38.84 0.125 7.49 10.02 13.29
12/18/2021 3:30:00 PM 3.81 38.858 0.125 7.47 10.32 13.26
12/18/2021 3:45:00 PM 3.81 38.858 0.125 7.46 9.96 13.23
12/18/2021 4:00:00 PM 3.82 38.876 0.125 7.45 2.29 13.2
12/18/2021 4:15:00 PM 3.83 38.894 0.125 7.44 9.84 13.17
12/18/2021 4:30:00 PM 3.84 38.912 0.125 7.42 9.66 13.15
12/18/2021 4:45:00 PM 3.84 38.912 0.125 7.41 9.95 13.12
12/18/2021 5:00:00 PM 3.85 38.93 0.125 7.4 10.27 13.09
12/18/2021 5:15:00 PM 3.86 38.948 0.125 7.39 2.49 13.07
12/18/2021 5:30:00 PM 3.87 38.966 0.125 7.39 2.96 13.05
12/18/2021 5:45:00 PM 3.89 39.002 0.125 7.38 9.86 13.04
12/18/2021 6:00:00 PM 3.9 39.02 0.125 7.38 2.58 13.02
12/18/2021 6:15:00 PM 3.91 39.038 0.125 7.37 10.37 13.01
12/18/2021 6:30:00 PM 3.92 39.056 0.126 7.37 10.1 12.99
12/18/2021 6:45:00 PM 3.94 39.092 0.126 7.37 2.75 12.98
12/18/2021 7:00:00 PM 3.95 39.11 0.126 7.36 10.44 12.97
12/18/2021 7:15:00 PM 3.97 39.146 0.126 7.36 7.73 12.96
12/18/2021 7:30:00 PM 3.98 39.164 0.127 7.36 2.77 12.95
12/18/2021 7:45:00 PM 4 39.2 0.127 7.36 10.18 12.94
12/18/2021 8:00:00 PM 4.01 39.218 0.126 7.36 2.76 12.93
12/18/2021 8:15:00 PM 4.03 39.254 0.126 7.36 2.7 12.93
12/18/2021 8:30:00 PM 4.04 39.272 0.126 7.35 2.75 12.93
12/18/2021 8:45:00 PM 4.06 39.308 0.126 7.35 2.79 12.92
12/18/2021 9:00:00 PM 4.07 39.326 0.126 7.35 2.53 12.9
12/18/2021 9:15:00 PM 4.09 39.362 0.125 7.35 7.62 12.9
12/18/2021 9:30:00 PM 4.1 39.38 0.126 7.35 2.79 12.89
12/18/2021 9:45:00 PM 4.12 39.416 0.126 7.35 2.75 12.89
12/18/2021 10:00:00 PM 4.13 39.434 0.127 7.35 2.88 12.88
12/18/2021 10:15:00 PM 4.14 39.452 0.126 7.35 2.87 12.88
12/18/2021 10:30:00 PM 4.15 39.47 0.127 7.35 3.03 12.88
12/18/2021 10:45:00 PM 4.16 39.488 0.126 7.34 3.06 12.88
12/18/2021 11:00:00 PM 4.18 39.524 0.127 7.34 3.33 12.87
12/18/2021 11:15:00 PM 4.19 39.542 0.127 7.34 3.11 12.87
12/18/2021 11:30:00 PM 4.2 39.56 0.126 7.34 3.02 12.87
12/18/2021 11:45:00 PM 4.21 39.578 0.126 7.34 2.92 12.85
12/19/2021 12:00:00 AM 4.22 39.596 0.126 7.34 3.43 12.86
12/19/2021 12:15:00 AM 4.23 39.614 0.127 7.34 3.2 12.85
12/19/2021 12:30:00 AM 4.23 39.614 0.126 7.34 3.9 12.85
12/19/2021 12:45:00 AM 4.24 39.632 0.127 7.35 3.48 12.85
12/19/2021 1:00:00 AM 4.24 39.632 0.127 7.35 3.57 12.86
12/19/2021 1:15:00 AM 4.24 39.632 0.127 7.35 4.06 12.86
12/19/2021 1:30:00 AM 4.23 39.614 0.127 7.35 3.45 12.86
12/19/2021 1:45:00 AM 4.22 39.596 0.127 7.35 3.8 12.87
12/19/2021 2:00:00 AM 4.2 39.56 0.128 7.35 4.5 12.88
12/19/2021 2:15:00 AM 4.18 39.524 0.128 7.35 4.54 12.89
12/19/2021 2:30:00 AM 4.16 39.488 0.128 7.35 3.57 12.89
12/19/2021 2:45:00 AM 4.13 39.434 0.127 7.35 3.85 12.9
12/19/2021 3:00:00 AM 4.1 39.38 0.127 7.35 3.39 12.91
12/19/2021 3:15:00 AM 4.08 39.344 0.127 7.35 4.21 12.93
12/19/2021 3:30:00 AM 4.05 39.29 0.126 7.35 3.99 12.94
12/19/2021 3:45:00 AM 4.02 39.236 0.126 7.35 3.32 12.95
12/19/2021 4:00:00 AM 3.98 39.164 0.127 7.35 3.74 12.97
12/19/2021 4:15:00 AM 3.95 39.11 0.126 7.35 3.74 12.98
12/19/2021 4:30:00 AM 3.92 39.056 0.126 7.35 3.99 12.99
12/19/2021 4:45:00 AM 3.89 39.002 0.126 7.35 3.72 13.01
12/19/2021 5:00:00 AM 3.85 38.93 0.126 7.35 3.48 13.02
12/19/2021 5:15:00 AM 3.82 38.876 0.127 7.35 3.62 13.03
12/19/2021 5:30:00 AM 3.78 38.804 0.127 7.35 3.71 13.05
12/19/2021 5:45:00 AM 3.75 38.75 0.127 7.35 3.59 13.06
12/19/2021 6:00:00 AM 3.73 38.714 0.128 7.35 3.86 13.07
12/19/2021 6:15:00 AM 3.7 38.66 0.127 7.35 3.47 13.09
12/19/2021 6:30:00 AM 3.67 38.606 0.128 7.35 3.86 13.1
12/19/2021 6:45:00 AM 3.64 38.552 0.128 7.35 3.9 13.12
12/19/2021 7:00:00 AM 3.61 38.498 0.128 7.35 3.61 13.13
12/19/2021 7:15:00 AM 3.58 38.444 0.128 7.35 3.65 13.15
12/19/2021 7:30:00 AM 3.55 38.39 0.129 7.35 4.26 13.16
12/19/2021 7:45:00 AM 3.52 38.336 0.128 7.35 3.59 13.2
12/19/2021 8:00:00 AM 3.48 38.264 0.129 7.35 3.66 13.22
12/19/2021 8:15:00 AM 3.44 38.192 0.128 7.36 3.4 13.25
12/19/2021 8:30:00 AM 3.41 38.138 0.128 7.36 4.14 13.28
12/19/2021 8:45:00 AM 3.37 38.066 0.127 7.37 3.63 13.33
12/19/2021 9:00:00 AM 3.34 38.012 0.127 7.37 3.52 13.38
12/19/2021 9:15:00 AM 3.31 37.958 0.127 7.38 4.07 13.4
12/19/2021 9:30:00 AM 3.28 37.904 0.127 7.39 4.03 13.44
12/19/2021 9:45:00 AM 3.26 37.868 0.126 7.4 3.99 13.49
12/19/2021 10:00:00 AM 3.24 37.832 0.126 7.42 4.07 13.56
12/19/2021 10:15:00 AM 3.24 37.832 0.125 7.44 3.69 13.62
12/19/2021 10:30:00 AM 3.24 37.832 0.125 7.46 4.59 13.69
12/19/2021 10:45:00 AM 3.23 37.814 0.125 7.49 3.8 13.78
12/19/2021 11:00:00 AM 3.22 37.796 0.125 7.53 3.64 13.87
12/19/2021 11:15:00 AM 3.23 37.814 0.124 7.57 3.28 13.92
12/19/2021 11:30:00 AM 3.23 37.814 0.124 7.6 3.44 13.97
12/19/2021 11:45:00 AM 3.23 37.814 0.124 7.63 3.6 14.04
12/19/2021 12:00:00 PM 3.24 37.832 0.123 7.67 3.58 14.09
12/19/2021 12:15:00 PM 3.26 37.868 0.123 7.71 4.08 14.14
12/19/2021 12:30:00 PM 3.28 37.904 0.123 7.75 3.39 14.17
12/19/2021 12:45:00 PM 3.28 37.904 0.123 7.8 3.45 14.22
12/19/2021 1:00:00 PM 3.29 37.922 0.123 7.83 3.53 14.23
12/19/2021 1:15:00 PM 3.3 37.94 0.123 7.86 3.56 14.26
12/19/2021 1:30:00 PM 3.31 37.958 0.124 7.9 3.59 14.27
12/19/2021 1:45:00 PM 3.32 37.976 0.123 7.92 3.58 14.29
12/19/2021 2:00:00 PM 3.32 37.976 0.123 7.95 3.48 14.3
12/19/2021 2:15:00 PM 3.3 37.94 0.124 7.95 3.99 14.28
12/19/2021 2:30:00 PM 3.28 37.904 0.124 7.95 3.75 14.27
12/19/2021 2:45:00 PM 3.25 37.85 0.124 7.93 3.63 14.26
12/19/2021 3:00:00 PM 3.22 37.796 0.124 7.92 3.64 14.23
12/19/2021 3:15:00 PM 3.18 37.724 0.125 7.89 4.06 14.22
12/19/2021 3:30:00 PM 3.14 37.652 0.125 7.85 3.95 14.16
12/19/2021 3:45:00 PM 3.1 37.58 0.126 7.8 3.87 14.11
12/19/2021 4:00:00 PM 3.06 37.508 0.126 7.74 4.03 14.04
12/19/2021 4:15:00 PM 3.02 37.436 0.127 7.68 3.57 13.98
12/19/2021 4:30:00 PM 2.97 37.346 0.128 7.63 3.8 13.92
12/19/2021 4:45:00 PM 2.92 37.256 0.127 7.59 3.79 13.85
12/19/2021 5:00:00 PM 2.88 37.184 0.127 7.55 3.48 13.81
12/19/2021 5:15:00 PM 2.85 37.13 0.127 7.52 3.55 13.77
12/19/2021 5:30:00 PM 2.82 37.076 0.127 7.49 3.99 13.74
12/19/2021 5:45:00 PM 2.78 37.004 0.127 7.47 3.52 13.72
12/19/2021 6:00:00 PM 2.76 36.968 0.127 7.45 4.01 13.71
12/19/2021 6:15:00 PM 2.73 36.914 0.127 7.43 3.44 13.69
12/19/2021 6:30:00 PM 2.7 36.86 0.127 7.42 3.91 13.68
12/19/2021 6:45:00 PM 2.67 36.806 0.128 7.4 3.59 13.68
12/19/2021 7:00:00 PM 2.64 36.752 0.127 7.4 3.77 13.68
12/19/2021 7:15:00 PM 2.59 36.662 0.127 7.39 3.77 13.69
12/19/2021 7:30:00 PM 2.55 36.59 0.127 7.38 3.47 13.7
12/19/2021 7:45:00 PM 2.51 36.518 0.127 7.37 3.76 13.71
12/19/2021 8:00:00 PM 2.47 36.446 0.126 7.36 3.48 13.72
12/19/2021 8:15:00 PM 2.43 36.374 0.126 7.36 3.46 13.72
12/19/2021 8:30:00 PM 2.4 36.32 0.127 7.35 3.68 13.73
12/19/2021 8:45:00 PM 2.38 36.284 0.128 7.35 3.43 13.74
12/19/2021 9:00:00 PM 2.34 36.212 0.127 7.34 3.3 13.75
12/19/2021 9:15:00 PM 2.31 36.158 0.127 7.34 3.64 13.76
12/19/2021 9:30:00 PM 2.29 36.122 0.127 7.34 3.37 13.76
12/19/2021 9:45:00 PM 2.27 36.086 0.127 7.34 3.73 13.77
12/19/2021 10:00:00 PM 2.23 36.014 0.128 7.33 3.46 13.78
12/19/2021 10:15:00 PM 2.2 35.96 0.128 7.33 3.12 13.79
12/19/2021 10:30:00 PM 2.16 35.888 0.127 7.33 3.02 13.8
12/19/2021 10:45:00 PM 2.12 35.816 0.128 7.32 3.29 13.81
12/19/2021 11:00:00 PM 2.08 35.744 0.129 7.32 3.28 13.82
12/19/2021 11:15:00 PM 2.05 35.69 0.129 7.32 3.47 13.83
12/19/2021 11:30:00 PM 2.01 35.618 0.129 7.32 3.54 13.85
12/19/2021 11:45:00 PM 1.97 35.546 0.13 7.31 3.28 13.87
12/20/2021 12:00:00 AM 1.94 35.492 0.13 7.31 3.15 13.88
12/20/2021 12:15:00 AM 1.91 35.438 0.13 7.31 3.26 13.9
12/20/2021 12:30:00 AM 1.87 35.366 0.129 7.31 3.64 13.9
12/20/2021 12:45:00 AM 1.84 35.312 0.13 7.31 3.09 13.92
12/20/2021 1:00:00 AM 1.81 35.258 0.13 7.31 3.58 13.92
12/20/2021 1:15:00 AM 1.78 35.204 0.13 7.31 3.33 13.93
12/20/2021 1:30:00 AM 1.75 35.15 0.13 7.31 3.68 13.95
12/20/2021 1:45:00 AM 1.74 35.132 0.13 7.31 3.27 13.96
12/20/2021 2:00:00 AM 1.71 35.078 0.13 7.31 3.61 13.97
12/20/2021 2:15:00 AM 1.69 35.042 0.131 7.31 3.21 13.97
12/20/2021 2:30:00 AM 1.67 35.006 0.13 7.31 3.42 13.99
12/20/2021 2:45:00 AM 1.65 34.97 0.13 7.31 3.19 13.99
12/20/2021 3:00:00 AM 1.61 34.898 0.131 7.31 3.3 13.99
12/20/2021 3:15:00 AM 1.57 34.826 0.131 7.31 3.82 14.01
12/20/2021 3:30:00 AM 1.51 34.718 0.131 7.31 3.16 14.02
12/20/2021 3:45:00 AM 1.46 34.628 0.13 7.31 3.19 14.05
12/20/2021 4:00:00 AM 1.41 34.538 0.129 7.3 3.32 14.06
12/20/2021 4:15:00 AM 1.35 34.43 0.129 7.3 3.23 14.08
12/20/2021 4:30:00 AM 1.31 34.358 0.129 7.3 3.31 14.11
12/20/2021 4:45:00 AM 1.25 34.25 0.13 7.3 3.3 14.12
12/20/2021 5:00:00 AM 1.2 34.16 0.129 7.3 3.26 14.14
12/20/2021 5:15:00 AM 1.14 34.052 0.128 7.29 3.27 14.16
12/20/2021 5:30:00 AM 1.09 33.962 0.128 7.29 3.07 14.18
12/20/2021 5:45:00 AM 1.04 33.872 0.128 7.29 3.15 14.21
12/20/2021 6:00:00 AM 0.98 33.764 0.129 7.29 3.15 14.23
12/20/2021 6:15:00 AM 0.93 33.674 0.128 7.29 2.96 14.26
12/20/2021 6:30:00 AM 0.88 33.584 0.128 7.28 3 14.28
12/20/2021 6:45:00 AM 0.82 33.476 0.129 7.28 2.94 14.3
12/20/2021 7:00:00 AM 0.77 33.386 0.127 7.28 3.23 14.32
12/20/2021 7:15:00 AM 0.71 33.278 0.128 7.28 3.02 14.35
12/20/2021 7:30:00 AM 0.66 33.188 0.128 7.28 3.05 14.38
12/20/2021 7:45:00 AM 0.61 33.098 0.128 7.28 3.09 14.43
12/20/2021 8:00:00 AM 0.57 33.026 0.128 7.29 3.07 14.48
12/20/2021 8:15:00 AM 0.52 32.936 0.127 7.31 2.91 14.55
12/20/2021 8:30:00 AM 0.49 32.882 0.127 7.32 3.32 14.63
12/20/2021 8:45:00 AM 0.46 32.828 0.126 7.34 3.15 14.7
12/20/2021 9:00:00 AM 0.43 32.774 0.127 7.36 2.83 14.77
12/20/2021 9:15:00 AM 0.44 32.792 0.128 7.38 2.99 14.84
12/20/2021 9:30:00 AM 0.47 32.846 0.127 7.42 3.03 14.95
12/20/2021 9:45:00 AM 0.55 32.99 0.127 7.46 2.87 15.04
12/20/2021 10:00:00 AM 0.65 33.17 0.126 7.51 2.85 15.11
12/20/2021 10:15:00 AM 0.74 33.332 0.126 7.56 2.73 15.16
12/20/2021 10:30:00 AM 0.8 33.44 0.126 7.6 2.96 15.19
12/20/2021 10:45:00 AM 0.84 33.512 0.125 7.64 2.93 15.22
12/20/2021 11:00:00 AM 0.9 33.62 0.125 7.68 2.84 15.25
12/20/2021 11:15:00 AM 0.96 33.728 0.126 7.72 3.03 15.27
12/20/2021 11:30:00 AM 1.04 33.872 0.125 7.76 2.9 15.28
12/20/2021 11:45:00 AM 1.07 33.926 0.124 7.78 2.9 15.25
12/20/2021 12:00:00 PM 1.1 33.98 0.126 7.79 2.89 15.19
12/20/2021 12:15:00 PM 1.15 34.07 0.125 7.81 2.95 15.16
12/20/2021 12:30:00 PM 1.22 34.196 0.124 7.82 3.17 15.12
12/20/2021 12:45:00 PM 1.28 34.304 0.123 7.84 2.8 15.1
12/20/2021 1:00:00 PM 1.35 34.43 0.124 7.84 3.17 15.06
12/20/2021 1:15:00 PM 1.41 34.538 0.123 7.85 2.83 15.02
12/20/2021 1:30:00 PM 1.45 34.61 0.124 7.84 2.77 14.99
12/20/2021 1:45:00 PM 1.48 34.664 0.124 7.85 3.01 14.95
12/20/2021 2:00:00 PM 1.5 34.7 0.124 7.83 2.65 14.92
12/20/2021 2:15:00 PM 1.5 34.7 0.125 7.82 3.14 14.89
12/20/2021 2:30:00 PM 1.5 34.7 0.124 7.81 2.7 14.86
12/20/2021 2:45:00 PM 1.49 34.682 0.124 7.8 2.92 14.83
12/20/2021 3:00:00 PM 1.48 34.664 0.125 7.78 2.95 14.79
12/20/2021 3:15:00 PM 1.46 34.628 0.126 7.75 2.86 14.76
12/20/2021 3:30:00 PM 1.43 34.574 0.124 7.73 2.64 14.73
12/20/2021 3:45:00 PM 1.39 34.502 0.124 7.7 2.91 14.69
12/20/2021 4:00:00 PM 1.35 34.43 0.125 7.67 2.99 14.65
12/20/2021 4:15:00 PM 1.3 34.34 0.124 7.64 2.88 14.61
12/20/2021 4:30:00 PM 1.26 34.268 0.125 7.6 3.2 14.55
12/20/2021 4:45:00 PM 1.21 34.178 0.125 7.57 2.82 14.5
12/20/2021 5:00:00 PM 1.18 34.124 0.124 7.53 3.1 14.44
12/20/2021 5:15:00 PM 1.14 34.052 0.125 7.5 7.65 14.4
12/20/2021 5:30:00 PM 1.11 33.998 0.126 7.48 2.96 14.36
12/20/2021 5:45:00 PM 1.09 33.962 0.125 7.45 2.96 14.33
12/20/2021 6:00:00 PM 1.07 33.926 0.126 7.44 2.94 14.32
12/20/2021 6:15:00 PM 1.05 33.89 0.124 7.42 3.67 14.29
12/20/2021 6:30:00 PM 1.03 33.854 0.125 7.41 2.98 14.28
12/20/2021 6:45:00 PM 1.02 33.836 0.125 7.4 7.71 14.27
12/20/2021 7:00:00 PM 1.01 33.818 0.126 7.39 2.83 14.26
12/20/2021 7:15:00 PM 0.99 33.782 0.126 7.38 10.31 14.26
12/20/2021 7:30:00 PM 0.98 33.764 0.125 7.38 2.68 14.26
12/20/2021 7:45:00 PM 0.96 33.728 0.125 7.37 2.58 14.25
12/20/2021 8:00:00 PM 0.94 33.692 0.126 7.36 3.2 14.24
12/20/2021 8:15:00 PM 0.92 33.656 0.126 7.36 2.77 14.25
12/20/2021 8:30:00 PM 0.9 33.62 0.126 7.36 2.77 14.25
12/20/2021 8:45:00 PM 0.87 33.566 0.126 7.35 2.98 14.25
12/20/2021 9:00:00 PM 0.84 33.512 0.125 7.35 2.98 14.26
12/20/2021 9:15:00 PM 0.82 33.476 0.125 7.34 3.03 14.27
12/20/2021 9:30:00 PM 0.79 33.422 0.125 7.34 3 14.28
12/20/2021 9:45:00 PM 0.75 33.35 0.125 7.34 7.97 14.28
12/20/2021 10:00:00 PM 0.73 33.314 0.125 7.33 2.64 14.29
12/20/2021 10:15:00 PM 0.7 33.26 0.126 7.33 3.02 14.3
12/20/2021 10:30:00 PM 0.67 33.206 0.125 7.33 2.88 14.31
12/20/2021 10:45:00 PM 0.65 33.17 0.125 7.33 2.87 14.31
12/20/2021 11:00:00 PM 0.61 33.098 0.125 7.32 3.01 14.32
12/20/2021 11:15:00 PM 0.58 33.044 0.125 7.32 2.86 14.33
12/20/2021 11:30:00 PM 0.55 32.99 0.125 7.32 2.92 14.34
12/20/2021 11:45:00 PM 0.52 32.936 0.125 7.31 2.9 14.35
12/21/2021 12:00:00 AM 0.48 32.864 0.125 7.31 2.93 14.36
12/21/2021 12:15:00 AM 0.45 32.81 0.125 7.31 2.9 14.37
12/21/2021 12:30:00 AM 0.41 32.738 0.126 7.31 2.9 14.38
12/21/2021 12:45:00 AM 0.37 32.666 0.125 7.3 3.04 14.4
12/21/2021 1:00:00 AM 0.33 32.594 0.126 7.3 2.89 14.42
12/21/2021 1:15:00 AM 0.29 32.522 0.125 7.29 2.8 14.43
12/21/2021 1:30:00 AM 0.25 32.45 0.125 7.29 2.88 14.45
12/21/2021 1:45:00 AM 0.2 32.36 0.125 7.29 2.94 14.47
12/21/2021 2:00:00 AM 0.16 32.288 0.126 7.29 2.84 14.49
12/21/2021 2:15:00 AM 0.12 32.216 0.125 7.29 3.02 14.5
12/21/2021 2:30:00 AM 0.07 32.126 0.126 7.28 7.94 14.53
12/21/2021 2:45:00 AM 0.03 32.054 0.126 7.28 2.98 14.53
12/21/2021 3:00:00 AM 0 32 0.126 7.28 2.84 14.55
12/21/2021 3:15:00 AM -0.04 31.928 0.126 7.28 2.77 14.57
12/21/2021 3:30:00 AM -0.05 31.91 0.126 7.28 3.12 14.61
12/21/2021 3:45:00 AM -0.02 31.964 0.122 7.28 2.48 14.61
12/21/2021 4:00:00 AM -0.02 31.964 0.123 7.27 3.04 14.61
12/21/2021 4:15:00 AM -0.02 31.964 0.121 7.28 3.31 14.62
12/21/2021 4:30:00 AM -0.02 31.964 0.122 7.29 3.15 14.62
12/21/2021 4:45:00 AM -0.01 31.982 0.127 7.29 3.12 14.62
12/21/2021 5:00:00 AM -0.01 31.982 0.128 7.3 3.13 14.61
12/21/2021 5:15:00 AM -0.01 31.982 0.127 7.3 3.24 14.62
12/21/2021 5:30:00 AM -0.01 31.982 0.128 7.3 3.94 14.61
12/21/2021 5:45:00 AM -0.01 31.982 0.127 7.3 3.36 14.61
12/21/2021 6:00:00 AM -0.01 31.982 0.128 7.3 3.06 14.62
12/21/2021 6:15:00 AM -0.01 31.982 0.128 7.3 3.43 14.61
12/21/2021 6:30:00 AM -0.01 31.982 0.128 7.3 2.89 14.61
12/21/2021 6:45:00 AM -0.01 31.982 0.127 7.3 3.2 14.6
12/21/2021 7:00:00 AM -0.01 31.982 0.127 7.3 3.28 14.6
12/21/2021 7:15:00 AM -0.01 31.982 0.129 7.3 3.05 14.6
12/21/2021 7:30:00 AM -0.01 31.982 0.129 7.3 3.06 14.6
12/21/2021 7:45:00 AM -0.01 31.982 0.127 7.31 3.22 14.61
12/21/2021 8:00:00 AM -0.01 31.982 0.128 7.31 3.19 14.64
12/21/2021 8:15:00 AM -0.01 31.982 0.127 7.32 3.16 14.7
12/21/2021 8:30:00 AM -0.01 31.982 0.128 7.34 3.07 14.77
12/21/2021 8:45:00 AM -0.01 31.982 0.127 7.36 3.41 14.86
12/21/2021 9:00:00 AM -0.01 31.982 0.128 7.38 3.22 14.93
12/21/2021 9:15:00 AM -0.01 31.982 0.129 7.41 9.47 14.99
12/21/2021 9:30:00 AM -0.01 31.982 0.127 7.44 3.22 15.07
12/21/2021 9:45:00 AM -0.01 31.982 0.128 7.47 3.06 15.15
12/21/2021 10:00:00 AM -0.01 31.982 0.127 7.51 3.09 15.21
12/21/2021 10:15:00 AM 0 32 0.128 7.54 3.24 15.26
12/21/2021 10:30:00 AM 0.02 32.036 0.128 7.57 3.27 15.3
12/21/2021 10:45:00 AM 0.07 32.126 0.126 7.61 2.97 15.34
12/21/2021 11:00:00 AM 0.16 32.288 0.126 7.64 10.56 15.35
12/21/2021 11:15:00 AM 0.21 32.378 0.127 7.67 2.79 15.33
12/21/2021 11:30:00 AM 0.27 32.486 0.126 7.69 9.92 15.33
12/21/2021 11:45:00 AM 0.29 32.522 0.126 7.71 2.95 15.33
12/21/2021 12:00:00 PM 0.32 32.576 0.127 7.72 3.16 15.33
12/21/2021 12:15:00 PM 0.38 32.684 0.126 7.75 10.34 15.34
12/21/2021 12:30:00 PM 0.43 32.774 0.125 7.76 7.93 15.32
12/21/2021 12:45:00 PM 0.49 32.882 0.127 7.77 3.02 15.3
12/21/2021 1:00:00 PM 0.55 32.99 0.126 7.79 3.13 15.27
12/21/2021 1:15:00 PM 0.61 33.098 0.126 7.8 10.42 15.25
12/21/2021 1:30:00 PM 0.68 33.224 0.125 7.82 7.77 15.22
12/21/2021 1:45:00 PM 0.75 33.35 0.126 7.82 10.34 15.19
12/21/2021 2:00:00 PM 0.81 33.458 0.125 7.83 2.69 15.15
12/21/2021 2:15:00 PM 0.86 33.548 0.125 7.83 10.2 15.12
12/21/2021 2:30:00 PM 0.91 33.638 0.124 7.83 10.46 15.08
12/21/2021 2:45:00 PM 0.94 33.692 0.124 7.81 2.85 15.02
12/21/2021 3:00:00 PM 0.96 33.728 0.127 7.81 9.72 14.99
12/21/2021 3:15:00 PM 0.98 33.764 0.126 7.79 10.34 14.95
12/21/2021 3:30:00 PM 0.99 33.782 0.126 7.77 10.11 14.91
12/21/2021 3:45:00 PM 0.99 33.782 0.126 7.74 10.12 14.85
12/21/2021 4:00:00 PM 0.98 33.764 0.126 7.72 9.75 14.81
12/21/2021 4:15:00 PM 0.97 33.746 0.125 7.69 9.28 14.74
12/21/2021 4:30:00 PM 0.95 33.71 0.126 7.64 10.09 14.66
12/21/2021 4:45:00 PM 0.92 33.656 0.125 7.6 10.08 14.58
12/21/2021 5:00:00 PM 0.89 33.602 0.126 7.56 2.84 14.51
12/21/2021 5:15:00 PM 0.85 33.53 0.127 7.52 9.72 14.46
12/21/2021 5:30:00 PM 0.82 33.476 0.127 7.49 2.86 14.41
12/21/2021 5:45:00 PM 0.79 33.422 0.127 7.47 9.74 14.38
12/21/2021 6:00:00 PM 0.75 33.35 0.127 7.45 9.82 14.35
12/21/2021 6:15:00 PM 0.73 33.314 0.126 7.43 3.13 14.34
12/21/2021 6:30:00 PM 0.71 33.278 0.126 7.42 7.6 14.31
12/21/2021 6:45:00 PM 0.7 33.26 0.126 7.41 7.37 14.3
12/21/2021 7:00:00 PM 0.68 33.224 0.127 7.4 9.33 14.3
12/21/2021 7:15:00 PM 0.67 33.206 0.127 7.39 10.65 14.29
12/21/2021 7:30:00 PM 0.65 33.17 0.126 7.38 3.03 14.28
12/21/2021 7:45:00 PM 0.64 33.152 0.126 7.38 7.76 14.27
12/21/2021 8:00:00 PM 0.62 33.116 0.127 7.37 3.06 14.27
12/21/2021 8:15:00 PM 0.6 33.08 0.126 7.37 10.32 14.27
12/21/2021 8:30:00 PM 0.59 33.062 0.127 7.36 2.73 14.26
12/21/2021 8:45:00 PM 0.57 33.026 0.126 7.35 2.68 14.27
12/21/2021 9:00:00 PM 0.56 33.008 0.127 7.35 10.09 14.26
12/21/2021 9:15:00 PM 0.54 32.972 0.126 7.35 10.01 14.27
12/21/2021 9:30:00 PM 0.52 32.936 0.126 7.34 2.72 14.27
12/21/2021 9:45:00 PM 0.51 32.918 0.127 7.34 10.45 14.27
12/21/2021 10:00:00 PM 0.49 32.882 0.126 7.33 2.91 14.27
12/21/2021 10:15:00 PM 0.48 32.864 0.126 7.33 10.4 14.27
12/21/2021 10:30:00 PM 0.46 32.828 0.127 7.33 2.89 14.27
12/21/2021 10:45:00 PM 0.45 32.81 0.127 7.33 2.83 14.27
12/21/2021 11:00:00 PM 0.43 32.774 0.126 7.32 10.24 14.27
12/21/2021 11:15:00 PM 0.41 32.738 0.125 7.32 2.61 14.28
12/21/2021 11:30:00 PM 0.4 32.72 0.126 7.32 2.81 14.28
12/21/2021 11:45:00 PM 0.39 32.702 0.127 7.32 7.84 14.28
12/22/2021 12:00:00 AM 0.38 32.684 0.127 7.32 2.84 14.27
12/22/2021 12:15:00 AM 0.39 32.702 0.126 7.32 2.76 14.28
12/22/2021 12:30:00 AM 0.4 32.72 0.126 7.32 10.39 14.27
12/22/2021 12:45:00 AM 0.39 32.702 0.126 7.32 3.02 14.27
12/22/2021 1:00:00 AM 0.39 32.702 0.125 7.32 10.43 14.26
12/22/2021 1:15:00 AM 0.38 32.684 0.127 7.32 2.76 14.27
12/22/2021 1:30:00 AM 0.35 32.63 0.126 7.32 7.6 14.27
12/22/2021 1:45:00 AM 0.33 32.594 0.127 7.32 10.12 14.27
12/22/2021 2:00:00 AM 0.31 32.558 0.127 7.32 10.6 14.28
12/22/2021 2:15:00 AM 0.28 32.504 0.126 7.32 2.9 14.28
12/22/2021 2:30:00 AM 0.25 32.45 0.127 7.31 9.72 14.3
12/22/2021 2:45:00 AM 0.22 32.396 0.127 7.31 7.74 14.3
12/22/2021 3:00:00 AM 0.19 32.342 0.127 7.31 2.57 14.31
12/22/2021 3:15:00 AM 0.16 32.288 0.127 7.31 7.44 14.32
12/22/2021 3:30:00 AM 0.14 32.252 0.127 7.31 2.94 14.32
12/22/2021 3:45:00 AM 0.11 32.198 0.127 7.31 10.21 14.34
12/22/2021 4:00:00 AM 0.08 32.144 0.127 7.31 3.01 14.34
12/22/2021 4:15:00 AM 0.06 32.108 0.127 7.3 10.29 14.35
12/22/2021 4:30:00 AM 0.04 32.072 0.126 7.3 8.14 14.36
12/22/2021 4:45:00 AM 0.01 32.018 0.127 7.3 10.12 14.36
12/22/2021 5:00:00 AM -0.01 31.982 0.127 7.3 2.86 14.38
12/22/2021 5:15:00 AM -0.03 31.946 0.127 7.3 7.6 14.39
12/22/2021 5:30:00 AM -0.04 31.928 0.127 7.3 2.38 14.39
12/22/2021 5:45:00 AM -0.04 31.928 0.123 7.3 7.06 14.41
12/22/2021 6:00:00 AM -0.02 31.964 0.121 7.3 9.73 14.42
12/22/2021 6:15:00 AM -0.02 31.964 0.128 7.3 2.67 14.41
12/22/2021 6:30:00 AM -0.01 31.982 0.127 7.31 7.32 14.41
12/22/2021 6:45:00 AM -0.01 31.982 0.126 7.31 7.15 14.41
12/22/2021 7:00:00 AM -0.02 31.964 0.128 7.31 2.9 14.41
12/22/2021 7:15:00 AM -0.02 31.964 0.127 7.31 7.42 14.42
12/22/2021 7:30:00 AM -0.01 31.982 0.127 7.31 2.92 14.42
12/22/2021 7:45:00 AM -0.02 31.964 0.128 7.31 2.68 14.45
12/22/2021 8:00:00 AM -0.01 31.982 0.127 7.32 2.62 14.49
12/22/2021 8:15:00 AM -0.01 31.982 0.128 7.33 9.7 14.54
12/22/2021 8:30:00 AM -0.01 31.982 0.129 7.35 10.38 14.59
12/22/2021 8:45:00 AM -0.01 31.982 0.128 7.37 9.19 14.66
12/22/2021 9:00:00 AM 0 32 0.127 7.39 10.13 14.75
12/22/2021 9:15:00 AM 0.02 32.036 0.126 7.42 7.25 14.83
12/22/2021 9:30:00 AM 0.08 32.144 0.128 7.46 2.31 14.9
12/22/2021 9:45:00 AM 0.12 32.216 0.128 7.49 9.97 14.96
12/22/2021 10:00:00 AM 0.18 32.324 0.127 7.53 9.28 15.01
12/22/2021 10:15:00 AM 0.23 32.414 0.127 7.56 10.01 15.04
12/22/2021 10:30:00 AM 0.29 32.522 0.126 7.59 9.49 15.08
12/22/2021 10:45:00 AM 0.33 32.594 0.126 7.62 10.08 15.09
12/22/2021 11:00:00 AM 0.37 32.666 0.126 7.65 2.4 15.11
12/22/2021 11:15:00 AM 0.43 32.774 0.126 7.68 7.61 15.13
12/22/2021 11:30:00 AM 0.46 32.828 0.126 7.7 9.37 15.11
12/22/2021 11:45:00 AM 0.58 33.044 0.125 7.74 10.08 15.12
12/22/2021 12:00:00 PM 0.67 33.206 0.125 7.76 9.72 15.08
12/22/2021 12:15:00 PM 0.76 33.368 0.125 7.78 9.4 15.06
12/22/2021 12:30:00 PM 0.83 33.494 0.126 7.8 9.83 15.05
12/22/2021 12:45:00 PM 0.88 33.584 0.125 7.81 9.88 15.01
12/22/2021 1:00:00 PM 0.93 33.674 0.124 7.83 10.3 14.99
12/22/2021 1:15:00 PM 0.96 33.728 0.125 7.81 9.93 14.9
12/22/2021 1:30:00 PM 0.94 33.692 0.126 7.78 7.34 14.85
12/22/2021 1:45:00 PM 0.93 33.674 0.125 7.76 10.25 14.8
12/22/2021 2:00:00 PM 0.94 33.692 0.125 7.73 7.55 14.75
12/22/2021 2:15:00 PM 0.95 33.71 0.126 7.73 9.43 14.77
12/22/2021 2:30:00 PM 0.99 33.782 0.126 7.74 7.61 14.78
12/22/2021 2:45:00 PM 0.99 33.782 0.126 7.75 2.63 14.78
12/22/2021 3:00:00 PM 0.96 33.728 0.126 7.74 9.33 14.77
12/22/2021 3:15:00 PM 0.96 33.728 0.125 7.75 9.65 14.78
12/22/2021 3:30:00 PM 0.94 33.692 0.125 7.75 2.72 14.78
12/22/2021 3:45:00 PM 0.91 33.638 0.125 7.74 6.92 14.76
12/22/2021 4:00:00 PM 0.87 33.566 0.125 7.72 9.48 14.73
12/22/2021 4:15:00 PM 0.83 33.494 0.125 7.68 9.85 14.67
12/22/2021 4:30:00 PM 0.79 33.422 0.126 7.64 10.21 14.61
12/22/2021 4:45:00 PM 0.75 33.35 0.126 7.6 6.68 14.54
12/22/2021 5:00:00 PM 0.72 33.296 0.125 7.56 7.46 14.49
12/22/2021 5:15:00 PM 0.7 33.26 0.126 7.53 10.05 14.44
12/22/2021 5:30:00 PM 0.66 33.188 0.127 7.5 9.45 14.41
12/22/2021 5:45:00 PM 0.61 33.098 0.126 7.48 7.71 14.39
12/22/2021 6:00:00 PM 0.57 33.026 0.127 7.46 9.79 14.38
12/22/2021 6:15:00 PM 0.52 32.936 0.127 7.45 9.79 14.38
12/22/2021 6:30:00 PM 0.48 32.864 0.126 7.43 7.39 14.38
12/22/2021 6:45:00 PM 0.43 32.774 0.126 7.42 10.08 14.39
12/22/2021 7:00:00 PM 0.39 32.702 0.126 7.41 7.18 14.39
12/22/2021 7:15:00 PM 0.35 32.63 0.126 7.4 10.09 14.39
12/22/2021 7:30:00 PM 0.31 32.558 0.126 7.39 9.84 14.4
12/22/2021 7:45:00 PM 0.29 32.522 0.127 7.39 6.73 14.4
12/22/2021 8:00:00 PM 0.29 32.522 0.125 7.38 9.45 14.41
12/22/2021 8:15:00 PM 0.28 32.504 0.126 7.38 9.42 14.41
12/22/2021 8:30:00 PM 0.28 32.504 0.125 7.37 9.94 14.41
12/22/2021 8:45:00 PM 0.27 32.486 0.126 7.37 9.27 14.41
12/22/2021 9:00:00 PM 0.27 32.486 0.125 7.37 9.9 14.42
12/22/2021 9:15:00 PM 0.25 32.45 0.125 7.36 9.89 14.42
12/22/2021 9:30:00 PM 0.24 32.432 0.126 7.36 2.69 14.42
12/22/2021 9:45:00 PM 0.23 32.414 0.125 7.35 9.7 14.43
12/22/2021 10:00:00 PM 0.22 32.396 0.125 7.35 10.03 14.43
12/22/2021 10:15:00 PM 0.19 32.342 0.126 7.35 10.03 14.44
12/22/2021 10:30:00 PM 0.16 32.288 0.125 7.34 9.83 14.45
12/22/2021 10:45:00 PM 0.13 32.234 0.126 7.34 9.34 14.46
12/22/2021 11:00:00 PM 0.1 32.18 0.125 7.34 7.21 14.47
12/22/2021 11:15:00 PM 0.06 32.108 0.126 7.34 10.06 14.49
12/22/2021 11:30:00 PM 0.03 32.054 0.126 7.33 9.54 14.51
12/22/2021 11:45:00 PM 0 32 0.126 7.33 9.84 14.52
12/23/2021 12:00:00 AM -0.02 31.964 0.125 7.33 7.43 14.53
12/23/2021 12:15:00 AM -0.04 31.928 0.125 7.33 10.03 14.54
12/23/2021 12:30:00 AM -0.06 31.892 0.124 7.33 2.61 14.56
12/23/2021 12:45:00 AM -0.02 31.964 0.121 7.33 3.05 14.57
12/23/2021 1:00:00 AM -0.02 31.964 0.123 7.33 10.42 14.57
12/23/2021 1:15:00 AM -0.02 31.964 0.124 7.33 2.76 14.57
12/23/2021 1:30:00 AM -0.01 31.982 0.126 7.33 2.84 14.57
12/23/2021 1:45:00 AM -0.01 31.982 0.125 7.33 7.91 14.58
12/23/2021 2:00:00 AM -0.01 31.982 0.126 7.33 2.93 14.58
12/23/2021 2:15:00 AM -0.01 31.982 0.125 7.33 2.71 14.58
12/23/2021 2:30:00 AM -0.01 31.982 0.126 7.33 2.89 14.59
12/23/2021 2:45:00 AM -0.01 31.982 0.126 7.33 2.88 14.6
12/23/2021 3:00:00 AM -0.01 31.982 0.126 7.33 10.37 14.6
12/23/2021 3:15:00 AM -0.01 31.982 0.126 7.33 9.99 14.6
12/23/2021 3:30:00 AM -0.01 31.982 0.126 7.33 7.64 14.6
12/23/2021 3:45:00 AM -0.01 31.982 0.127 7.33 10.05 14.6
12/23/2021 4:00:00 AM -0.01 31.982 0.127 7.33 7.58 14.6
12/23/2021 4:15:00 AM -0.01 31.982 0.126 7.33 2.77 14.61
12/23/2021 4:30:00 AM -0.01 31.982 0.126 7.33 2.7 14.61
12/23/2021 4:45:00 AM -0.01 31.982 0.126 7.33 10.03 14.62
12/23/2021 5:00:00 AM -0.01 31.982 0.128 7.33 9.54 14.62
12/23/2021 5:15:00 AM -0.01 31.982 0.127 7.33 9.92 14.61
12/23/2021 5:30:00 AM -0.01 31.982 0.128 7.33 9.89 14.61
12/23/2021 5:45:00 AM -0.01 31.982 0.127 7.33 2.84 14.61
12/23/2021 6:00:00 AM -0.01 31.982 0.128 7.33 2.98 14.61
12/23/2021 6:15:00 AM -0.01 31.982 0.129 7.33 9.72 14.62
12/23/2021 6:30:00 AM -0.01 31.982 0.128 7.33 9.58 14.62
12/23/2021 6:45:00 AM -0.01 31.982 0.127 7.33 7.74 14.62
12/23/2021 7:00:00 AM -0.01 31.982 0.128 7.33 7.01 14.63
12/23/2021 7:15:00 AM -0.01 31.982 0.128 7.33 7.77 14.63
12/23/2021 7:30:00 AM -0.01 31.982 0.129 7.33 2.91 14.64
12/23/2021 7:45:00 AM -0.01 31.982 0.128 7.33 6.76 14.67
12/23/2021 8:00:00 AM -0.01 31.982 0.129 7.33 9.39 14.7
12/23/2021 8:15:00 AM -0.01 31.982 0.128 7.35 9.53 14.76
12/23/2021 8:30:00 AM -0.01 31.982 0.129 7.36 6.87 14.85
12/23/2021 8:45:00 AM -0.01 31.982 0.129 7.38 9.73 14.91
12/23/2021 9:00:00 AM -0.01 31.982 0.128 7.4 10.16 14.97
12/23/2021 9:15:00 AM -0.01 31.982 0.13 7.43 9.48 15.08
12/23/2021 9:30:00 AM -0.01 31.982 0.129 7.45 8.97 15.11
12/23/2021 9:45:00 AM -0.01 31.982 0.128 7.47 9.15 15.19
12/23/2021 10:00:00 AM -0.01 31.982 0.129 7.49 9.48 15.25
12/23/2021 10:15:00 AM -0.01 31.982 0.13 7.52 8.93 15.37
12/23/2021 10:30:00 AM -0.01 31.982 0.128 7.55 7.05 15.35
12/23/2021 10:45:00 AM -0.01 31.982 0.129 7.57 9.63 15.38
12/23/2021 11:00:00 AM -0.01 31.982 0.129 7.6 9.56 15.44
12/23/2021 11:15:00 AM -0.01 31.982 0.128 7.63 6.93 15.51
12/23/2021 11:30:00 AM -0.01 31.982 0.128 7.65 9.75 15.51
12/23/2021 11:45:00 AM -0.01 31.982 0.129 7.66 8.97 15.49
12/23/2021 12:00:00 PM -0.01 31.982 0.127 7.67 9.62 15.47
12/23/2021 12:15:00 PM -0.01 31.982 0.127 7.69 9.08 15.52
12/23/2021 12:30:00 PM -0.01 31.982 0.127 7.71 9.49 15.49
12/23/2021 12:45:00 PM -0.01 31.982 0.126 7.72 9.44 15.47
12/23/2021 1:00:00 PM -0.01 31.982 0.127 7.73 9.8 15.48
12/23/2021 1:15:00 PM -0.01 31.982 0.127 7.74 9.37 15.49
12/23/2021 1:30:00 PM -0.01 31.982 0.126 7.75 9.57 15.46
12/23/2021 1:45:00 PM -0.01 31.982 0.127 7.76 9.49 15.44
12/23/2021 2:00:00 PM -0.01 31.982 0.125 7.78 7.57 15.43
12/23/2021 2:15:00 PM -0.01 31.982 0.125 7.77 8.08 15.43
12/23/2021 2:30:00 PM -0.01 31.982 0.125 7.78 9.82 15.42
12/23/2021 2:45:00 PM -0.01 31.982 0.126 7.77 10.07 15.39
12/23/2021 3:00:00 PM -0.01 31.982 0.125 7.76 10.35 15.37
12/23/2021 3:15:00 PM -0.01 31.982 0.126 7.74 10.69 15.36
12/23/2021 3:30:00 PM -0.01 31.982 0.125 7.73 7.77 15.33
12/23/2021 3:45:00 PM -0.01 31.982 0.125 7.71 10.08 15.3
12/23/2021 4:00:00 PM -0.01 31.982 0.125 7.69 9.82 15.27
12/23/2021 4:15:00 PM -0.01 31.982 0.125 7.66 7.68 15.2
12/23/2021 4:30:00 PM -0.01 31.982 0.125 7.62 3.25 15.14
12/23/2021 4:45:00 PM -0.01 31.982 0.125 7.58 10.37 15.06
12/23/2021 5:00:00 PM -0.01 31.982 0.124 7.54 3.11 14.98
12/23/2021 5:15:00 PM -0.01 31.982 0.126 7.51 10.15 14.93
12/23/2021 5:30:00 PM -0.02 31.964 0.125 7.48 7.92 14.88
12/23/2021 5:45:00 PM -0.01 31.982 0.127 7.46 9.98 14.84
12/23/2021 6:00:00 PM -0.01 31.982 0.126 7.44 9.99 14.82
12/23/2021 6:15:00 PM -0.01 31.982 0.126 7.43 9.88 14.78
12/23/2021 6:30:00 PM -0.01 31.982 0.124 7.42 10.04 14.76
12/23/2021 6:45:00 PM -0.01 31.982 0.125 7.41 3.08 14.74
12/23/2021 7:00:00 PM -0.01 31.982 0.125 7.4 9.73 14.72
12/23/2021 7:15:00 PM -0.01 31.982 0.125 7.39 9.38 14.71
12/23/2021 7:30:00 PM -0.01 31.982 0.126 7.39 10 14.69
12/23/2021 7:45:00 PM -0.01 31.982 0.126 7.38 10.18 14.68
12/23/2021 8:00:00 PM -0.01 31.982 0.125 7.38 7.38 14.66
12/23/2021 8:15:00 PM -0.01 31.982 0.124 7.37 10.05 14.66
12/23/2021 8:30:00 PM -0.01 31.982 0.126 7.37 9.88 14.65
12/23/2021 8:45:00 PM -0.01 31.982 0.126 7.36 9.8 14.64
12/23/2021 9:00:00 PM -0.01 31.982 0.124 7.36 9.61 14.64
12/23/2021 9:15:00 PM -0.01 31.982 0.125 7.36 10.02 14.63
12/23/2021 9:30:00 PM -0.01 31.982 0.125 7.35 9.83 14.6
12/23/2021 9:45:00 PM -0.01 31.982 0.125 7.35 9.39 14.59
12/23/2021 10:00:00 PM -0.01 31.982 0.125 7.34 7.51 14.61
12/23/2021 10:15:00 PM 0 32 0.124 7.33 9.59 14.6
12/23/2021 10:30:00 PM 0 32 0.125 7.33 9.55 14.6
12/23/2021 10:45:00 PM 0 32 0.125 7.32 9.12 14.6
12/23/2021 11:00:00 PM 0 32 0.125 7.32 9.46 14.59
12/23/2021 11:15:00 PM 0 32 0.124 7.32 9.21 14.58
12/23/2021 11:30:00 PM 0 32 0.124 7.32 9.16 14.58
12/23/2021 11:45:00 PM 0 32 0.125 7.32 9.06 14.58
12/24/2021 12:00:00 AM 0.01 32.018 0.125 7.32 8.39 14.58
12/24/2021 12:15:00 AM 0.01 32.018 0.124 7.32 8.76 14.57
12/24/2021 12:30:00 AM 0.01 32.018 0.124 7.32 9 14.57
12/24/2021 12:45:00 AM 0.01 32.018 0.124 7.32 6.63 14.57
12/24/2021 1:00:00 AM 0 32 0.125 7.32 9.31 14.57
12/24/2021 1:15:00 AM -0.01 31.982 0.123 7.31 8.79 14.56
12/24/2021 1:30:00 AM -0.01 31.982 0.125 7.31 6.25 14.56
12/24/2021 1:45:00 AM -0.01 31.982 0.125 7.31 10.1 14.56
12/24/2021 2:00:00 AM -0.01 31.982 0.126 7.3 9.59 14.56
12/24/2021 2:15:00 AM -0.01 31.982 0.126 7.3 2.47 14.56
12/24/2021 2:30:00 AM -0.01 31.982 0.126 7.3 9.23 14.56
12/24/2021 2:45:00 AM -0.01 31.982 0.126 7.3 8.51 14.56
12/24/2021 3:00:00 AM -0.01 31.982 0.125 7.3 9.07 14.55
12/24/2021 3:15:00 AM -0.01 31.982 0.126 7.31 9.78 14.55
12/24/2021 3:30:00 AM 0 32 0.125 7.31 8.73 14.55
12/24/2021 3:45:00 AM 0 32 0.124 7.31 9.03 14.54
12/24/2021 4:00:00 AM 0 32 0.126 7.31 9.4 14.55
12/24/2021 4:15:00 AM 0.01 32.018 0.126 7.32 9.26 14.55
12/24/2021 4:30:00 AM 0.01 32.018 0.125 7.31 9.01 14.54
12/24/2021 4:45:00 AM 0.01 32.018 0.125 7.31 9 14.54
12/24/2021 5:00:00 AM 0.01 32.018 0.126 7.31 8.9 14.54
12/24/2021 5:15:00 AM 0.02 32.036 0.126 7.31 2.57 14.54
12/24/2021 5:30:00 AM 0.02 32.036 0.126 7.31 9.56 14.54
12/24/2021 5:45:00 AM 0.02 32.036 0.125 7.31 9.31 14.54
12/24/2021 6:00:00 AM 0.02 32.036 0.124 7.31 8.81 14.53
12/24/2021 6:15:00 AM 0.03 32.054 0.125 7.31 8.83 14.53
12/24/2021 6:30:00 AM 0.03 32.054 0.124 7.32 8.92 14.54
12/24/2021 6:45:00 AM 0.03 32.054 0.126 7.31 8.4 14.54
12/24/2021 7:00:00 AM 0.04 32.072 0.125 7.32 8.84 14.53
12/24/2021 7:15:00 AM 0.04 32.072 0.125 7.32 8.71 14.54
12/24/2021 7:30:00 AM 0.04 32.072 0.125 7.31 9.01 14.54
12/24/2021 7:45:00 AM 0.05 32.09 0.124 7.32 9.05 14.54
12/24/2021 8:00:00 AM 0.05 32.09 0.124 7.32 9.2 14.56
12/24/2021 8:15:00 AM 0.06 32.108 0.126 7.33 6.43 14.59
12/24/2021 8:30:00 AM 0.06 32.108 0.126 7.33 8.62 14.61
12/24/2021 8:45:00 AM 0.07 32.126 0.124 7.35 9.18 14.66
12/24/2021 9:00:00 AM 0.08 32.144 0.126 7.37 8.8 14.72
12/24/2021 9:15:00 AM 0.09 32.162 0.126 7.38 8.99 14.77
12/24/2021 9:30:00 AM 0.1 32.18 0.126 7.4 9.02 14.83
12/24/2021 9:45:00 AM 0.11 32.198 0.126 7.41 8.8 14.88
12/24/2021 10:00:00 AM 0.12 32.216 0.124 7.44 9.21 14.93
12/24/2021 10:15:00 AM 0.14 32.252 0.125 7.46 8.66 14.99
12/24/2021 10:30:00 AM 0.16 32.288 0.124 7.48 8.9 15.05
12/24/2021 10:45:00 AM 0.18 32.324 0.125 7.51 8.92 15.08
12/24/2021 11:00:00 AM 0.21 32.378 0.124 7.53 9.4 15.12
12/24/2021 11:15:00 AM 0.22 32.396 0.125 7.56 8.76 15.15
12/24/2021 11:30:00 AM 0.25 32.45 0.124 7.58 8.7 15.18
12/24/2021 11:45:00 AM 0.28 32.504 0.124 7.61 9.24 15.21
12/24/2021 12:00:00 PM 0.32 32.576 0.123 7.64 9.22 15.23
12/24/2021 12:15:00 PM 0.36 32.648 0.123 7.66 9.24 15.25
12/24/2021 12:30:00 PM 0.4 32.72 0.123 7.69 8.94 15.24
12/24/2021 12:45:00 PM 0.43 32.774 0.124 7.71 9.17 15.24
12/24/2021 1:00:00 PM 0.46 32.828 0.123 7.73 9.47 15.24
12/24/2021 1:15:00 PM 0.5 32.9 0.123 7.75 9.19 15.24
12/24/2021 1:30:00 PM 0.53 32.954 0.123 7.76 9.04 15.22
12/24/2021 1:45:00 PM 0.57 33.026 0.123 7.77 7.88 15.17
12/24/2021 2:00:00 PM 0.62 33.116 0.124 7.79 8.7 15.18
12/24/2021 2:15:00 PM 0.65 33.17 0.122 7.8 8.94 15.17
12/24/2021 2:30:00 PM 0.68 33.224 0.122 7.8 9.22 15.12
12/24/2021 2:45:00 PM 0.71 33.278 0.122 7.81 9.12 15.1
12/24/2021 3:00:00 PM 0.73 33.314 0.121 7.8 9.11 15.07
12/24/2021 3:15:00 PM 0.75 33.35 0.123 7.78 8.99 15.01
12/24/2021 3:30:00 PM 0.75 33.35 0.121 7.77 8.9 14.97
12/24/2021 3:45:00 PM 0.77 33.386 0.122 7.75 8.77 14.93
12/24/2021 4:00:00 PM 0.78 33.404 0.121 7.72 9.06 14.88
12/24/2021 4:15:00 PM 0.79 33.422 0.121 7.69 8.57 14.81
12/24/2021 4:30:00 PM 0.79 33.422 0.122 7.64 8.7 14.72
12/24/2021 4:45:00 PM 0.79 33.422 0.124 7.6 8.81 14.63
12/24/2021 5:00:00 PM 0.77 33.386 0.122 7.56 8.58 14.56
12/24/2021 5:15:00 PM 0.76 33.368 0.122 7.52 9.02 14.49
12/24/2021 5:30:00 PM 0.75 33.35 0.123 7.49 8.57 14.44
12/24/2021 5:45:00 PM 0.74 33.332 0.124 7.47 8.43 14.4
12/24/2021 6:00:00 PM 0.73 33.314 0.124 7.45 8.48 14.37
12/24/2021 6:15:00 PM 0.73 33.314 0.124 7.43 9.14 14.34
12/24/2021 6:30:00 PM 0.73 33.314 0.123 7.43 6.95 14.33
12/24/2021 6:45:00 PM 0.73 33.314 0.124 7.41 8.74 14.31
12/24/2021 7:00:00 PM 0.74 33.332 0.124 7.4 9.43 14.3
12/24/2021 7:15:00 PM 0.75 33.35 0.125 7.4 9.1 14.28
12/24/2021 7:30:00 PM 0.76 33.368 0.125 7.39 9.4 14.27
12/24/2021 7:45:00 PM 0.77 33.386 0.124 7.39 9.1 14.26
12/24/2021 8:00:00 PM 0.78 33.404 0.124 7.38 8.75 14.24
12/24/2021 8:15:00 PM 0.79 33.422 0.124 7.38 8.99 14.23
12/24/2021 8:30:00 PM 0.8 33.44 0.125 7.37 9.11 14.22
12/24/2021 8:45:00 PM 0.8 33.44 0.125 7.36 8.76 14.22
12/24/2021 9:00:00 PM 0.81 33.458 0.124 7.36 9.05 14.2
12/24/2021 9:15:00 PM 0.81 33.458 0.125 7.36 9.74 14.19
12/24/2021 9:30:00 PM 0.82 33.476 0.124 7.35 8.81 14.19
12/24/2021 9:45:00 PM 0.83 33.494 0.123 7.35 9.29 14.19
12/24/2021 10:00:00 PM 0.82 33.476 0.123 7.35 9.44 14.18
12/24/2021 10:15:00 PM 0.82 33.476 0.124 7.35 9.02 14.17
12/24/2021 10:30:00 PM 0.82 33.476 0.124 7.34 9.22 14.17
12/24/2021 10:45:00 PM 0.83 33.494 0.125 7.34 9.07 14.17
12/24/2021 11:00:00 PM 0.84 33.512 0.124 7.34 8.65 14.16
12/24/2021 11:15:00 PM 0.86 33.548 0.124 7.34 9.11 14.15
12/24/2021 11:30:00 PM 0.88 33.584 0.124 7.34 9.21 14.14
12/24/2021 11:45:00 PM 0.91 33.638 0.124 7.33 8.93 14.13
12/25/2021 12:00:00 AM 0.93 33.674 0.122 7.34 9.11 14.12
12/25/2021 12:15:00 AM 0.96 33.728 0.123 7.34 9.31 14.11
12/25/2021 12:30:00 AM 0.98 33.764 0.123 7.34 9.06 14.1
12/25/2021 12:45:00 AM 1.01 33.818 0.123 7.33 9.01 14.08
12/25/2021 1:00:00 AM 1.02 33.836 0.122 7.33 9.64 14.08
12/25/2021 1:15:00 AM 1.04 33.872 0.122 7.33 9.03 14.06
12/25/2021 1:30:00 AM 1.05 33.89 0.123 7.33 8.97 14.06
12/25/2021 1:45:00 AM 1.06 33.908 0.122 7.33 8.83 14.05
12/25/2021 2:00:00 AM 1.07 33.926 0.123 7.33 9.43 14.04
12/25/2021 2:15:00 AM 1.08 33.944 0.123 7.33 9.67 14.03
12/25/2021 2:30:00 AM 1.09 33.962 0.122 7.33 6.94 14.02
12/25/2021 2:45:00 AM 1.1 33.98 0.123 7.33 9.23 14.01
12/25/2021 3:00:00 AM 1.12 34.016 0.123 7.32 9.52 14
12/25/2021 3:15:00 AM 1.13 34.034 0.123 7.33 9.19 13.99
12/25/2021 3:30:00 AM 1.14 34.052 0.123 7.33 9.11 13.99
12/25/2021 3:45:00 AM 1.15 34.07 0.123 7.32 9.15 13.98
12/25/2021 4:00:00 AM 1.16 34.088 0.123 7.32 9.03 13.97
12/25/2021 4:15:00 AM 1.17 34.106 0.124 7.32 8.88 13.96
12/25/2021 4:30:00 AM 1.19 34.142 0.124 7.32 9.12 13.95
12/25/2021 4:45:00 AM 1.21 34.178 0.123 7.32 9.22 13.94
12/25/2021 5:00:00 AM 1.22 34.196 0.123 7.32 8.87 13.93
12/25/2021 5:15:00 AM 1.24 34.232 0.123 7.32 9.02 13.92
12/25/2021 5:30:00 AM 1.26 34.268 0.122 7.32 9.21 13.91
12/25/2021 5:45:00 AM 1.28 34.304 0.123 7.32 9.41 13.89
12/25/2021 6:00:00 AM 1.3 34.34 0.122 7.32 9.05 13.89
12/25/2021 6:15:00 AM 1.32 34.376 0.122 7.32 9.56 13.88
12/25/2021 6:30:00 AM 1.33 34.394 0.122 7.32 9.23 13.87
12/25/2021 6:45:00 AM 1.35 34.43 0.122 7.32 9.43 13.86
12/25/2021 7:00:00 AM 1.37 34.466 0.122 7.32 9.53 13.85
12/25/2021 7:15:00 AM 1.38 34.484 0.122 7.31 9.42 13.84
12/25/2021 7:30:00 AM 1.4 34.52 0.122 7.31 10.17 13.83
12/25/2021 7:45:00 AM 1.42 34.556 0.121 7.31 9.22 13.82
12/25/2021 8:00:00 AM 1.44 34.592 0.122 7.32 9.11 13.82
12/25/2021 8:15:00 AM 1.46 34.628 0.122 7.32 9.4 13.83
12/25/2021 8:30:00 AM 1.48 34.664 0.122 7.32 9.79 13.84
12/25/2021 8:45:00 AM 1.5 34.7 0.122 7.33 7.95 13.86
12/25/2021 9:00:00 AM 1.52 34.736 0.122 7.34 10.39 13.88
12/25/2021 9:15:00 AM 1.54 34.772 0.121 7.35 9.94 13.9
12/25/2021 9:30:00 AM 1.57 34.826 0.122 7.36 7.94 13.94
12/25/2021 9:45:00 AM 1.6 34.88 0.123 7.37 9.8 13.97
12/25/2021 10:00:00 AM 1.63 34.934 0.122 7.38 9.93 13.96
12/25/2021 10:15:00 AM 1.65 34.97 0.122 7.39 10.25 13.97
12/25/2021 10:30:00 AM 1.68 35.024 0.124 7.41 10.18 14
12/25/2021 10:45:00 AM 1.71 35.078 0.123 7.42 10.45 14.02
12/25/2021 11:00:00 AM 1.75 35.15 0.125 7.44 3.72 14.06
12/25/2021 11:15:00 AM 1.8 35.24 0.124 7.46 3.71 14.11
12/25/2021 11:30:00 AM 1.87 35.366 0.124 7.49 4.6 14.15
12/25/2021 11:45:00 AM 1.92 35.456 0.125 7.51 3.99 14.14
12/25/2021 12:00:00 PM 1.96 35.528 0.126 7.52 4.42 14.13
12/25/2021 12:15:00 PM 2 35.6 0.126 7.54 4.78 14.12
12/25/2021 12:30:00 PM 2.03 35.654 0.127 7.53 4.38 14.08
12/25/2021 12:45:00 PM 2.06 35.708 0.126 7.54 4.31 14.07
12/25/2021 1:00:00 PM 2.09 35.762 0.126 7.54 4.47 14.04
12/25/2021 1:15:00 PM 2.13 35.834 0.126 7.54 4.25 14.02
12/25/2021 1:30:00 PM 2.18 35.924 0.125 7.55 4.47 14.05
12/25/2021 1:45:00 PM 2.23 36.014 0.125 7.56 5.07 14.02
12/25/2021 2:00:00 PM 2.28 36.104 0.125 7.57 4.5 14.03
12/25/2021 2:15:00 PM 2.32 36.176 0.127 7.58 4.96 14.02
12/25/2021 2:30:00 PM 2.35 36.23 0.128 7.58 5.43 14
12/25/2021 2:45:00 PM 2.37 36.266 0.128 7.58 4.79 13.96
12/25/2021 3:00:00 PM 2.4 36.32 0.128 7.57 6.82 13.92
12/25/2021 3:15:00 PM 2.42 36.356 0.128 7.56 5.87 13.91
12/25/2021 3:30:00 PM 2.43 36.374 0.129 7.56 5.63 13.88
12/25/2021 3:45:00 PM 2.44 36.392 0.128 7.54 6.49 13.82
12/25/2021 4:00:00 PM 2.44 36.392 0.127 7.52 6.51 13.77
12/25/2021 4:15:00 PM 2.45 36.41 0.127 7.49 7.03 13.71
12/25/2021 4:30:00 PM 2.45 36.41 0.126 7.47 7.62 13.66
12/25/2021 4:45:00 PM 2.46 36.428 0.127 7.45 8.71 13.62
12/25/2021 5:00:00 PM 2.46 36.428 0.127 7.43 6.75 13.58
12/25/2021 5:15:00 PM 2.46 36.428 0.125 7.41 6.84 13.55
12/25/2021 5:30:00 PM 2.46 36.428 0.126 7.4 7.7 13.53
12/25/2021 5:45:00 PM 2.47 36.446 0.125 7.39 7.39 13.51
12/25/2021 6:00:00 PM 2.48 36.464 0.125 7.38 6.51 13.5
12/25/2021 6:15:00 PM 2.49 36.482 0.125 7.37 7.32 13.49
12/25/2021 6:30:00 PM 2.49 36.482 0.123 7.36 6.81 13.48
12/25/2021 6:45:00 PM 2.5 36.5 0.124 7.36 7.83 13.47
12/25/2021 7:00:00 PM 2.51 36.518 0.124 7.35 7.14 13.46
12/25/2021 7:15:00 PM 2.52 36.536 0.123 7.35 7.43 13.45
12/25/2021 7:30:00 PM 2.52 36.536 0.122 7.34 7.78 13.46
12/25/2021 7:45:00 PM 2.53 36.554 0.123 7.34 7.43 13.45
12/25/2021 8:00:00 PM 2.54 36.572 0.124 7.33 9.95 13.45
12/25/2021 8:15:00 PM 2.54 36.572 0.123 7.33 7.73 13.44
12/25/2021 8:30:00 PM 2.55 36.59 0.125 7.33 7.35 13.44
12/25/2021 8:45:00 PM 2.55 36.59 0.125 7.33 7.96 13.44
12/25/2021 9:00:00 PM 2.56 36.608 0.126 7.32 6.56 13.44
12/25/2021 9:15:00 PM 2.56 36.608 0.126 7.32 6.59 13.44
12/25/2021 9:30:00 PM 2.56 36.608 0.126 7.32 7.39 13.44
12/25/2021 9:45:00 PM 2.57 36.626 0.126 7.32 7.63 13.44
12/25/2021 10:00:00 PM 2.57 36.626 0.125 7.32 8.19 13.44
12/25/2021 10:15:00 PM 2.58 36.644 0.124 7.32 7.57 13.44
12/25/2021 10:30:00 PM 2.6 36.68 0.125 7.32 6.88 13.43
12/25/2021 10:45:00 PM 2.6 36.68 0.125 7.32 6.8 13.43
12/25/2021 11:00:00 PM 2.62 36.716 0.125 7.32 7.73 13.43
12/25/2021 11:15:00 PM 2.63 36.734 0.125 7.32 7.47 13.43
12/25/2021 11:30:00 PM 2.64 36.752 0.125 7.32 7.11 13.43
12/25/2021 11:45:00 PM 2.66 36.788 0.125 7.32 7.53 13.42
12/26/2021 12:00:00 AM 2.67 36.806 0.125 7.32 7.53 13.42
12/26/2021 12:15:00 AM 2.69 36.842 0.124 7.32 7.05 13.42
12/26/2021 12:30:00 AM 2.72 36.896 0.124 7.32 6.92 13.42
12/26/2021 12:45:00 AM 2.74 36.932 0.123 7.32 8.18 13.41
12/26/2021 1:00:00 AM 2.74 36.932 0.123 7.32 7.28 13.41
12/26/2021 1:15:00 AM 2.75 36.95 0.123 7.31 7.23 13.41
12/26/2021 1:30:00 AM 2.75 36.95 0.122 7.31 6.77 13.41
12/26/2021 1:45:00 AM 2.75 36.95 0.123 7.31 7.15 13.41
12/26/2021 2:00:00 AM 2.75 36.95 0.121 7.31 6.72 13.41
12/26/2021 2:15:00 AM 2.74 36.932 0.121 7.31 6.25 13.42
12/26/2021 2:30:00 AM 2.74 36.932 0.121 7.3 6.95 13.42
12/26/2021 2:45:00 AM 2.73 36.914 0.121 7.3 8.11 13.43
12/26/2021 3:00:00 AM 2.72 36.896 0.121 7.3 6.57 13.43
12/26/2021 3:15:00 AM 2.72 36.896 0.122 7.3 6.71 13.43
12/26/2021 3:30:00 AM 2.72 36.896 0.122 7.29 6.58 13.43
12/26/2021 3:45:00 AM 2.72 36.896 0.121 7.29 6.74 13.43
12/26/2021 4:00:00 AM 2.72 36.896 0.123 7.29 7.71 13.44
12/26/2021 4:15:00 AM 2.72 36.896 0.122 7.29 8.18 13.44
12/26/2021 4:30:00 AM 2.72 36.896 0.123 7.29 6.99 13.44
12/26/2021 4:45:00 AM 2.72 36.896 0.123 7.29 7.76 13.44
12/26/2021 5:00:00 AM 2.71 36.878 0.122 7.29 7.33 13.45
12/26/2021 5:15:00 AM 2.7 36.86 0.123 7.29 7.36 13.45
12/26/2021 5:30:00 AM 2.69 36.842 0.122 7.29 6.96 13.46
12/26/2021 5:45:00 AM 2.69 36.842 0.123 7.29 7.07 13.47
12/26/2021 6:00:00 AM 2.68 36.824 0.122 7.29 6.92 13.47
12/26/2021 6:15:00 AM 2.67 36.806 0.121 7.28 7.91 13.47
12/26/2021 6:30:00 AM 2.67 36.806 0.121 7.28 6.66 13.48
12/26/2021 6:45:00 AM 2.67 36.806 0.121 7.28 6.39 13.48
12/26/2021 7:00:00 AM 2.66 36.788 0.122 7.28 6.53 13.49
12/26/2021 7:15:00 AM 2.66 36.788 0.122 7.28 7.4 13.49
12/26/2021 7:30:00 AM 2.66 36.788 0.122 7.28 6.23 13.49
12/26/2021 7:45:00 AM 2.65 36.77 0.122 7.28 7.01 13.5
12/26/2021 8:00:00 AM 2.65 36.77 0.123 7.28 6.22 13.53
12/26/2021 8:15:00 AM 2.65 36.77 0.123 7.3 8.29 13.56
12/26/2021 8:30:00 AM 2.65 36.77 0.123 7.31 7.05 13.61
12/26/2021 8:45:00 AM 2.67 36.806 0.124 7.32 6.28 13.66
12/26/2021 9:00:00 AM 2.68 36.824 0.124 7.34 5.66 13.69
12/26/2021 9:15:00 AM 2.7 36.86 0.124 7.35 6.04 13.74
12/26/2021 9:30:00 AM 2.72 36.896 0.124 7.37 6.49 13.77
12/26/2021 9:45:00 AM 2.75 36.95 0.124 7.38 5.53 13.82
12/26/2021 10:00:00 AM 2.79 37.022 0.124 7.41 5.11 13.86
12/26/2021 10:15:00 AM 2.83 37.094 0.124 7.43 6.08 13.9
12/26/2021 10:30:00 AM 2.86 37.148 0.124 7.44 6.34 13.93
12/26/2021 10:45:00 AM 2.89 37.202 0.122 7.46 6.11 13.95
12/26/2021 11:00:00 AM 2.93 37.274 0.123 7.48 6.44 13.98
12/26/2021 11:15:00 AM 2.97 37.346 0.123 7.51 6.2 14
12/26/2021 11:30:00 AM 3.04 37.472 0.122 7.53 6.46 14.02
12/26/2021 11:45:00 AM 3.1 37.58 0.122 7.55 5.34 14.03
12/26/2021 12:00:00 PM 3.13 37.634 0.122 7.57 6.26 14.03
12/26/2021 12:15:00 PM 3.16 37.688 0.121 7.58 5.24 14.03
12/26/2021 12:30:00 PM 3.18 37.724 0.12 7.59 5.51 14.02
12/26/2021 12:45:00 PM 3.23 37.814 0.12 7.6 4.96 14.02
12/26/2021 1:00:00 PM 3.25 37.85 0.12 7.62 5.05 14.02
12/26/2021 1:15:00 PM 3.27 37.886 0.119 7.62 6.91 14.01
12/26/2021 1:30:00 PM 3.29 37.922 0.119 7.63 5.06 13.99
12/26/2021 1:45:00 PM 3.29 37.922 0.119 7.63 5.76 13.96
12/26/2021 2:00:00 PM 3.31 37.958 0.119 7.63 4.69 13.97
12/26/2021 2:15:00 PM 3.31 37.958 0.118 7.63 5.78 13.95
12/26/2021 2:30:00 PM 3.32 37.976 0.118 7.62 5.23 13.92
12/26/2021 2:45:00 PM 3.32 37.976 0.118 7.61 4.44 13.89
12/26/2021 3:00:00 PM 3.33 37.994 0.117 7.6 5.09 13.87
12/26/2021 3:15:00 PM 3.32 37.976 0.117 7.59 5.94 13.85
12/26/2021 3:30:00 PM 3.31 37.958 0.118 7.58 6.16 13.81
12/26/2021 3:45:00 PM 3.29 37.922 0.117 7.56 4.81 13.8
12/26/2021 4:00:00 PM 3.28 37.904 0.117 7.54 4.9 13.76
12/26/2021 4:15:00 PM 3.28 37.904 0.117 7.52 4.31 13.7
12/26/2021 4:30:00 PM 3.27 37.886 0.117 7.5 5.3 13.65
12/26/2021 4:45:00 PM 3.27 37.886 0.116 7.47 4.75 13.59
12/26/2021 5:00:00 PM 3.25 37.85 0.117 7.44 5.99 13.55
12/26/2021 5:15:00 PM 3.23 37.814 0.118 7.42 4.87 13.52
12/26/2021 5:30:00 PM 3.2 37.76 0.117 7.41 4.76 13.49
12/26/2021 5:45:00 PM 3.18 37.724 0.117 7.39 4.19 13.48
12/26/2021 6:00:00 PM 3.17 37.706 0.117 7.38 4.74 13.47
12/26/2021 6:15:00 PM 3.16 37.688 0.117 7.37 5.26 13.46
12/26/2021 6:30:00 PM 3.15 37.67 0.117 7.36 4.92 13.45
12/26/2021 6:45:00 PM 3.13 37.634 0.117 7.35 5.29 13.44
12/26/2021 7:00:00 PM 3.11 37.598 0.117 7.35 4.34 13.44
12/26/2021 7:15:00 PM 3.09 37.562 0.117 7.34 4.88 13.45
12/26/2021 7:30:00 PM 3.07 37.526 0.116 7.34 4.84 13.44
12/26/2021 7:45:00 PM 3.04 37.472 0.116 7.33 4.53 13.44
12/26/2021 8:00:00 PM 3.01 37.418 0.117 7.33 4.57 13.45
12/26/2021 8:15:00 PM 2.99 37.382 0.118 7.32 6.45 13.45
12/26/2021 8:30:00 PM 2.97 37.346 0.117 7.32 5.43 13.46
12/26/2021 8:45:00 PM 2.96 37.328 0.117 7.31 5.05 13.46
12/26/2021 9:00:00 PM 2.95 37.31 0.118 7.31 5.34 13.46
12/26/2021 9:15:00 PM 2.94 37.292 0.116 7.31 5.78 13.46
12/26/2021 9:30:00 PM 2.93 37.274 0.117 7.31 5.47 13.46
12/26/2021 9:45:00 PM 2.91 37.238 0.117 7.31 4.21 13.47
12/26/2021 10:00:00 PM 2.88 37.184 0.118 7.3 4.69 13.47
12/26/2021 10:15:00 PM 2.86 37.148 0.117 7.3 5.36 13.49
12/26/2021 10:30:00 PM 2.84 37.112 0.118 7.3 4.94 13.49
12/26/2021 10:45:00 PM 2.82 37.076 0.117 7.3 4.91 13.5
12/26/2021 11:00:00 PM 2.8 37.04 0.118 7.29 4.7 13.5
12/26/2021 11:15:00 PM 2.78 37.004 0.118 7.29 4.51 13.51
12/26/2021 11:30:00 PM 2.75 36.95 0.118 7.29 4.25 13.51
12/26/2021 11:45:00 PM 2.72 36.896 0.118 7.29 4.78 13.52
12/27/2021 12:00:00 AM 2.68 36.824 0.119 7.29 4.73 13.54
12/27/2021 12:15:00 AM 2.64 36.752 0.119 7.28 4.91 13.54
12/27/2021 12:30:00 AM 2.59 36.662 0.119 7.28 5.21 13.56
12/27/2021 12:45:00 AM 2.54 36.572 0.118 7.28 6.01 13.57
12/27/2021 1:00:00 AM 2.51 36.518 0.119 7.28 5.76 13.58
12/27/2021 1:15:00 AM 2.48 36.464 0.12 7.28 4.47 13.6
12/27/2021 1:30:00 AM 2.46 36.428 0.12 7.28 5.08 13.61
12/27/2021 1:45:00 AM 2.44 36.392 0.119 7.28 4.78 13.61
12/27/2021 2:00:00 AM 2.4 36.32 0.119 7.28 5.42 13.63
12/27/2021 2:15:00 AM 2.38 36.284 0.119 7.27 4.48 13.63
12/27/2021 2:30:00 AM 2.35 36.23 0.119 7.27 5.16 13.65
12/27/2021 2:45:00 AM 2.31 36.158 0.119 7.27 4.56 13.65
12/27/2021 3:00:00 AM 2.27 36.086 0.119 7.27 4.31 13.67
12/27/2021 3:15:00 AM 2.23 36.014 0.12 7.27 4.94 13.68
12/27/2021 3:30:00 AM 2.18 35.924 0.12 7.27 4.56 13.69
12/27/2021 3:45:00 AM 2.14 35.852 0.12 7.27 4.9 13.7
12/27/2021 4:00:00 AM 2.1 35.78 0.12 7.26 4.9 13.72
12/27/2021 4:15:00 AM 2.07 35.726 0.12 7.25 5.01 13.73
12/27/2021 4:30:00 AM 2.05 35.69 0.119 7.25 4.74 13.74
12/27/2021 4:45:00 AM 2.03 35.654 0.12 7.25 4.5 13.75
12/27/2021 5:00:00 AM 2.01 35.618 0.12 7.25 4.65 13.76
12/27/2021 5:15:00 AM 1.98 35.564 0.12 7.25 4.57 13.77
12/27/2021 5:30:00 AM 1.96 35.528 0.12 7.25 6.8 13.77
12/27/2021 5:45:00 AM 1.94 35.492 0.12 7.25 5.29 13.79
12/27/2021 6:00:00 AM 1.92 35.456 0.12 7.25 4.64 13.79
12/27/2021 6:15:00 AM 1.91 35.438 0.121 7.25 4.87 13.79
12/27/2021 6:30:00 AM 1.89 35.402 0.121 7.25 5.05 13.81
12/27/2021 6:45:00 AM 1.88 35.384 0.12 7.25 4.35 13.8
12/27/2021 7:00:00 AM 1.87 35.366 0.12 7.25 4.3 13.81
12/27/2021 7:15:00 AM 1.86 35.348 0.12 7.25 4.14 13.82
12/27/2021 7:30:00 AM 1.85 35.33 0.12 7.25 5.13 13.82
12/27/2021 7:45:00 AM 1.84 35.312 0.121 7.25 5.14 13.83
12/27/2021 8:00:00 AM 1.83 35.294 0.121 7.25 5.11 13.84
12/27/2021 8:15:00 AM 1.83 35.294 0.121 7.26 5.71 13.86
12/27/2021 8:30:00 AM 1.82 35.276 0.121 7.26 5.55 13.88
12/27/2021 8:45:00 AM 1.81 35.258 0.12 7.27 4.35 13.91
12/27/2021 9:00:00 AM 1.81 35.258 0.12 7.28 5.17 13.93
12/27/2021 9:15:00 AM 1.8 35.24 0.12 7.28 5.39 13.95
12/27/2021 9:30:00 AM 1.8 35.24 0.12 7.29 5.53 13.95
12/27/2021 9:45:00 AM 1.8 35.24 0.12 7.29 4.7 13.98
12/27/2021 10:00:00 AM 1.8 35.24 0.12 7.3 5.3 14.01
12/27/2021 10:15:00 AM 1.82 35.276 0.12 7.32 4.59 14.08
12/27/2021 10:30:00 AM 1.84 35.312 0.12 7.34 4.43 14.15
12/27/2021 10:45:00 AM 1.86 35.348 0.12 7.37 4.52 14.19
12/27/2021 11:00:00 AM 1.88 35.384 0.12 7.39 4.74 14.24
12/27/2021 11:15:00 AM 1.89 35.402 0.12 7.42 5.09 14.27
12/27/2021 11:30:00 AM 1.92 35.456 0.12 7.44 4.81 14.33
12/27/2021 11:45:00 AM 1.98 35.564 0.119 7.47 4.51 14.37
12/27/2021 12:00:00 PM 2.01 35.618 0.12 7.49 4.14 14.37
12/27/2021 12:15:00 PM 2.01 35.618 0.12 7.5 4.37 14.35
12/27/2021 12:30:00 PM 2.02 35.636 0.119 7.5 4.21 14.33
12/27/2021 12:45:00 PM 2.03 35.654 0.119 7.51 5.18 14.33
12/27/2021 1:00:00 PM 2.02 35.636 0.12 7.5 5.38 14.29
12/27/2021 1:15:00 PM 2.02 35.636 0.119 7.5 4.53 14.27
12/27/2021 1:30:00 PM 2.02 35.636 0.12 7.49 4.18 14.23
12/27/2021 1:45:00 PM 2.03 35.654 0.119 7.49 4.79 14.23
12/27/2021 2:00:00 PM 2.04 35.672 0.119 7.49 4.62 14.23
12/27/2021 2:15:00 PM 2.05 35.69 0.12 7.49 4.95 14.22
12/27/2021 2:30:00 PM 2.06 35.708 0.119 7.49 4.09 14.2
12/27/2021 2:45:00 PM 2.06 35.708 0.12 7.48 4.74 14.17
12/27/2021 3:00:00 PM 2.06 35.708 0.12 7.47 3.85 14.13
12/27/2021 3:15:00 PM 2.06 35.708 0.12 7.46 4.59 14.09
12/27/2021 3:30:00 PM 2.06 35.708 0.12 7.45 4.53 14.07
12/27/2021 3:45:00 PM 2.06 35.708 0.12 7.44 4.38 14.03
12/27/2021 4:00:00 PM 2.06 35.708 0.119 7.43 4.41 13.99
12/27/2021 4:15:00 PM 2.05 35.69 0.119 7.41 3.63 13.96
12/27/2021 4:30:00 PM 2.03 35.654 0.12 7.4 3.95 13.93
12/27/2021 4:45:00 PM 2.02 35.636 0.12 7.39 3.58 13.88
12/27/2021 5:00:00 PM 2.02 35.636 0.12 7.37 3.98 13.85
12/27/2021 5:15:00 PM 2.02 35.636 0.12 7.36 3.83 13.83
12/27/2021 5:30:00 PM 2.02 35.636 0.12 7.35 4.13 13.81
12/27/2021 5:45:00 PM 2.02 35.636 0.119 7.34 3.93 13.79
12/27/2021 6:00:00 PM 2.02 35.636 0.121 7.34 3.75 13.77
12/27/2021 6:15:00 PM 2.02 35.636 0.12 7.33 4.36 13.76
12/27/2021 6:30:00 PM 2.02 35.636 0.12 7.32 3.9 13.75
12/27/2021 6:45:00 PM 2.02 35.636 0.12 7.32 3.96 13.74
12/27/2021 7:00:00 PM 2.02 35.636 0.119 7.32 4.08 13.73
12/27/2021 7:15:00 PM 2.02 35.636 0.119 7.31 3.71 13.73
12/27/2021 7:30:00 PM 2.02 35.636 0.119 7.31 3.67 13.72
12/27/2021 7:45:00 PM 2.01 35.618 0.119 7.31 4 13.72
12/27/2021 8:00:00 PM 2.02 35.636 0.119 7.3 4.45 13.71
12/27/2021 8:15:00 PM 2.02 35.636 0.119 7.3 3.71 13.71
12/27/2021 8:30:00 PM 2.02 35.636 0.119 7.3 4.05 13.7
12/27/2021 8:45:00 PM 2.03 35.654 0.119 7.3 4.12 13.69
12/27/2021 9:00:00 PM 2.03 35.654 0.119 7.3 3.9 13.69
12/27/2021 9:15:00 PM 2.04 35.672 0.119 7.3 3.88 13.68
12/27/2021 9:30:00 PM 2.04 35.672 0.118 7.29 3.74 13.68
12/27/2021 9:45:00 PM 2.04 35.672 0.119 7.29 4.36 13.67
12/27/2021 10:00:00 PM 2.05 35.69 0.118 7.29 3.87 13.67
12/27/2021 10:15:00 PM 2.05 35.69 0.119 7.29 3.79 13.66
12/27/2021 10:30:00 PM 2.06 35.708 0.119 7.29 3.67 13.67
12/27/2021 10:45:00 PM 2.06 35.708 0.119 7.29 4.04 13.66
12/27/2021 11:00:00 PM 2.06 35.708 0.119 7.29 3.72 13.65
12/27/2021 11:15:00 PM 2.07 35.726 0.119 7.29 3.61 13.65
12/27/2021 11:30:00 PM 2.07 35.726 0.119 7.29 3.41 13.64
12/27/2021 11:45:00 PM 2.08 35.744 0.119 7.29 3.9 13.64
12/28/2021 12:00:00 AM 2.08 35.744 0.119 7.29 3.83 13.63
12/28/2021 12:15:00 AM 2.09 35.762 0.119 7.29 4.07 13.63
12/28/2021 12:30:00 AM 2.1 35.78 0.12 7.29 3.58 13.62
12/28/2021 12:45:00 AM 2.11 35.798 0.121 7.29 3.51 13.62
12/28/2021 1:00:00 AM 2.12 35.816 0.12 7.29 3.75 13.62
12/28/2021 1:15:00 AM 2.13 35.834 0.12 7.29 3.32 13.61
12/28/2021 1:30:00 AM 2.13 35.834 0.12 7.29 3.88 13.61
12/28/2021 1:45:00 AM 2.14 35.852 0.12 7.29 4.08 13.61
12/28/2021 2:00:00 AM 2.14 35.852 0.12 7.29 3.88 13.61
12/28/2021 2:15:00 AM 2.15 35.87 0.12 7.29 3.21 13.6
12/28/2021 2:30:00 AM 2.15 35.87 0.12 7.29 4.13 13.6
12/28/2021 2:45:00 AM 2.15 35.87 0.121 7.28 3.51 13.6
12/28/2021 3:00:00 AM 2.16 35.888 0.12 7.28 3.29 13.61
12/28/2021 3:15:00 AM 2.16 35.888 0.12 7.28 4.12 13.6
12/28/2021 3:30:00 AM 2.16 35.888 0.121 7.28 3.51 13.6
12/28/2021 3:45:00 AM 2.17 35.906 0.12 7.28 3.66 13.6
12/28/2021 4:00:00 AM 2.17 35.906 0.12 7.28 3.26 13.6
12/28/2021 4:15:00 AM 2.18 35.924 0.121 7.28 3.57 13.6
12/28/2021 4:30:00 AM 2.18 35.924 0.121 7.28 3.41 13.6
12/28/2021 4:45:00 AM 2.17 35.906 0.12 7.28 3.3 13.6
12/28/2021 5:00:00 AM 2.14 35.852 0.12 7.28 3.71 13.61
12/28/2021 5:15:00 AM 2.12 35.816 0.12 7.28 3.53 13.62
12/28/2021 5:30:00 AM 2.09 35.762 0.12 7.28 3.07 13.62
12/28/2021 5:45:00 AM 2.05 35.69 0.12 7.28 3.46 13.63
12/28/2021 6:00:00 AM 2.02 35.636 0.12 7.27 3.68 13.65
12/28/2021 6:15:00 AM 1.99 35.582 0.119 7.28 3.39 13.66
12/28/2021 6:30:00 AM 1.95 35.51 0.119 7.28 3.33 13.67
12/28/2021 6:45:00 AM 1.92 35.456 0.12 7.27 4.24 13.68
12/28/2021 7:00:00 AM 1.89 35.402 0.119 7.27 2.97 13.7
12/28/2021 7:15:00 AM 1.86 35.348 0.12 7.27 3.31 13.71
12/28/2021 7:30:00 AM 1.84 35.312 0.12 7.27 3.25 13.72
12/28/2021 7:45:00 AM 1.83 35.294 0.12 7.27 3.33 13.75
12/28/2021 8:00:00 AM 1.82 35.276 0.12 7.28 3.17 13.78
12/28/2021 8:15:00 AM 1.81 35.258 0.119 7.29 3.6 13.84
12/28/2021 8:30:00 AM 1.81 35.258 0.12 7.31 3.64 13.91
12/28/2021 8:45:00 AM 1.8 35.24 0.119 7.32 3.5 13.96
12/28/2021 9:00:00 AM 1.78 35.204 0.119 7.34 3.43 14.01
12/28/2021 9:15:00 AM 1.78 35.204 0.119 7.35 3.59 14.06
12/28/2021 9:30:00 AM 1.8 35.24 0.118 7.38 3.49 14.11
12/28/2021 9:45:00 AM 1.82 35.276 0.119 7.4 3.28 14.16
12/28/2021 10:00:00 AM 1.86 35.348 0.119 7.42 3.72 14.2
12/28/2021 10:15:00 AM 1.9 35.42 0.119 7.44 3.27 14.23
12/28/2021 10:30:00 AM 1.96 35.528 0.118 7.46 3.39 14.24
12/28/2021 10:45:00 AM 2.02 35.636 0.119 7.48 3.44 14.27
12/28/2021 11:00:00 AM 2.1 35.78 0.118 7.5 3.56 14.28
12/28/2021 11:15:00 AM 2.16 35.888 0.118 7.52 3.26 14.27
12/28/2021 11:30:00 AM 2.21 35.978 0.118 7.53 3.48 14.29
12/28/2021 11:45:00 AM 2.29 36.122 0.118 7.56 3.29 14.32
12/28/2021 12:00:00 PM 2.37 36.266 0.119 7.58 3.34 14.32
12/28/2021 12:15:00 PM 2.43 36.374 0.117 7.61 3.35 14.34
12/28/2021 12:30:00 PM 2.51 36.518 0.119 7.64 3.45 14.33
12/28/2021 12:45:00 PM 2.59 36.662 0.118 7.66 3.4 14.32
12/28/2021 1:00:00 PM 2.65 36.77 0.119 7.67 3.12 14.28
12/28/2021 1:15:00 PM 2.68 36.824 0.117 7.66 3.21 14.22
12/28/2021 1:30:00 PM 2.69 36.842 0.117 7.65 2.93 14.16
12/28/2021 1:45:00 PM 2.7 36.86 0.117 7.64 3.38 14.11
12/28/2021 2:00:00 PM 2.69 36.842 0.119 7.61 3.26 14.06
12/28/2021 2:15:00 PM 2.69 36.842 0.118 7.59 3.43 14.02
12/28/2021 2:30:00 PM 2.69 36.842 0.117 7.57 3.54 13.97
12/28/2021 2:45:00 PM 2.71 36.878 0.117 7.57 3.39 13.98
12/28/2021 3:00:00 PM 2.74 36.932 0.118 7.57 3.03 13.97
12/28/2021 3:15:00 PM 2.76 36.968 0.118 7.57 3.11 13.94
12/28/2021 3:30:00 PM 2.77 36.986 0.119 7.56 3.3 13.91
12/28/2021 3:45:00 PM 2.78 37.004 0.118 7.54 3.2 13.84
12/28/2021 4:00:00 PM 2.78 37.004 0.118 7.51 3.6 13.79
12/28/2021 4:15:00 PM 2.79 37.022 0.119 7.49 3.16 13.74
12/28/2021 4:30:00 PM 2.79 37.022 0.119 7.46 2.88 13.68
12/28/2021 4:45:00 PM 2.8 37.04 0.119 7.44 3.33 13.64
12/28/2021 5:00:00 PM 2.8 37.04 0.118 7.42 3.5 13.6
12/28/2021 5:15:00 PM 2.81 37.058 0.118 7.41 3.36 13.57
12/28/2021 5:30:00 PM 2.82 37.076 0.119 7.39 3.04 13.53
12/28/2021 5:45:00 PM 2.83 37.094 0.118 7.38 3.3 13.5
12/28/2021 6:00:00 PM 2.84 37.112 0.118 7.37 3.1 13.49
12/28/2021 6:15:00 PM 2.85 37.13 0.119 7.36 2.97 13.48
12/28/2021 6:30:00 PM 2.85 37.13 0.119 7.35 3.13 13.47
12/28/2021 6:45:00 PM 2.86 37.148 0.119 7.35 3.42 13.45
12/28/2021 7:00:00 PM 2.87 37.166 0.118 7.34 3.47 13.43
12/28/2021 7:15:00 PM 2.88 37.184 0.118 7.33 3.1 13.42
12/28/2021 7:30:00 PM 2.88 37.184 0.118 7.33 3.55 13.42
12/28/2021 7:45:00 PM 2.89 37.202 0.117 7.33 2.97 13.4
12/28/2021 8:00:00 PM 2.88 37.184 0.117 7.33 3.29 13.4
12/28/2021 8:15:00 PM 2.87 37.166 0.117 7.33 3.05 13.4
12/28/2021 8:30:00 PM 2.86 37.148 0.117 7.32 3.58 13.39
12/28/2021 8:45:00 PM 2.84 37.112 0.117 7.32 3.04 13.41
12/28/2021 9:00:00 PM 2.83 37.094 0.117 7.32 3.47 13.4
12/28/2021 9:15:00 PM 2.76 36.968 0.118 7.31 3.05 13.39
12/28/2021 9:30:00 PM 2.72 36.896 0.118 7.31 3.98 13.41
12/28/2021 9:45:00 PM 2.7 36.86 0.117 7.31 3.43 13.42
12/28/2021 10:00:00 PM 2.68 36.824 0.117 7.31 3.21 13.43
12/28/2021 10:15:00 PM 2.66 36.788 0.118 7.31 3.38 13.43
12/28/2021 10:30:00 PM 2.66 36.788 0.117 7.3 3.11 13.43
12/28/2021 10:45:00 PM 2.66 36.788 0.118 7.3 3.44 13.42
12/28/2021 11:00:00 PM 2.66 36.788 0.117 7.3 2.94 13.42
12/28/2021 11:15:00 PM 2.66 36.788 0.118 7.3 3.47 13.42
12/28/2021 11:30:00 PM 2.65 36.77 0.117 7.3 3.33 13.43
12/28/2021 11:45:00 PM 2.65 36.77 0.118 7.3 3.19 13.43
12/29/2021 12:00:00 AM 2.66 36.788 0.118 7.3 3.16 13.42
12/29/2021 12:15:00 AM 2.66 36.788 0.118 7.3 3.36 13.42
12/29/2021 12:30:00 AM 2.66 36.788 0.12 7.3 3.08 13.42
12/29/2021 12:45:00 AM 2.67 36.806 0.12 7.29 3.58 13.41
12/29/2021 1:00:00 AM 2.67 36.806 0.12 7.29 3.42 13.41
12/29/2021 1:15:00 AM 2.67 36.806 0.121 7.3 3.35 13.41
12/29/2021 1:30:00 AM 2.68 36.824 0.121 7.29 3.37 13.4
12/29/2021 1:45:00 AM 2.68 36.824 0.122 7.29 3.42 13.4
12/29/2021 2:00:00 AM 2.68 36.824 0.122 7.3 3.53 13.39
12/29/2021 2:15:00 AM 2.68 36.824 0.124 7.29 3.3 13.39
12/29/2021 2:30:00 AM 2.69 36.842 0.126 7.29 3.31 13.39
12/29/2021 2:45:00 AM 2.68 36.824 0.126 7.29 3.32 13.39
12/29/2021 3:00:00 AM 2.68 36.824 0.124 7.3 2.91 13.39
12/29/2021 3:15:00 AM 2.68 36.824 0.124 7.3 3.12 13.39
12/29/2021 3:30:00 AM 2.68 36.824 0.123 7.29 3.35 13.4
12/29/2021 3:45:00 AM 2.68 36.824 0.125 7.29 3.29 13.39
12/29/2021 4:00:00 AM 2.68 36.824 0.125 7.29 10.57 13.4
12/29/2021 4:15:00 AM 2.68 36.824 0.125 7.29 3.08 13.4
12/29/2021 4:30:00 AM 2.67 36.806 0.124 7.29 3.24 13.4
12/29/2021 4:45:00 AM 2.67 36.806 0.125 7.29 3.97 13.4
12/29/2021 5:00:00 AM 2.67 36.806 0.124 7.29 3.29 13.4
12/29/2021 5:15:00 AM 2.67 36.806 0.124 7.29 3.36 13.41
12/29/2021 5:30:00 AM 2.66 36.788 0.125 7.29 3.16 13.41
12/29/2021 5:45:00 AM 2.66 36.788 0.124 7.29 3.08 13.41
12/29/2021 6:00:00 AM 2.66 36.788 0.123 7.29 3.44 13.42
12/29/2021 6:15:00 AM 2.65 36.77 0.123 7.29 3.52 13.42
12/29/2021 6:30:00 AM 2.65 36.77 0.123 7.29 3.55 13.42
12/29/2021 6:45:00 AM 2.65 36.77 0.123 7.29 3.6 13.42
12/29/2021 7:00:00 AM 2.64 36.752 0.123 7.29 3.34 13.43
12/29/2021 7:15:00 AM 2.64 36.752 0.123 7.29 3.22 13.43
12/29/2021 7:30:00 AM 2.64 36.752 0.122 7.29 3.35 13.44
12/29/2021 7:45:00 AM 2.64 36.752 0.123 7.29 3.81 13.44
12/29/2021 8:00:00 AM 2.64 36.752 0.122 7.29 3.14 13.45
12/29/2021 8:15:00 AM 2.64 36.752 0.124 7.29 3.15 13.47
12/29/2021 8:30:00 AM 2.65 36.77 0.124 7.3 3.07 13.49
12/29/2021 8:45:00 AM 2.66 36.788 0.124 7.31 3.26 13.53
12/29/2021 9:00:00 AM 2.67 36.806 0.125 7.32 3.03 13.56
12/29/2021 9:15:00 AM 2.69 36.842 0.124 7.34 3.39 13.6
12/29/2021 9:30:00 AM 2.71 36.878 0.126 7.35 3.24 13.65
12/29/2021 9:45:00 AM 2.74 36.932 0.126 7.37 3.47 13.7
12/29/2021 10:00:00 AM 2.78 37.004 0.126 7.39 3.3 13.75
12/29/2021 10:15:00 AM 2.82 37.076 0.126 7.41 8.38 13.8
12/29/2021 10:30:00 AM 2.86 37.148 0.126 7.44 3.69 13.85
12/29/2021 10:45:00 AM 2.92 37.256 0.126 7.46 3.16 13.9
12/29/2021 11:00:00 AM 2.97 37.346 0.126 7.49 3.31 13.93
12/29/2021 11:15:00 AM 3.04 37.472 0.125 7.52 3.35 13.96
12/29/2021 11:30:00 AM 3.12 37.616 0.125 7.55 3.71 14
12/29/2021 11:45:00 AM 3.2 37.76 0.123 7.59 3.52 14.01
12/29/2021 12:00:00 PM 3.27 37.886 0.123 7.61 3.43 14.03
12/29/2021 12:15:00 PM 3.33 37.994 0.124 7.64 3.48 14.03
12/29/2021 12:30:00 PM 3.38 38.084 0.123 7.66 3.25 14.02
12/29/2021 12:45:00 PM 3.43 38.174 0.122 7.67 3.3 14
12/29/2021 1:00:00 PM 3.46 38.228 0.122 7.68 3.74 13.98
12/29/2021 1:15:00 PM 3.49 38.282 0.122 7.68 3.56 13.95
12/29/2021 1:30:00 PM 3.51 38.318 0.122 7.68 3.61 13.92
12/29/2021 1:45:00 PM 3.55 38.39 0.121 7.68 3.51 13.89
12/29/2021 2:00:00 PM 3.59 38.462 0.122 7.69 3.59 13.88
12/29/2021 2:15:00 PM 3.64 38.552 0.121 7.69 3.71 13.87
12/29/2021 2:30:00 PM 3.7 38.66 0.121 7.7 3.48 13.85
12/29/2021 2:45:00 PM 3.74 38.732 0.121 7.7 3.32 13.83
12/29/2021 3:00:00 PM 3.77 38.786 0.12 7.7 3.31 13.8
12/29/2021 3:15:00 PM 3.8 38.84 0.121 7.69 3.46 13.76
12/29/2021 3:30:00 PM 3.82 38.876 0.121 7.68 3.21 13.74
12/29/2021 3:45:00 PM 3.83 38.894 0.122 7.66 3.37 13.67
12/29/2021 4:00:00 PM 3.84 38.912 0.121 7.63 3.86 13.6
12/29/2021 4:15:00 PM 3.84 38.912 0.121 7.6 3.39 13.52
12/29/2021 4:30:00 PM 3.84 38.912 0.121 7.56 4.07 13.45
12/29/2021 4:45:00 PM 3.84 38.912 0.121 7.52 3.1 13.38
12/29/2021 5:00:00 PM 3.84 38.912 0.121 7.49 3.2 13.31
12/29/2021 5:15:00 PM 3.84 38.912 0.122 7.46 3.3 13.27
12/29/2021 5:30:00 PM 3.84 38.912 0.121 7.44 3.53 13.23
12/29/2021 5:45:00 PM 3.84 38.912 0.121 7.42 3.53 13.2
12/29/2021 6:00:00 PM 3.84 38.912 0.121 7.4 3.22 13.18
12/29/2021 6:15:00 PM 3.84 38.912 0.12 7.39 3.16 13.15
12/29/2021 6:30:00 PM 3.85 38.93 0.12 7.37 3.14 13.13
12/29/2021 6:45:00 PM 3.86 38.948 0.121 7.37 3.3 13.12
12/29/2021 7:00:00 PM 3.86 38.948 0.12 7.36 4.39 13.11
12/29/2021 7:15:00 PM 3.87 38.966 0.12 7.35 3.04 13.09
12/29/2021 7:30:00 PM 3.88 38.984 0.12 7.34 2.99 13.08
12/29/2021 7:45:00 PM 3.89 39.002 0.12 7.33 3.35 13.07
12/29/2021 8:00:00 PM 3.9 39.02 0.12 7.33 3.26 13.07
12/29/2021 8:15:00 PM 3.91 39.038 0.12 7.32 3.3 13.07
12/29/2021 8:30:00 PM 3.92 39.056 0.121 7.32 3.17 13.06
12/29/2021 8:45:00 PM 3.93 39.074 0.119 7.31 3.05 13.06
12/29/2021 9:00:00 PM 3.93 39.074 0.12 7.31 3.44 13.05
12/29/2021 9:15:00 PM 3.94 39.092 0.12 7.31 2.97 13.03
12/29/2021 9:30:00 PM 3.95 39.11 0.119 7.31 3.11 13.03
12/29/2021 9:45:00 PM 3.95 39.11 0.12 7.3 3.13 13.02
12/29/2021 10:00:00 PM 3.96 39.128 0.119 7.3 3.18 13.02
12/29/2021 10:15:00 PM 3.96 39.128 0.12 7.3 3.03 13.02
12/29/2021 10:30:00 PM 3.97 39.146 0.12 7.3 2.98 13.02
12/29/2021 10:45:00 PM 3.98 39.164 0.119 7.29 3.44 13.01
12/29/2021 11:00:00 PM 3.98 39.164 0.12 7.29 3 13
12/29/2021 11:15:00 PM 3.99 39.182 0.12 7.29 2.97 13
12/29/2021 11:30:00 PM 3.99 39.182 0.119 7.29 3.41 13
12/29/2021 11:45:00 PM 3.99 39.182 0.12 7.29 3.52 13
12/30/2021 12:00:00 AM 4 39.2 0.12 7.29 3.26 12.99
12/30/2021 12:15:00 AM 4 39.2 0.119 7.28 4.4 12.99
12/30/2021 12:30:00 AM 4 39.2 0.12 7.28 3.26 12.98
12/30/2021 12:45:00 AM 3.99 39.182 0.12 7.28 3.01 12.99
12/30/2021 1:00:00 AM 3.99 39.182 0.12 7.28 3.3 12.98
12/30/2021 1:15:00 AM 3.99 39.182 0.12 7.28 3.28 12.98
12/30/2021 1:30:00 AM 3.99 39.182 0.12 7.28 3.4 12.98
12/30/2021 1:45:00 AM 3.99 39.182 0.122 7.28 3.13 12.98
12/30/2021 2:00:00 AM 3.98 39.164 0.12 7.28 2.86 12.98
12/30/2021 2:15:00 AM 3.98 39.164 0.121 7.27 3.55 12.97
12/30/2021 2:30:00 AM 3.98 39.164 0.122 7.27 3.5 12.98
12/30/2021 2:45:00 AM 3.97 39.146 0.122 7.27 3.17 12.98
12/30/2021 3:00:00 AM 3.97 39.146 0.122 7.28 3.46 12.98
12/30/2021 3:15:00 AM 3.97 39.146 0.123 7.27 4.83 12.98
12/30/2021 3:30:00 AM 3.96 39.128 0.123 7.27 3.3 12.98
12/30/2021 3:45:00 AM 3.96 39.128 0.123 7.27 3.13 12.98
12/30/2021 4:00:00 AM 3.95 39.11 0.125 7.27 3.25 12.98
12/30/2021 4:15:00 AM 3.95 39.11 0.124 7.27 3.19 12.98
12/30/2021 4:30:00 AM 3.94 39.092 0.125 7.27 3.64 12.98
12/30/2021 4:45:00 AM 3.94 39.092 0.126 7.26 2.83 12.99
12/30/2021 5:00:00 AM 3.93 39.074 0.125 7.27 3.57 12.99
12/30/2021 5:15:00 AM 3.93 39.074 0.126 7.26 2.77 12.99
12/30/2021 5:30:00 AM 3.93 39.074 0.126 7.26 3.24 12.99
12/30/2021 5:45:00 AM 3.92 39.056 0.126 7.26 3.23 13
12/30/2021 6:00:00 AM 3.92 39.056 0.127 7.26 3.74 12.99
12/30/2021 6:15:00 AM 3.92 39.056 0.126 7.26 3.68 12.99
12/30/2021 6:30:00 AM 3.91 39.038 0.126 7.26 3.24 13
12/30/2021 6:45:00 AM 3.91 39.038 0.126 7.26 3.17 13
12/30/2021 7:00:00 AM 3.91 39.038 0.127 7.26 3.11 13
12/30/2021 7:15:00 AM 3.9 39.02 0.126 7.26 3.11 13.01
12/30/2021 7:30:00 AM 3.9 39.02 0.126 7.26 3.39 13.01
12/30/2021 7:45:00 AM 3.9 39.02 0.125 7.26 3.21 13.01
12/30/2021 8:00:00 AM 3.9 39.02 0.125 7.26 3.27 13.02
12/30/2021 8:15:00 AM 3.91 39.038 0.127 7.26 3.3 13.03
12/30/2021 8:30:00 AM 3.91 39.038 0.125 7.27 3.4 13.05
12/30/2021 8:45:00 AM 3.91 39.038 0.125 7.27 3.21 13.07
12/30/2021 9:00:00 AM 3.92 39.056 0.125 7.28 3.37 13.11
12/30/2021 9:15:00 AM 3.94 39.092 0.124 7.3 3.42 13.16
12/30/2021 9:30:00 AM 3.95 39.11 0.124 7.31 3.75 13.19
12/30/2021 9:45:00 AM 3.97 39.146 0.125 7.32 3.24 13.21
12/30/2021 10:00:00 AM 3.98 39.164 0.123 7.33 3.36 13.25
12/30/2021 10:15:00 AM 4.01 39.218 0.123 7.35 3.06 13.28
12/30/2021 10:30:00 AM 4.04 39.272 0.123 7.37 2.89 13.34
12/30/2021 10:45:00 AM 4.09 39.362 0.123 7.4 4.13 13.41
12/30/2021 11:00:00 AM 4.13 39.434 0.123 7.42 3.51 13.45
12/30/2021 11:15:00 AM 4.18 39.524 0.124 7.45 3.09 13.48
12/30/2021 11:30:00 AM 4.22 39.596 0.123 7.47 3.17 13.5
12/30/2021 11:45:00 AM 4.26 39.668 0.122 7.49 3.62 13.52
12/30/2021 12:00:00 PM 4.3 39.74 0.123 7.51 3.07 13.53
12/30/2021 12:15:00 PM 4.33 39.794 0.122 7.52 3.13 13.51
12/30/2021 12:30:00 PM 4.34 39.812 0.122 7.52 3.23 13.47
12/30/2021 12:45:00 PM 4.35 39.83 0.122 7.52 3.14 13.44
12/30/2021 1:00:00 PM 4.37 39.866 0.122 7.52 3.14 13.44
12/30/2021 1:15:00 PM 4.39 39.902 0.122 7.52 3.19 13.42
12/30/2021 1:30:00 PM 4.43 39.974 0.122 7.52 3.58 13.43
12/30/2021 1:45:00 PM 4.46 40.028 0.12 7.54 2.98 13.42
12/30/2021 2:00:00 PM 4.49 40.082 0.122 7.54 3.38 13.38
12/30/2021 2:15:00 PM 4.51 40.118 0.122 7.53 3.26 13.34
12/30/2021 2:30:00 PM 4.53 40.154 0.122 7.53 3.01 13.32
12/30/2021 2:45:00 PM 4.56 40.208 0.121 7.53 3.07 13.32
12/30/2021 3:00:00 PM 4.57 40.226 0.12 7.52 2.69 13.27
12/30/2021 3:15:00 PM 4.6 40.28 0.12 7.51 3.06 13.23
12/30/2021 3:30:00 PM 4.61 40.298 0.121 7.5 3.02 13.17
12/30/2021 3:45:00 PM 4.64 40.352 0.12 7.48 3.08 13.13
12/30/2021 4:00:00 PM 4.65 40.37 0.121 7.46 3.12 13.09
12/30/2021 4:15:00 PM 4.66 40.388 0.12 7.45 3.55 13.03
12/30/2021 4:30:00 PM 4.67 40.406 0.12 7.43 3.18 12.98
12/30/2021 4:45:00 PM 4.68 40.424 0.12 7.41 3.65 12.94
12/30/2021 5:00:00 PM 4.68 40.424 0.121 7.39 3.61 12.9
12/30/2021 5:15:00 PM 4.69 40.442 0.12 7.37 3.41 12.87
12/30/2021 5:30:00 PM 4.7 40.46 0.12 7.36 3.41 12.84
12/30/2021 5:45:00 PM 4.7 40.46 0.12 7.35 3.3 12.82
12/30/2021 6:00:00 PM 4.7 40.46 0.12 7.34 3.2 12.8
12/30/2021 6:15:00 PM 4.71 40.478 0.121 7.33 3.25 12.79
12/30/2021 6:30:00 PM 4.71 40.478 0.12 7.32 3.62 12.78
12/30/2021 6:45:00 PM 4.71 40.478 0.12 7.31 3.09 12.77
12/30/2021 7:00:00 PM 4.71 40.478 0.12 7.31 3.37 12.76
12/30/2021 7:15:00 PM 4.71 40.478 0.12 7.3 3.21 12.76
12/30/2021 7:30:00 PM 4.71 40.478 0.121 7.3 3.53 12.75
12/30/2021 7:45:00 PM 4.71 40.478 0.12 7.29 3.36 12.75
12/30/2021 8:00:00 PM 4.71 40.478 0.12 7.28 3.28 12.74
12/30/2021 8:15:00 PM 4.71 40.478 0.12 7.28 3.32 12.74
12/30/2021 8:30:00 PM 4.72 40.496 0.12 7.28 3.6 12.74
12/30/2021 8:45:00 PM 4.7 40.46 0.12 7.28 3.08 12.73
12/30/2021 9:00:00 PM 4.68 40.424 0.119 7.28 3.37 12.73
12/30/2021 9:15:00 PM 4.68 40.424 0.12 7.27 3.08 12.73
12/30/2021 9:30:00 PM 4.69 40.442 0.121 7.27 3.02 12.73
12/30/2021 9:45:00 PM 4.7 40.46 0.12 7.27 3 12.73
12/30/2021 10:00:00 PM 4.7 40.46 0.12 7.27 2.94 12.73
12/30/2021 10:15:00 PM 4.71 40.478 0.119 7.27 3.12 12.73
12/30/2021 10:30:00 PM 4.69 40.442 0.12 7.27 4.34 12.72
12/30/2021 10:45:00 PM 4.68 40.424 0.12 7.27 3.25 12.73
12/30/2021 11:00:00 PM 4.66 40.388 0.12 7.26 3.13 12.73
12/30/2021 11:15:00 PM 4.64 40.352 0.12 7.26 3.32 12.73
12/30/2021 11:30:00 PM 4.63 40.334 0.121 7.26 3.25 12.74
12/30/2021 11:45:00 PM 4.62 40.316 0.12 7.26 3.26 12.74
12/31/2021 12:00:00 AM 4.62 40.316 0.121 7.26 3.35 12.74
12/31/2021 12:15:00 AM 4.61 40.298 0.12 7.26 3.41 12.74
12/31/2021 12:30:00 AM 4.6 40.28 0.121 7.26 3.22 12.74
12/31/2021 12:45:00 AM 4.59 40.262 0.12 7.26 3.25 12.75
12/31/2021 1:00:00 AM 4.58 40.244 0.121 7.25 3.6 12.75
12/31/2021 1:15:00 AM 4.57 40.226 0.12 7.26 3.56 12.76
12/31/2021 1:30:00 AM 4.56 40.208 0.12 7.26 3.1 12.77
12/31/2021 1:45:00 AM 4.55 40.19 0.121 7.26 3.5 12.76
12/31/2021 2:00:00 AM 4.55 40.19 0.122 7.26 3.14 12.77
12/31/2021 2:15:00 AM 4.53 40.154 0.121 7.26 3.38 12.78
12/31/2021 2:30:00 AM 4.52 40.136 0.12 7.26 3.56 12.78
12/31/2021 2:45:00 AM 4.51 40.118 0.121 7.26 3.25 12.78
12/31/2021 3:00:00 AM 4.49 40.082 0.121 7.25 3.11 12.79
12/31/2021 3:15:00 AM 4.48 40.064 0.121 7.25 3.31 12.79
12/31/2021 3:30:00 AM 4.47 40.046 0.12 7.25 3.38 12.79
12/31/2021 3:45:00 AM 4.46 40.028 0.121 7.25 3.13 12.79
12/31/2021 4:00:00 AM 4.44 39.992 0.121 7.25 3.28 12.8
12/31/2021 4:15:00 AM 4.43 39.974 0.121 7.25 3.16 12.8
12/31/2021 4:30:00 AM 4.42 39.956 0.121 7.25 3.18 12.8
12/31/2021 4:45:00 AM 4.41 39.938 0.121 7.25 3.63 12.81
12/31/2021 5:00:00 AM 4.41 39.938 0.122 7.25 3.05 12.81
12/31/2021 5:15:00 AM 4.41 39.938 0.121 7.25 3.17 12.81
12/31/2021 5:30:00 AM 4.41 39.938 0.121 7.25 3.88 12.82
12/31/2021 5:45:00 AM 4.41 39.938 0.121 7.25 3.07 12.81
12/31/2021 6:00:00 AM 4.4 39.92 0.12 7.25 3.34 12.81
12/31/2021 6:15:00 AM 4.4 39.92 0.121 7.25 3.01 12.82
12/31/2021 6:30:00 AM 4.39 39.902 0.121 7.25 3.39 12.82
12/31/2021 6:45:00 AM 4.39 39.902 0.12 7.25 3.12 12.82
12/31/2021 7:00:00 AM 4.39 39.902 0.121 7.25 3.02 12.83
12/31/2021 7:15:00 AM 4.39 39.902 0.121 7.25 3.44 12.83
12/31/2021 7:30:00 AM 4.39 39.902 0.119 7.25 3.32 12.83
12/31/2021 7:45:00 AM 4.38 39.884 0.12 7.25 3.04 12.83
12/31/2021 8:00:00 AM 4.38 39.884 0.121 7.26 3.26 12.86
12/31/2021 8:15:00 AM 4.38 39.884 0.12 7.26 3.28 12.88
12/31/2021 8:30:00 AM 4.4 39.92 0.12 7.27 3.24 12.94
12/31/2021 8:45:00 AM 4.41 39.938 0.121 7.29 3.39 12.98
12/31/2021 9:00:00 AM 4.44 39.992 0.12 7.3 3.15 13.03
12/31/2021 9:15:00 AM 4.48 40.064 0.121 7.34 3.39 13.11
12/31/2021 9:30:00 AM 4.53 40.154 0.12 7.36 3.21 13.17
12/31/2021 9:45:00 AM 4.56 40.208 0.119 7.39 3.22 13.21
12/31/2021 10:00:00 AM 4.63 40.334 0.12 7.42 3.18 13.27
12/31/2021 10:15:00 AM 4.67 40.406 0.12 7.45 3.2 13.27
12/31/2021 10:30:00 AM 4.73 40.514 0.12 7.47 3.2 13.33
12/31/2021 10:45:00 AM 4.77 40.586 0.12 7.49 3.25 13.31
12/31/2021 11:00:00 AM 4.8 40.64 0.12 7.51 3.12 13.32
12/31/2021 11:15:00 AM 4.87 40.766 0.12 7.52 3.24 13.31
12/31/2021 11:30:00 AM 4.96 40.928 0.12 7.55 3.63 13.37
12/31/2021 11:45:00 AM 5.05 41.09 0.12 7.58 3.41 13.38
12/31/2021 12:00:00 PM 5.13 41.234 0.119 7.61 2.79 13.39
12/31/2021 12:15:00 PM 5.27 41.486 0.119 7.65 3.19 13.39
12/31/2021 12:30:00 PM 5.38 41.684 0.118 7.68 3.14 13.39
12/31/2021 12:45:00 PM 5.49 41.882 0.119 7.7 3.15 13.34
12/31/2021 1:00:00 PM 5.53 41.954 0.118 7.71 3.32 13.29
12/31/2021 1:15:00 PM 5.57 42.026 0.119 7.71 3.21 13.26
12/31/2021 1:30:00 PM 5.6 42.08 0.12 7.71 3.24 13.25
12/31/2021 1:45:00 PM 5.63 42.134 0.118 7.72 2.93 13.23
12/31/2021 2:00:00 PM 5.66 42.188 0.119 7.71 3.2 13.18
12/31/2021 2:15:00 PM 5.69 42.242 0.119 7.71 3.18 13.15
12/31/2021 2:30:00 PM 5.72 42.296 0.119 7.72 3.18 13.13
12/31/2021 2:45:00 PM 5.73 42.314 0.119 7.71 3.03 13.12
12/31/2021 3:00:00 PM 5.75 42.35 0.119 7.72 3.38 13.12
12/31/2021 3:15:00 PM 5.76 42.368 0.118 7.72 2.99 13.09
12/31/2021 3:30:00 PM 5.78 42.404 0.119 7.7 3.1 13.03
12/31/2021 3:45:00 PM 5.77 42.386 0.118 7.67 3.27 12.97
12/31/2021 4:00:00 PM 5.78 42.404 0.119 7.64 3.2 12.92
12/31/2021 4:15:00 PM 5.78 42.404 0.118 7.6 2.89 12.84
12/31/2021 4:30:00 PM 5.79 42.422 0.119 7.57 3.12 12.76
12/31/2021 4:45:00 PM 5.79 42.422 0.12 7.53 3.28 12.68
12/31/2021 5:00:00 PM 5.78 42.404 0.12 7.49 3.46 12.62
12/31/2021 5:15:00 PM 5.78 42.404 0.119 7.46 3.15 12.57
12/31/2021 5:30:00 PM 5.78 42.404 0.12 7.43 3.39 12.52
12/31/2021 5:45:00 PM 5.78 42.404 0.12 7.41 3.4 12.48
12/31/2021 6:00:00 PM 5.78 42.404 0.12 7.4 3.31 12.47
12/31/2021 6:15:00 PM 5.77 42.386 0.119 7.38 3.17 12.44
12/31/2021 6:30:00 PM 5.77 42.386 0.119 7.37 3.68 12.43
12/31/2021 6:45:00 PM 5.76 42.368 0.12 7.35 3.24 12.41
12/31/2021 7:00:00 PM 5.76 42.368 0.12 7.34 2.91 12.41
12/31/2021 7:15:00 PM 5.76 42.368 0.119 7.34 3.01 12.4
12/31/2021 7:30:00 PM 5.75 42.35 0.12 7.33 3.1 12.39
12/31/2021 7:45:00 PM 5.75 42.35 0.12 7.32 3.2 12.38
12/31/2021 8:00:00 PM 5.74 42.332 0.12 7.32 3.28 12.38
12/31/2021 8:15:00 PM 5.73 42.314 0.12 7.31 3.15 12.39
12/31/2021 8:30:00 PM 5.72 42.296 0.12 7.31 2.87 12.37
12/31/2021 8:45:00 PM 5.71 42.278 0.12 7.3 3.34 12.38
12/31/2021 9:00:00 PM 5.71 42.278 0.119 7.3 3.22 12.37
12/31/2021 9:15:00 PM 5.72 42.296 0.121 7.3 3.25 12.37
12/31/2021 9:30:00 PM 5.72 42.296 0.12 7.3 3.07 12.37
12/31/2021 9:45:00 PM 5.73 42.314 0.12 7.3 3.31 12.37
12/31/2021 10:00:00 PM 5.74 42.332 0.121 7.3 3.62 12.36
12/31/2021 10:15:00 PM 5.74 42.332 0.121 7.3 3 12.36
12/31/2021 10:30:00 PM 5.75 42.35 0.119 7.3 3.27 12.37
12/31/2021 10:45:00 PM 5.75 42.35 0.12 7.3 3.24 12.35
12/31/2021 11:00:00 PM 5.76 42.368 0.12 7.3 3.21 12.36
12/31/2021 11:15:00 PM 5.76 42.368 0.121 7.29 3.24 12.34
12/31/2021 11:30:00 PM 5.76 42.368 0.121 7.29 2.81 12.34
12/31/2021 11:45:00 PM 5.76 42.368 0.12 7.29 2.85 12.35
1/1/2022 12:00:00 AM 5.76 42.368 0.12 7.28 2.85 12.35
1/1/2022 12:15:00 AM 5.77 42.386 0.12 7.28 3.06 12.33
1/1/2022 12:30:00 AM 5.77 42.386 0.122 7.28 3.11 12.34
1/1/2022 12:45:00 AM 5.77 42.386 0.121 7.28 2.79 12.32
1/1/2022 1:00:00 AM 5.77 42.386 0.12 7.28 2.92 12.32
1/1/2022 1:15:00 AM 5.77 42.386 0.121 7.28 3.14 12.32
1/1/2022 1:30:00 AM 5.77 42.386 0.12 7.28 3.19 12.32
1/1/2022 1:45:00 AM 5.77 42.386 0.123 7.28 3.65 12.33
1/1/2022 2:00:00 AM 5.77 42.386 0.121 7.28 2.95 12.31
1/1/2022 2:15:00 AM 5.77 42.386 0.122 7.28 2.86 12.32
1/1/2022 2:30:00 AM 5.77 42.386 0.123 7.29 2.87 12.32
1/1/2022 2:45:00 AM 5.77 42.386 0.122 7.29 3.21 12.31
1/1/2022 3:00:00 AM 5.77 42.386 0.122 7.29 3.41 12.32
1/1/2022 3:15:00 AM 5.78 42.404 0.122 7.29 3.46 12.32
1/1/2022 3:30:00 AM 5.78 42.404 0.122 7.29 2.9 12.32
1/1/2022 3:45:00 AM 5.78 42.404 0.122 7.29 3 12.31
1/1/2022 4:00:00 AM 5.79 42.422 0.122 7.29 3.28 12.3
1/1/2022 4:15:00 AM 5.8 42.44 0.122 7.29 3.66 12.3
1/1/2022 4:30:00 AM 5.8 42.44 0.122 7.29 3.18 12.31
1/1/2022 4:45:00 AM 5.8 42.44 0.123 7.29 3.2 12.3
1/1/2022 5:00:00 AM 5.82 42.476 0.122 7.29 3.45 12.3
1/1/2022 5:15:00 AM 5.82 42.476 0.121 7.29 2.96 12.29
1/1/2022 5:30:00 AM 5.83 42.494 0.122 7.29 3.79 12.29
1/1/2022 5:45:00 AM 5.83 42.494 0.122 7.29 4.05 12.28
1/1/2022 6:00:00 AM 5.83 42.494 0.123 7.29 3.07 12.29
1/1/2022 6:15:00 AM 5.82 42.476 0.122 7.29 3.07 12.29
1/1/2022 6:30:00 AM 5.82 42.476 0.122 7.29 3.32 12.29
1/1/2022 6:45:00 AM 5.82 42.476 0.123 7.29 3.15 12.28
1/1/2022 7:00:00 AM 5.82 42.476 0.123 7.29 3.21 12.28
1/1/2022 7:15:00 AM 5.82 42.476 0.122 7.29 2.98 12.29
1/1/2022 7:30:00 AM 5.82 42.476 0.121 7.29 3.5 12.29
1/1/2022 7:45:00 AM 5.83 42.494 0.122 7.29 3.48 12.3
1/1/2022 8:00:00 AM 5.83 42.494 0.122 7.29 3.7 12.3
1/1/2022 8:15:00 AM 5.83 42.494 0.123 7.3 3.57 12.34
1/1/2022 8:30:00 AM 5.85 42.53 0.122 7.31 3.02 12.36
1/1/2022 8:45:00 AM 5.86 42.548 0.122 7.32 3.06 12.4
1/1/2022 9:00:00 AM 5.88 42.584 0.123 7.33 2.93 12.42
1/1/2022 9:15:00 AM 5.9 42.62 0.121 7.35 2.85 12.46
1/1/2022 9:30:00 AM 5.93 42.674 0.121 7.36 3 12.48
1/1/2022 9:45:00 AM 5.95 42.71 0.122 7.37 3.01 12.52
1/1/2022 10:00:00 AM 5.98 42.764 0.121 7.39 3.03 12.56
1/1/2022 10:15:00 AM 6.01 42.818 0.122 7.42 2.95 12.61
1/1/2022 10:30:00 AM 6.06 42.908 0.121 7.44 3.16 12.67
1/1/2022 10:45:00 AM 6.1 42.98 0.12 7.47 2.96 12.71
1/1/2022 11:00:00 AM 6.14 43.052 0.121 7.49 3.03 12.73
1/1/2022 11:15:00 AM 6.18 43.124 0.121 7.51 2.77 12.72
1/1/2022 11:30:00 AM 6.21 43.178 0.122 7.52 3.33 12.74
1/1/2022 11:45:00 AM 6.24 43.232 0.121 7.54 2.97 12.74
1/1/2022 12:00:00 PM 6.28 43.304 0.12 7.56 10.68 12.76
1/1/2022 12:15:00 PM 6.31 43.358 0.121 7.57 7.88 12.77
1/1/2022 12:30:00 PM 6.35 43.43 0.121 7.59 2.77 12.76
1/1/2022 12:45:00 PM 6.37 43.466 0.121 7.59 2.82 12.74
1/1/2022 1:00:00 PM 6.4 43.52 0.12 7.6 3.38 12.73
1/1/2022 1:15:00 PM 6.44 43.592 0.121 7.62 3.18 12.75
1/1/2022 1:30:00 PM 6.48 43.664 0.119 7.63 2.93 12.76
1/1/2022 1:45:00 PM 6.53 43.754 0.119 7.65 3.11 12.77
1/1/2022 2:00:00 PM 6.58 43.844 0.12 7.67 8.17 12.77
1/1/2022 2:15:00 PM 6.63 43.934 0.12 7.69 3.29 12.76
1/1/2022 2:30:00 PM 6.66 43.988 0.119 7.69 7.76 12.72
1/1/2022 2:45:00 PM 6.68 44.024 0.12 7.68 3.48 12.69
1/1/2022 3:00:00 PM 6.7 44.06 0.119 7.66 3.05 12.62
1/1/2022 3:15:00 PM 6.69 44.042 0.119 7.63 7.55 12.54
1/1/2022 3:30:00 PM 6.69 44.042 0.119 7.59 2.86 12.48
1/1/2022 3:45:00 PM 6.69 44.042 0.118 7.56 4.48 12.42
1/1/2022 4:00:00 PM 6.7 44.06 0.119 7.53 7.68 12.35
1/1/2022 4:15:00 PM 6.71 44.078 0.12 7.5 10.26 12.29
1/1/2022 4:30:00 PM 6.71 44.078 0.12 7.47 2.95 12.24
1/1/2022 4:45:00 PM 6.71 44.078 0.12 7.44 3.04 12.19
1/1/2022 5:00:00 PM 6.71 44.078 0.119 7.41 3.71 12.15
1/1/2022 5:15:00 PM 6.71 44.078 0.12 7.4 8.01 12.11
1/1/2022 5:30:00 PM 6.71 44.078 0.12 7.37 3.3 12.08
1/1/2022 5:45:00 PM 6.7 44.06 0.12 7.36 2.93 12.06
1/1/2022 6:00:00 PM 6.7 44.06 0.121 7.35 2.99 12.04
1/1/2022 6:15:00 PM 6.7 44.06 0.119 7.34 3.08 12.03
1/1/2022 6:30:00 PM 6.7 44.06 0.119 7.33 3.31 12.01
1/1/2022 6:45:00 PM 6.7 44.06 0.12 7.32 3.42 12.01
1/1/2022 7:00:00 PM 6.7 44.06 0.12 7.31 8.49 12
1/1/2022 7:15:00 PM 6.7 44.06 0.119 7.3 8.04 11.99
1/1/2022 7:30:00 PM 6.71 44.078 0.12 7.29 3.5 11.99
1/1/2022 7:45:00 PM 6.71 44.078 0.12 7.28 3.09 11.99
1/1/2022 8:00:00 PM 6.71 44.078 0.119 7.28 2.98 11.98
1/1/2022 8:15:00 PM 6.71 44.078 0.119 7.27 3.44 11.98
1/1/2022 8:30:00 PM 6.72 44.096 0.119 7.27 3.27 11.97
1/1/2022 8:45:00 PM 6.72 44.096 0.118 7.26 7.88 11.96
1/1/2022 9:00:00 PM 6.72 44.096 0.118 7.26 4.08 11.96
1/1/2022 9:15:00 PM 6.73 44.114 0.118 7.25 3.35 11.95
1/1/2022 9:30:00 PM 6.73 44.114 0.119 7.25 3.4 11.95
1/1/2022 9:45:00 PM 6.74 44.132 0.119 7.24 3.3 11.94
1/1/2022 10:00:00 PM 6.74 44.132 0.119 7.24 3.42 11.92
1/1/2022 10:15:00 PM 6.74 44.132 0.118 7.25 3.19 11.91
1/1/2022 10:30:00 PM 6.76 44.168 0.119 7.26 3.11 11.91
1/1/2022 10:45:00 PM 6.79 44.222 0.12 7.27 3.02 11.9
1/1/2022 11:00:00 PM 6.8 44.24 0.119 7.27 2.97 11.9
1/1/2022 11:15:00 PM 6.81 44.258 0.12 7.28 3.42 11.9
1/1/2022 11:30:00 PM 6.81 44.258 0.119 7.28 3.49 11.88
1/1/2022 11:45:00 PM 6.82 44.276 0.12 7.28 3.78 11.88
1/2/2022 12:00:00 AM 6.82 44.276 0.12 7.28 3.63 11.88
1/2/2022 12:15:00 AM 6.83 44.294 0.12 7.28 3.16 11.89
1/2/2022 12:30:00 AM 6.84 44.312 0.119 7.29 4.04 11.88
1/2/2022 12:45:00 AM 6.84 44.312 0.121 7.29 3.22 11.88
1/2/2022 1:00:00 AM 6.85 44.33 0.12 7.29 3.19 11.87
1/2/2022 1:15:00 AM 6.85 44.33 0.121 7.29 3.6 11.88
1/2/2022 1:30:00 AM 6.86 44.348 0.121 7.29 3.09 11.88
1/2/2022 1:45:00 AM 6.85 44.33 0.12 7.29 3.5 11.88
1/2/2022 2:00:00 AM 6.84 44.312 0.121 7.29 3.46 11.88
1/2/2022 2:15:00 AM 6.82 44.276 0.122 7.29 3.09 11.89
1/2/2022 2:30:00 AM 6.81 44.258 0.121 7.29 3.32 11.88
1/2/2022 2:45:00 AM 6.79 44.222 0.121 7.3 3.3 11.88
1/2/2022 3:00:00 AM 6.77 44.186 0.121 7.3 3.84 11.89
1/2/2022 3:15:00 AM 6.75 44.15 0.121 7.3 3.7 11.9
1/2/2022 3:30:00 AM 6.73 44.114 0.121 7.3 3.26 11.9
1/2/2022 3:45:00 AM 6.71 44.078 0.121 7.3 4.2 11.91
1/2/2022 4:00:00 AM 6.69 44.042 0.121 7.29 3.78 11.92
1/2/2022 4:15:00 AM 6.67 44.006 0.122 7.3 3.95 11.93
1/2/2022 4:30:00 AM 6.64 43.952 0.121 7.3 3.46 11.93
1/2/2022 4:45:00 AM 6.62 43.916 0.122 7.29 3.74 11.93
1/2/2022 5:00:00 AM 6.6 43.88 0.121 7.29 3.52 11.94
1/2/2022 5:15:00 AM 6.57 43.826 0.121 7.29 3.47 11.95
1/2/2022 5:30:00 AM 6.54 43.772 0.121 7.3 3.19 11.96
1/2/2022 5:45:00 AM 6.51 43.718 0.122 7.3 3.25 11.97
1/2/2022 6:00:00 AM 6.48 43.664 0.123 7.29 3.57 11.98
1/2/2022 6:15:00 AM 6.45 43.61 0.122 7.29 3.64 11.99
1/2/2022 6:30:00 AM 6.42 43.556 0.122 7.29 3.23 11.99
1/2/2022 6:45:00 AM 6.39 43.502 0.122 7.29 3.85 12
1/2/2022 7:00:00 AM 6.36 43.448 0.123 7.29 3.72 12.02
1/2/2022 7:15:00 AM 6.33 43.394 0.122 7.29 3.48 12.03
1/2/2022 7:30:00 AM 6.31 43.358 0.123 7.29 4 12.04
1/2/2022 7:45:00 AM 6.28 43.304 0.122 7.3 3.26 12.06
1/2/2022 8:00:00 AM 6.25 43.25 0.122 7.3 3.75 12.07
1/2/2022 8:15:00 AM 6.22 43.196 0.122 7.3 3.61 12.1
1/2/2022 8:30:00 AM 6.2 43.16 0.122 7.31 4.2 12.13
1/2/2022 8:45:00 AM 6.18 43.124 0.123 7.32 3.62 12.17
1/2/2022 9:00:00 AM 6.15 43.07 0.122 7.33 3.67 12.22
1/2/2022 9:15:00 AM 6.13 43.034 0.122 7.34 3.94 12.27
1/2/2022 9:30:00 AM 6.11 42.998 0.122 7.35 3.76 12.3
1/2/2022 9:45:00 AM 6.09 42.962 0.122 7.36 3.47 12.32
1/2/2022 10:00:00 AM 6.08 42.944 0.122 7.37 3.59 12.37
1/2/2022 10:15:00 AM 6.08 42.944 0.122 7.39 8.86 12.43
1/2/2022 10:30:00 AM 6.09 42.962 0.122 7.41 3.83 12.5
1/2/2022 10:45:00 AM 6.09 42.962 0.121 7.43 4.32 12.55
1/2/2022 11:00:00 AM 6.08 42.944 0.121 7.45 3.63 12.58
1/2/2022 11:15:00 AM 6.08 42.944 0.121 7.46 3.45 12.6
1/2/2022 11:30:00 AM 6.05 42.89 0.122 7.47 4.11 12.59
1/2/2022 11:45:00 AM 6.02 42.836 0.121 7.46 3.78 12.57
1/2/2022 12:00:00 PM 6 42.8 0.121 7.47 4.01 12.6
1/2/2022 12:15:00 PM 5.98 42.764 0.121 7.47 3.81 12.61
1/2/2022 12:30:00 PM 5.98 42.764 0.122 7.48 3.68 12.65
1/2/2022 12:45:00 PM 5.97 42.746 0.121 7.5 4.02 12.67
1/2/2022 1:00:00 PM 5.94 42.692 0.121 7.5 3.79 12.67
1/2/2022 1:15:00 PM 5.92 42.656 0.121 7.5 3.91 12.68
1/2/2022 1:30:00 PM 5.9 42.62 0.121 7.51 3.84 12.69
1/2/2022 1:45:00 PM 5.88 42.584 0.121 7.51 3.81 12.71
1/2/2022 2:00:00 PM 5.86 42.548 0.121 7.51 3.3 12.7
1/2/2022 2:15:00 PM 5.84 42.512 0.122 7.51 3.69 12.71
1/2/2022 2:30:00 PM 5.81 42.458 0.122 7.51 3.44 12.7
1/2/2022 2:45:00 PM 5.78 42.404 0.121 7.5 3.86 12.69
1/2/2022 3:00:00 PM 5.75 42.35 0.121 7.5 4.05 12.68
1/2/2022 3:15:00 PM 5.72 42.296 0.122 7.48 4.24 12.68
1/2/2022 3:30:00 PM 5.68 42.224 0.122 7.47 3.83 12.65
1/2/2022 3:45:00 PM 5.64 42.152 0.122 7.45 3.69 12.62
1/2/2022 4:00:00 PM 5.59 42.062 0.122 7.44 4.17 12.61
1/2/2022 4:15:00 PM 5.54 41.972 0.121 7.43 3.51 12.6
1/2/2022 4:30:00 PM 5.5 41.9 0.122 7.42 3.7 12.59
1/2/2022 4:45:00 PM 5.44 41.792 0.122 7.4 3.17 12.59
1/2/2022 5:00:00 PM 5.39 41.702 0.122 7.38 3.93 12.58
1/2/2022 5:15:00 PM 5.33 41.594 0.122 7.37 3.91 12.58
1/2/2022 5:30:00 PM 5.26 41.468 0.122 7.36 4.28 12.59
1/2/2022 5:45:00 PM 5.21 41.378 0.122 7.34 3.73 12.59
1/2/2022 6:00:00 PM 5.15 41.27 0.121 7.33 3.45 12.6
1/2/2022 6:15:00 PM 5.1 41.18 0.121 7.32 3.6 12.62
1/2/2022 6:30:00 PM 5.05 41.09 0.121 7.31 3.92 12.63
1/2/2022 6:45:00 PM 4.99 40.982 0.121 7.31 3.4 12.64
1/2/2022 7:00:00 PM 4.96 40.928 0.121 7.3 4.06 12.65
1/2/2022 7:15:00 PM 4.92 40.856 0.121 7.3 5.65 12.67
1/2/2022 7:30:00 PM 4.88 40.784 0.121 7.3 3.48 12.68
1/2/2022 7:45:00 PM 4.84 40.712 0.121 7.29 4.53 12.69
1/2/2022 8:00:00 PM 4.81 40.658 0.121 7.29 3.45 12.71
1/2/2022 8:15:00 PM 4.77 40.586 0.121 7.29 3.24 12.72
1/2/2022 8:30:00 PM 4.73 40.514 0.121 7.29 8.61 12.74
1/2/2022 8:45:00 PM 4.7 40.46 0.121 7.29 3.92 12.74
1/2/2022 9:00:00 PM 4.65 40.37 0.121 7.29 4.13 12.76
1/2/2022 9:15:00 PM 4.61 40.298 0.121 7.29 3.94 12.78
1/2/2022 9:30:00 PM 4.57 40.226 0.121 7.28 3.77 12.79
1/2/2022 9:45:00 PM 4.53 40.154 0.121 7.28 3.7 12.81
1/2/2022 10:00:00 PM 4.49 40.082 0.121 7.28 3.67 12.82
1/2/2022 10:15:00 PM 4.45 40.01 0.122 7.28 3.6 12.84
1/2/2022 10:30:00 PM 4.41 39.938 0.121 7.28 3.67 12.85
1/2/2022 10:45:00 PM 4.36 39.848 0.121 7.28 3.84 12.86
1/2/2022 11:00:00 PM 4.3 39.74 0.121 7.28 3.8 12.89
1/2/2022 11:15:00 PM 4.24 39.632 0.121 7.28 3.73 12.89
1/2/2022 11:30:00 PM 4.19 39.542 0.121 7.27 3.63 12.92
1/2/2022 11:45:00 PM 4.14 39.452 0.121 7.27 3.35 12.94
1/3/2022 12:00:00 AM 4.08 39.344 0.122 7.27 3.72 12.95
1/3/2022 12:15:00 AM 4.03 39.254 0.122 7.27 3.75 12.98
1/3/2022 12:30:00 AM 3.97 39.146 0.122 7.27 8.04 13
1/3/2022 12:45:00 AM 3.92 39.056 0.122 7.26 3.66 13.02
1/3/2022 1:00:00 AM 3.87 38.966 0.121 7.26 3.81 13.04
1/3/2022 1:15:00 AM 3.84 38.912 0.122 7.26 4.46 13.05
1/3/2022 1:30:00 AM 3.78 38.804 0.122 7.26 3.38 13.08
1/3/2022 1:45:00 AM 3.74 38.732 0.122 7.26 3.66 13.09
1/3/2022 2:00:00 AM 3.67 38.606 0.122 7.26 7.82 13.12
1/3/2022 2:15:00 AM 3.61 38.498 0.122 7.26 3.84 13.14
1/3/2022 2:30:00 AM 3.56 38.408 0.122 7.26 3.53 13.17
1/3/2022 2:45:00 AM 3.5 38.3 0.122 7.26 3.49 13.19
1/3/2022 3:00:00 AM 3.45 38.21 0.122 7.26 4.11 13.21
1/3/2022 3:15:00 AM 3.41 38.138 0.124 7.25 3.48 13.22
1/3/2022 3:30:00 AM 3.36 38.048 0.122 7.26 4.07 13.24
1/3/2022 3:45:00 AM 3.31 37.958 0.123 7.26 3.56 13.26
1/3/2022 4:00:00 AM 3.26 37.868 0.123 7.25 3.29 13.28
1/3/2022 4:15:00 AM 3.2 37.76 0.122 7.26 3.73 13.31
1/3/2022 4:30:00 AM 3.16 37.688 0.123 7.25 4.62 13.31
1/3/2022 4:45:00 AM 3.12 37.616 0.123 7.26 3.38 13.33
1/3/2022 5:00:00 AM 3.06 37.508 0.123 7.26 4.1 13.35
1/3/2022 5:15:00 AM 3.02 37.436 0.123 7.26 3.6 13.37
1/3/2022 5:30:00 AM 2.98 37.364 0.123 7.26 3.7 13.39
1/3/2022 5:45:00 AM 2.94 37.292 0.123 7.26 3.71 13.41
1/3/2022 6:00:00 AM 2.89 37.202 0.123 7.26 3.08 13.42
1/3/2022 6:15:00 AM 2.85 37.13 0.122 7.26 3.53 13.44
1/3/2022 6:30:00 AM 2.8 37.04 0.123 7.26 3.79 13.45
1/3/2022 6:45:00 AM 2.76 36.968 0.123 7.26 3.45 13.48
1/3/2022 7:00:00 AM 2.71 36.878 0.123 7.26 3.62 13.49
1/3/2022 7:15:00 AM 2.66 36.788 0.123 7.26 3.3 13.5
1/3/2022 7:30:00 AM 2.63 36.734 0.123 7.26 3.73 13.52
1/3/2022 7:45:00 AM 2.6 36.68 0.123 7.26 4.02 13.54
1/3/2022 8:00:00 AM 2.56 36.608 0.123 7.27 3.49 13.56
1/3/2022 8:15:00 AM 2.53 36.554 0.123 7.27 3.12 13.6
1/3/2022 8:30:00 AM 2.5 36.5 0.124 7.28 3.63 13.63
1/3/2022 8:45:00 AM 2.46 36.428 0.123 7.29 3.14 13.68
1/3/2022 9:00:00 AM 2.43 36.374 0.123 7.3 3.57 13.73
1/3/2022 9:15:00 AM 2.41 36.338 0.123 7.31 3.27 13.77
1/3/2022 9:30:00 AM 2.38 36.284 0.123 7.32 3.17 13.82
1/3/2022 9:45:00 AM 2.37 36.266 0.123 7.33 3.43 13.86
1/3/2022 10:00:00 AM 2.35 36.23 0.123 7.35 3.96 13.91
1/3/2022 10:15:00 AM 2.33 36.194 0.124 7.36 3.61 13.95
1/3/2022 10:30:00 AM 2.23 36.014 0.136 7.52 3.89 13.73
1/3/2022 10:45:00 AM 2.22 35.996 0.132 7.55 3.83 13.75
1/3/2022 11:00:00 AM 2.21 35.978 0.062 7.55 3.97 13.79
1/3/2022 11:15:00 AM 2.21 35.978 0.065 7.56 3.88 13.84
1/3/2022 11:30:00 AM 2.2 35.96 0.063 7.58 3.81 13.87
1/3/2022 11:45:00 AM 2.19 35.942 0.068 7.59 4.14 13.9
1/3/2022 12:00:00 PM 2.18 35.924 0.061 7.61 3.79 13.93
1/3/2022 12:15:00 PM 2.18 35.924 0.129 7.63 3.79 13.95
1/3/2022 12:30:00 PM 2.19 35.942 0.13 7.65 3.78 13.97
1/3/2022 12:45:00 PM 2.2 35.96 0.063 7.66 3.89 13.99
1/3/2022 1:00:00 PM 2.2 35.96 0.062 7.68 3.91 14
1/3/2022 1:15:00 PM 2.2 35.96 0.069 7.68 3.77 14.01
1/3/2022 1:30:00 PM 2.19 35.942 0.13 7.69 3.77 14.01
1/3/2022 1:45:00 PM 2.19 35.942 0.061 7.7 3.88 14.02
1/3/2022 2:00:00 PM 2.17 35.906 0.062 7.71 3.83 14.03
1/3/2022 2:15:00 PM 2.15 35.87 0.073 7.72 3.95 14.03
1/3/2022 2:30:00 PM 2.14 35.852 0.061 7.72 3.85 14.04
1/3/2022 2:45:00 PM 2.12 35.816 0.065 7.73 3.82 14.03
1/3/2022 3:00:00 PM 2.1 35.78 0.065 7.73 3.72 14.04
1/3/2022 3:15:00 PM 2.07 35.726 0.064 7.73 3.93 14.04
1/3/2022 3:30:00 PM 2.03 35.654 0.06 7.73 3.96 14.03
1/3/2022 3:45:00 PM 1.99 35.582 0.063 7.72 3.87 14.02
1/3/2022 4:00:00 PM 1.94 35.492 0.061 7.71 3.76 14.01
1/3/2022 4:15:00 PM 1.9 35.42 0.064 7.64 3.89 13.98
1/3/2022 4:30:00 PM 1.84 35.312 0.062 7.6 3.9 13.94
1/3/2022 4:45:00 PM 1.78 35.204 0.064 7.59 3.89 13.9
1/3/2022 5:00:00 PM 1.72 35.096 0.061 7.57 3.84 13.86
1/3/2022 5:15:00 PM 1.65 34.97 0.062 7.56 3.79 13.83
1/3/2022 5:30:00 PM 1.57 34.826 0.13 7.55 3.78 13.82
1/3/2022 5:45:00 PM 1.5 34.7 0.066 7.54 3.89 13.82
1/3/2022 6:00:00 PM 1.44 34.592 0.074 7.53 4.11 13.81
1/3/2022 6:15:00 PM 1.37 34.466 0.08 7.52 3.89 13.83
1/3/2022 6:30:00 PM 1.3 34.34 0.069 7.51 3.94 13.84
1/3/2022 6:45:00 PM 1.23 34.214 0.066 7.51 3.83 13.86
1/3/2022 7:00:00 PM 1.16 34.088 0.063 7.5 3.98 13.88
1/3/2022 7:15:00 PM 1.09 33.962 0.067 7.49 3.89 13.9
1/3/2022 7:30:00 PM 1.03 33.854 0.07 7.49 3.87 13.92
1/3/2022 7:45:00 PM 0.98 33.764 0.079 7.49 4 13.94
1/3/2022 8:00:00 PM 0.93 33.674 0.076 7.49 3.93 13.97
1/3/2022 8:15:00 PM 0.87 33.566 0.062 7.48 3.83 13.98
1/3/2022 8:30:00 PM 0.82 33.476 0.063 7.48 3.9 14.01
1/3/2022 8:45:00 PM 0.76 33.368 0.068 7.47 3.87 14.03
1/3/2022 9:00:00 PM 0.7 33.26 0.062 7.47 3.94 14.05
1/3/2022 9:15:00 PM 0.65 33.17 0.062 7.46 3.97 14.07
1/3/2022 9:30:00 PM 0.61 33.098 0.06 7.46 3.92 14.09
1/3/2022 9:45:00 PM 0.57 33.026 0.066 7.46 3.79 14.11
1/3/2022 10:00:00 PM 0.53 32.954 0.063 7.46 3.78 14.13
1/3/2022 10:15:00 PM 0.49 32.882 0.062 7.45 3.9 14.15
1/3/2022 10:30:00 PM 0.45 32.81 0.132 7.45 3.92 14.17
1/3/2022 10:45:00 PM 0.4 32.72 0.131 7.45 3.99 14.19
1/3/2022 11:00:00 PM 0.37 32.666 0.064 7.45 3.82 14.21
1/3/2022 11:15:00 PM 0.33 32.594 0.067 7.45 3.95 14.22
1/3/2022 11:30:00 PM 0.3 32.54 0.132 7.45 4.01 14.24
1/3/2022 11:45:00 PM 0.26 32.468 0.131 7.45 3.89 14.25
1/4/2022 12:00:00 AM 0.21 32.378 0.066 7.45 3.9 14.27
1/4/2022 12:15:00 AM 0.16 32.288 0.063 7.45 3.9 14.3
1/4/2022 12:30:00 AM 0.11 32.198 0.062 7.45 3.89 14.31
1/4/2022 12:45:00 AM 0.07 32.126 0.131 7.44 3.87 14.33
1/4/2022 1:00:00 AM 0.02 32.036 0.062 7.44 3.74 14.36
1/4/2022 1:15:00 AM -0.02 31.964 0.062 7.44 3.97 14.38
1/4/2022 1:30:00 AM -0.06 31.892 0.133 7.44 3.94 14.39
1/4/2022 1:45:00 AM -0.1 31.82 0.131 7.44 3.9 14.41
1/4/2022 2:00:00 AM -0.11 31.802 0.129 7.44 3.84 14.44
1/4/2022 2:15:00 AM -0.09 31.838 0.129 7.45 4.5 14.46
1/4/2022 2:30:00 AM -0.09 31.838 0.133 7.45 4.37 14.46
1/4/2022 2:45:00 AM -0.09 31.838 0.132 7.45 3.93 14.47
1/4/2022 3:00:00 AM -0.09 31.838 0.133 7.46 3.96 14.49
1/4/2022 3:15:00 AM -0.08 31.856 0.062 7.46 4.06 14.49
1/4/2022 3:30:00 AM -0.08 31.856 0.064 7.46 3.8 14.48
1/4/2022 3:45:00 AM -0.08 31.856 0.133 7.47 3.97 14.49
1/4/2022 4:00:00 AM -0.08 31.856 0.133 7.47 3.92 14.5
1/4/2022 4:15:00 AM -0.08 31.856 0.133 7.46 3.97 14.49
1/4/2022 4:30:00 AM -0.08 31.856 0.061 7.47 4.03 14.5
1/4/2022 4:45:00 AM -0.08 31.856 0.065 7.46 4.05 14.49
1/4/2022 5:00:00 AM -0.08 31.856 0.067 7.46 3.98 14.49
1/4/2022 5:15:00 AM -0.08 31.856 0.063 7.45 3.92 14.46
1/4/2022 5:30:00 AM -0.08 31.856 0.07 7.45 3.93 14.46
1/4/2022 5:45:00 AM -0.08 31.856 0.064 7.45 4 14.47
1/4/2022 6:00:00 AM -0.08 31.856 0.134 7.45 3.89 14.46
1/4/2022 6:15:00 AM -0.08 31.856 0.134 7.45 4.06 14.47
1/4/2022 6:30:00 AM -0.08 31.856 0.062 7.44 3.88 14.46
1/4/2022 6:45:00 AM -0.08 31.856 0.131 7.45 3.8 14.47
1/4/2022 7:00:00 AM -0.08 31.856 0.135 7.44 3.9 14.46
1/4/2022 7:15:00 AM -0.08 31.856 0.135 7.44 3.94 14.47
1/4/2022 7:30:00 AM -0.08 31.856 0.062 7.44 3.96 14.47
1/4/2022 7:45:00 AM -0.08 31.856 0.066 7.45 3.96 14.5
1/4/2022 8:00:00 AM -0.08 31.856 0.064 7.46 3.86 14.54
1/4/2022 8:15:00 AM -0.08 31.856 0.062 7.47 3.81 14.57
1/4/2022 8:30:00 AM -0.08 31.856 0.135 7.48 3.77 14.6
1/4/2022 8:45:00 AM -0.08 31.856 0.134 7.48 3.7 14.64
1/4/2022 9:00:00 AM -0.08 31.856 0.063 7.49 3.86 14.68
1/4/2022 9:15:00 AM -0.08 31.856 0.136 7.51